BA2701 / G-EUYV 7700 Squawk Report (29th of November, 2022)

Aircraft A320 Reg No. G-EUYV Age 8 years old
Model A320 Jet engines 2 First flight 22-04-14
Registered 16-05-14 Rollout 04-14 Delivered 16-05-14
Construction No. 6091 Line No. N/A Series 232(SL)
ADSHEX 406AE2 Airline name British Airways Owner N/A
Airfield based Heathrow~Gtr London~G First tracked N/A

Flight history for G-EUYV

Route Flight No Date Playback
Heathrow (LHR) - Blagnac (TLS) BA376 2023-02-07 20:39:00
Charles De Gaulle (CDG) - Heathrow (LHR) BA323 2023-02-07 20:23:00
Heathrow (LHR) - Charles De Gaulle (CDG) BA316 2023-02-07 18:19:00
Arlanda (ARN) - Heathrow (LHR) BA777 2023-02-07 14:49:00
Heathrow (LHR) - Arlanda (ARN) BA776 2023-02-07 09:42:00
Malpensa (MXP) - Heathrow (LHR) BA581 2023-02-06 21:38:00
Heathrow (LHR) - Malpensa (MXP) BA580 2023-02-06 18:38:00
Lisbon (LIS) - Heathrow (LHR) BA507 2023-02-06 16:45:00
Heathrow (LHR) - Lisbon (LIS) BA506 2023-02-06 13:11:00
Berlin Brandenburg Willy Brandt (BER) - Heathrow (LHR) BA981 2023-02-06 08:04:00
Heathrow (LHR) - Berlin Brandenburg Willy Brandt (BER) BA988 2023-02-05 21:28:00
Blagnac (TLS) - Heathrow (LHR) BA379 2023-02-05 17:55:00
Heathrow (LHR) - Blagnac (TLS) BA378 2023-02-05 16:04:00
Linate (LIN) - Heathrow (LHR) BA565 2023-02-05 12:31:00
Heathrow (LHR) - Linate (LIN) BA564 2023-02-05 10:24:00
Budapest Ferenc Liszt (BUD) - Heathrow (LHR) BA871 2023-02-04 17:09:00
Heathrow (LHR) - Budapest Ferenc Liszt (BUD) BA864 2023-02-04 13:51:00
Schiphol (AMS) - Heathrow (LHR) BA429 2023-02-04 10:04:00
Heathrow (LHR) - Schiphol (AMS) BA428 2023-02-04 08:56:00
Malpensa (MXP) - Heathrow (LHR) BA581 2023-02-03 21:59:00
Time Lat Lon Altitude Heading Speed Vertical Rate
2022-11-29 17:22:42 GMT 51.155422 -0.166150 0 348 0 0
2022-11-29 17:22:40 GMT 51.155430 -0.166149 0 348 0 0
2022-11-29 17:22:36 GMT 51.155415 -0.166149 0 348 0 0
2022-11-29 17:22:35 GMT 51.155411 -0.166150 0 348 0 0
2022-11-29 17:22:34 GMT 51.155399 -0.166168 0 348 0 0
2022-11-29 17:22:32 GMT 51.155399 -0.166168 0 348 0 0
2022-11-29 17:22:29 GMT 51.155399 -0.166168 0 348 0 0
2022-11-29 17:22:26 GMT 51.155392 -0.166168 0 348 0 0
2022-11-29 17:22:24 GMT 51.155380 -0.166149 0 348 0 0
2022-11-29 17:22:21 GMT 51.155365 -0.166150 0 348 0 0
2022-11-29 17:22:18 GMT 51.155365 -0.166150 0 348 0 0
2022-11-29 17:22:17 GMT 51.155354 -0.166150 0 348 2 0
2022-11-29 17:22:16 GMT 51.155334 -0.166149 0 348 2 0
2022-11-29 17:22:14 GMT 51.155331 -0.166131 0 348 2 0
2022-11-29 17:22:12 GMT 51.155312 -0.166130 0 348 2 0
2022-11-29 17:22:10 GMT 51.155289 -0.166130 0 348 3 0
2022-11-29 17:22:07 GMT 51.155266 -0.166111 0 348 3 0
2022-11-29 17:22:06 GMT 51.155262 -0.166113 0 348 3 0
2022-11-29 17:22:05 GMT 51.155231 -0.166111 0 348 4 0
2022-11-29 17:22:04 GMT 51.155216 -0.166094 0 348 4 0
2022-11-29 17:22:03 GMT 51.155209 -0.166092 0 348 4 0
2022-11-29 17:22:02 GMT 51.155193 -0.166092 0 348 5 0
2022-11-29 17:22:00 GMT 51.155148 -0.166073 0 348 5 0
2022-11-29 17:21:59 GMT 51.155125 -0.166075 0 348 5 0
2022-11-29 17:21:57 GMT 51.155079 -0.166057 0 348 6 0
2022-11-29 17:21:52 GMT 51.154930 -0.166020 0 343 8 0
2022-11-29 17:21:49 GMT 51.154823 -0.165977 0 329 8 0
2022-11-29 17:21:45 GMT 51.154682 -0.165901 0 300 8 0
2022-11-29 17:21:37 GMT 51.154610 -0.165556 0 317 8 0
2022-11-29 17:21:35 GMT 51.154587 -0.165482 0 329 8 0
2022-11-29 17:21:33 GMT 51.154556 -0.165424 0 340 8 0
2022-11-29 17:21:32 GMT 51.154518 -0.165370 0 351 9 0
2022-11-29 17:21:27 GMT 51.154346 -0.165291 0 33 9 0
2022-11-29 17:21:25 GMT 51.154186 -0.165444 0 70 10 0
2022-11-29 17:21:23 GMT 51.154186 -0.165444 0 70 10 0
2022-11-29 17:21:19 GMT 51.154129 -0.165704 0 78 11 0
2022-11-29 17:21:18 GMT 51.154125 -0.165749 0 78 12 0
2022-11-29 17:21:15 GMT 51.154007 -0.166645 0 75 15 0
2022-11-29 17:21:09 GMT 51.154007 -0.166645 0 75 15 0
2022-11-29 17:21:06 GMT 51.153946 -0.167022 0 75 17 0
2022-11-29 17:20:49 GMT 51.153603 -0.169468 0 78 23 0
2022-11-29 17:20:39 GMT 51.153385 -0.171086 0 78 22 0
2022-11-29 17:20:30 GMT 51.153206 -0.172386 0 78 21 0
2022-11-29 17:20:24 GMT 51.153088 -0.173257 0 81 19 0
2022-11-29 17:20:15 GMT 51.153008 -0.174465 0 81 18 0
2022-11-29 17:20:12 GMT 51.152973 -0.174828 0 81 18 0
2022-11-29 17:20:09 GMT 51.152950 -0.175095 0 81 17 0
2022-11-29 17:20:04 GMT 51.152870 -0.175726 0 75 17 0
2022-11-29 17:19:59 GMT 51.152786 -0.176334 0 78 16 0
2022-11-29 17:19:56 GMT 51.152744 -0.176672 0 78 15 0
2022-11-29 17:19:48 GMT 51.152630 -0.177489 0 61 14 0
2022-11-29 17:19:41 GMT 51.152367 -0.177953 0 2 13 0
2022-11-29 17:19:38 GMT 51.152218 -0.177956 0 351 14 0
2022-11-29 17:19:34 GMT 51.151920 -0.177897 0 354 16 0
2022-11-29 17:19:20 GMT 51.150627 -0.178008 0 50 18 0
2022-11-29 17:19:14 GMT 51.150627 -0.178008 0 50 18 0
2022-11-29 17:19:13 GMT 51.150562 -0.178165 0 53 19 0
2022-11-29 17:19:06 GMT 51.150166 -0.178986 0 56 27 0
2022-11-29 17:19:04 GMT 51.150005 -0.179348 0 75 37 0
2022-11-29 17:18:53 GMT 51.149437 -0.181330 0 75 37 0
2022-11-29 17:18:52 GMT 51.149128 -0.183446 0 75 57 0
2022-11-29 17:18:46 GMT 51.149128 -0.183446 0 75 57 0
2022-11-29 17:18:41 GMT 51.148682 -0.186638 0 75 78 0
2022-11-29 17:18:40 GMT 51.148457 -0.188293 700 77 130 -704
2022-11-29 17:18:37 GMT 51.148457 -0.188293 0 78 90 0
2022-11-29 17:18:33 GMT 51.148060 -0.191269 -50 77 106 -128
2022-11-29 17:18:31 GMT 51.147877 -0.192413 -50 77 123 -64
2022-11-29 17:18:30 GMT 51.147720 -0.193745 -50 77 123 -64
2022-11-29 17:18:26 GMT 51.147217 -0.197086 -50 77 129 -192
2022-11-29 17:18:24 GMT 51.147034 -0.198645 -75 77 130 -192
2022-11-29 17:18:22 GMT 51.146805 -0.200129 -50 77 134 -192
2022-11-29 17:18:21 GMT 51.146664 -0.201187 -50 77 134 -192
2022-11-29 17:18:20 GMT 51.146484 -0.202579 -50 77 135 -256
2022-11-29 17:18:18 GMT 51.146198 -0.204391 -25 77 135 -384
2022-11-29 17:18:17 GMT 51.146057 -0.205383 -25 77 136 -640
2022-11-29 17:18:15 GMT 51.145779 -0.207367 25 77 136 -704
2022-11-29 17:18:13 GMT 51.145477 -0.209631 50 77 136 -704
2022-11-29 17:18:12 GMT 51.145340 -0.210744 50 77 136 -768
2022-11-29 17:18:10 GMT 51.145111 -0.212378 75 77 135 -768
2022-11-29 17:18:09 GMT 51.144974 -0.213343 100 77 135 -768
2022-11-29 17:18:07 GMT 51.144699 -0.215273 125 77 135 -704
2022-11-29 17:18:05 GMT 51.144382 -0.217667 150 77 135 -704
2022-11-29 17:18:04 GMT 51.144287 -0.218465 150 77 135 -704
2022-11-29 17:18:03 GMT 51.144150 -0.219281 175 77 134 -704
2022-11-29 17:18:02 GMT 51.143871 -0.221405 200 77 134 -768
2022-11-29 17:18:00 GMT 51.143730 -0.222321 200 77 134 -768
2022-11-29 17:17:59 GMT 51.143360 -0.225067 250 77 134 -768
2022-11-29 17:17:57 GMT 51.143360 -0.225067 250 77 133 -768
2022-11-29 17:17:56 GMT 51.143188 -0.226259 275 77 133 -768
2022-11-29 17:17:54 GMT 51.142941 -0.228195 300 77 133 -768
2022-11-29 17:17:52 GMT 51.142639 -0.230342 300 77 132 -768
2022-11-29 17:17:51 GMT 51.142502 -0.231307 325 77 133 -768
2022-11-29 17:17:49 GMT 51.142242 -0.233154 350 77 132 -768
2022-11-29 17:17:48 GMT 51.142136 -0.233756 350 77 132 -768
2022-11-29 17:17:47 GMT 51.141731 -0.236969 400 77 132 -768
2022-11-29 17:17:45 GMT 51.141731 -0.236969 400 77 132 -768
2022-11-29 17:17:44 GMT 51.141453 -0.238800 425 77 132 -768
2022-11-29 17:17:42 GMT 51.141312 -0.239792 450 77 132 -768
2022-11-29 17:17:41 GMT 51.141171 -0.240784 450 77 132 -768
2022-11-29 17:17:39 GMT 51.140900 -0.242590 475 77 132 -768
2022-11-29 17:17:38 GMT 51.140808 -0.243481 500 77 131 -768
2022-11-29 17:17:37 GMT 51.140518 -0.245514 525 77 131 -704
2022-11-29 17:17:35 GMT 51.140381 -0.246429 525 77 131 -704
2022-11-29 17:17:32 GMT 51.140102 -0.248337 550 77 131 -704
2022-11-29 17:17:31 GMT 51.140007 -0.249176 575 77 131 -768
2022-11-29 17:17:30 GMT 51.139729 -0.251007 600 77 130 -704
2022-11-29 17:17:28 GMT 51.139618 -0.252017 600 77 130 -704
2022-11-29 17:17:27 GMT 51.139343 -0.254096 625 77 130 -576
2022-11-29 17:17:25 GMT 51.139206 -0.255061 625 77 130 -640
2022-11-29 17:17:24 GMT 51.139076 -0.256042 650 77 130 -640
2022-11-29 17:17:22 GMT 51.138794 -0.257956 675 77 130 -704
2022-11-29 17:17:21 GMT 51.138657 -0.258921 700 77 130 -768
2022-11-29 17:17:18 GMT 51.138290 -0.261445 725 77 130 -704
2022-11-29 17:17:16 GMT 51.138016 -0.263449 750 77 131 -704
2022-11-29 17:17:14 GMT 51.137741 -0.265453 775 77 131 -704
2022-11-29 17:17:13 GMT 51.137634 -0.266342 775 77 131 -704
2022-11-29 17:17:12 GMT 51.137512 -0.267235 775 77 131 -640
2022-11-29 17:17:10 GMT 51.137215 -0.269318 800 77 131 -640
2022-11-29 17:17:08 GMT 51.136936 -0.271072 825 77 131 -640
2022-11-29 17:17:07 GMT 51.136703 -0.272827 850 77 131 -640
2022-11-29 17:17:05 GMT 51.136608 -0.273743 875 77 131 -640
2022-11-29 17:17:04 GMT 51.136185 -0.276811 900 77 130 -640
2022-11-29 17:17:02 GMT 51.136185 -0.276811 900 77 130 -704
2022-11-29 17:17:01 GMT 51.136002 -0.278147 925 77 130 -640
2022-11-29 17:17:00 GMT 51.135632 -0.280838 925 77 129 -576
2022-11-29 17:16:58 GMT 51.135632 -0.280838 950 77 129 -576
2022-11-29 17:16:57 GMT 51.135490 -0.281677 975 77 129 -640
2022-11-29 17:16:55 GMT 51.135025 -0.285339 1,000 77 130 -640
2022-11-29 17:16:53 GMT 51.135025 -0.285339 1,000 77 131 -640
2022-11-29 17:16:52 GMT 51.134537 -0.288688 1,025 77 131 -640
2022-11-29 17:16:50 GMT 51.134537 -0.288688 1,050 77 132 -704
2022-11-29 17:16:48 GMT 51.134308 -0.290395 1,050 77 132 -704
2022-11-29 17:16:46 GMT 51.134094 -0.291901 1,075 77 133 -704
2022-11-29 17:16:44 GMT 51.133804 -0.293884 1,100 77 134 -768
2022-11-29 17:16:43 GMT 51.133667 -0.294775 1,125 77 134 -832
2022-11-29 17:16:42 GMT 51.133530 -0.295814 1,125 77 135 -832
2022-11-29 17:16:40 GMT 51.133163 -0.298635 1,175 77 136 -960
2022-11-29 17:16:38 GMT 51.132885 -0.300446 1,200 77 137 -1024
2022-11-29 17:16:36 GMT 51.132751 -0.301382 1,225 77 138 -1024
2022-11-29 17:16:35 GMT 51.132607 -0.302429 1,250 77 138 -1088
2022-11-29 17:16:33 GMT 51.132294 -0.304648 1,300 77 139 -1088
2022-11-29 17:16:32 GMT 51.132187 -0.305481 1,300 77 140 -1088
2022-11-29 17:16:31 GMT 51.131863 -0.307999 1,350 77 141 -1024
2022-11-29 17:16:29 GMT 51.131699 -0.308953 1,375 77 141 -1024
2022-11-29 17:16:28 GMT 51.131626 -0.309525 1,375 77 142 -960
2022-11-29 17:16:26 GMT 51.131332 -0.311700 1,425 77 144 -832
2022-11-29 17:16:25 GMT 51.131195 -0.312665 1,425 77 145 -768
2022-11-29 17:16:24 GMT 51.130882 -0.314941 1,450 77 147 -640
2022-11-29 17:16:22 GMT 51.130695 -0.316162 1,450 77 148 -576
2022-11-29 17:16:20 GMT 51.130371 -0.318455 1,475 77 151 -384
2022-11-29 17:16:19 GMT 51.130234 -0.319494 1,475 77 153 -448
2022-11-29 17:16:17 GMT 51.129906 -0.321808 1,500 77 156 -768
2022-11-29 17:16:16 GMT 51.129765 -0.322876 1,500 77 156 -768
2022-11-29 17:16:14 GMT 51.129440 -0.325165 1,525 77 158 -640
2022-11-29 17:16:13 GMT 51.129135 -0.327289 1,550 77 159 -768
2022-11-29 17:16:11 GMT 51.128975 -0.328522 1,550 77 159 -768
2022-11-29 17:16:09 GMT 51.128632 -0.331000 1,575 77 160 -768
2022-11-29 17:16:07 GMT 51.128136 -0.334473 1,625 77 161 -768
2022-11-29 17:16:05 GMT 51.127998 -0.335617 1,625 77 161 -832
2022-11-29 17:16:04 GMT 51.127670 -0.337978 1,675 77 162 -896
2022-11-29 17:16:01 GMT 51.127396 -0.340131 1,675 77 162 -1024
2022-11-29 17:15:59 GMT 51.127068 -0.342484 1,725 77 162 -1024
2022-11-29 17:15:57 GMT 51.126740 -0.344696 1,750 77 162 -960
2022-11-29 17:15:55 GMT 51.126461 -0.346985 1,775 77 162 -1024
2022-11-29 17:15:53 GMT 51.125996 -0.350266 1,850 77 162 -1024
2022-11-29 17:15:51 GMT 51.125839 -0.351414 1,850 77 162 -1024
2022-11-29 17:15:50 GMT 51.125473 -0.353938 1,900 77 162 -960
2022-11-29 17:15:48 GMT 51.125343 -0.355072 1,900 77 162 -960
2022-11-29 17:15:46 GMT 51.125019 -0.357361 1,975 77 162 -1024
2022-11-29 17:15:44 GMT 51.124645 -0.359879 1,975 77 162 -1024
2022-11-29 17:15:42 GMT 51.124317 -0.362396 2,025 77 162 -960
2022-11-29 17:15:41 GMT 51.124146 -0.363588 2,025 77 162 -960
2022-11-29 17:15:39 GMT 51.123825 -0.365889 2,075 77 162 -960
2022-11-29 17:15:37 GMT 51.123413 -0.368859 2,100 77 163 -896
2022-11-29 17:15:35 GMT 51.123276 -0.369898 2,125 77 164 -896
2022-11-29 17:15:33 GMT 51.122910 -0.372422 2,175 77 164 -896
2022-11-29 17:15:31 GMT 51.122643 -0.374298 2,175 77 164 -896
2022-11-29 17:15:29 GMT 51.122314 -0.376801 2,225 77 164 -832
2022-11-29 17:15:27 GMT 51.121902 -0.379622 2,250 77 164 0
2022-11-29 17:15:26 GMT 51.121758 -0.380707 2,250 77 164 -896
2022-11-29 17:15:24 GMT 51.121445 -0.382963 2,275 77 164 -832
2022-11-29 17:15:23 GMT 51.121262 -0.384150 2,300 77 164 -832
2022-11-29 17:15:22 GMT 51.120922 -0.386505 2,325 77 166 -832
2022-11-29 17:15:20 GMT 51.120667 -0.388233 2,350 77 166 -832
2022-11-29 17:15:19 GMT 51.120361 -0.390549 2,375 77 166 -832
2022-11-29 17:15:17 GMT 51.120209 -0.391574 2,375 77 167 -768
2022-11-29 17:15:16 GMT 51.120026 -0.392761 2,400 77 167 -768
2022-11-29 17:15:14 GMT 51.119705 -0.395062 2,425 77 167 -832
2022-11-29 17:15:13 GMT 51.119476 -0.396770 2,425 77 168 -832
2022-11-29 17:15:11 GMT 51.119064 -0.399739 2,475 77 168 -832
2022-11-29 17:15:09 GMT 51.118778 -0.401535 2,475 77 168 -832
2022-11-29 17:15:08 GMT 51.118591 -0.402832 2,525 77 169 -832
2022-11-29 17:15:07 GMT 51.118515 -0.403525 2,525 77 169 -832
2022-11-29 17:15:05 GMT 51.118195 -0.405826 2,550 77 169 -832
2022-11-29 17:15:04 GMT 51.117920 -0.407608 2,575 77 169 -896
2022-11-29 17:15:03 GMT 51.117756 -0.408859 2,575 77 170 -896
2022-11-29 17:15:01 GMT 51.117508 -0.410577 2,625 77 170 -960
2022-11-29 17:15:00 GMT 51.117325 -0.411839 2,625 77 170 -960
2022-11-29 17:14:59 GMT 51.117004 -0.414288 2,675 77 170 -960
2022-11-29 17:14:56 GMT 51.116592 -0.416961 2,725 77 170 -1088
2022-11-29 17:14:54 GMT 51.116310 -0.418930 2,725 77 170 -1088
2022-11-29 17:14:53 GMT 51.115986 -0.421371 2,750 77 170 -1088
2022-11-29 17:14:52 GMT 51.115768 -0.422751 2,775 77 170 -1088
2022-11-29 17:14:49 GMT 51.115242 -0.426407 2,825 77 169 -1152
2022-11-29 17:14:46 GMT 51.114761 -0.429729 2,875 77 169 -1152
2022-11-29 17:14:43 GMT 51.114349 -0.432772 2,925 77 169 -1088
2022-11-29 17:14:42 GMT 51.114079 -0.434647 2,950 77 169 -1024
2022-11-29 17:14:41 GMT 51.113892 -0.435964 2,975 77 169 -960
2022-11-29 17:14:39 GMT 51.113525 -0.438414 3,000 77 170 -896
2022-11-29 17:14:38 GMT 51.113388 -0.439527 3,025 77 171 -960
2022-11-29 17:14:37 GMT 51.113205 -0.440789 3,025 77 171 -1024
2022-11-29 17:14:35 GMT 51.112839 -0.443239 3,075 77 173 -1024
2022-11-29 17:14:34 GMT 51.112682 -0.444412 3,075 77 173 -1024
2022-11-29 17:14:32 GMT 51.112354 -0.446930 3,125 77 175 -1024
2022-11-29 17:14:30 GMT 51.112076 -0.448914 3,150 77 177 -1024
2022-11-29 17:14:29 GMT 51.111877 -0.450143 3,175 77 178 -1024
2022-11-29 17:14:27 GMT 51.111465 -0.453334 3,175 77 179 -1024
2022-11-29 17:14:25 GMT 51.111053 -0.456081 3,225 77 180 -960
2022-11-29 17:14:24 GMT 51.110733 -0.458531 3,250 77 182 -960
2022-11-29 17:14:22 GMT 51.110538 -0.459824 3,275 77 183 -960
2022-11-29 17:14:21 GMT 51.110027 -0.463791 3,325 77 185 -960
2022-11-29 17:14:19 GMT 51.110027 -0.463791 3,325 77 185 -960
2022-11-29 17:14:17 GMT 51.109634 -0.466474 3,350 77 187 -1024
2022-11-29 17:14:16 GMT 51.109451 -0.468032 3,375 77 189 -1024
2022-11-29 17:14:15 GMT 51.109238 -0.469360 3,400 77 190 -1216
2022-11-29 17:14:14 GMT 51.109097 -0.470581 3,400 77 190 -1216
2022-11-29 17:14:11 GMT 51.108540 -0.474625 3,475 77 192 -1472
2022-11-29 17:14:09 GMT 51.108170 -0.477386 3,525 77 192 -1344
2022-11-29 17:14:07 GMT 51.107391 -0.483027 3,625 77 191 -1344
2022-11-29 17:14:05 GMT 51.107391 -0.483027 3,625 77 191 -1344
2022-11-29 17:14:04 GMT 51.106861 -0.487137 3,675 77 191 -1344
2022-11-29 17:14:02 GMT 51.106861 -0.487137 3,675 77 191 -1344
2022-11-29 17:14:01 GMT 51.106705 -0.488298 3,700 77 191 -1344
2022-11-29 17:13:59 GMT 51.106384 -0.490450 3,725 77 190 -1344
2022-11-29 17:13:58 GMT 51.106209 -0.491867 3,800 77 190 -1408
2022-11-29 17:13:56 GMT 51.105789 -0.494904 3,800 77 190 -1408
2022-11-29 17:13:55 GMT 51.105560 -0.496463 3,850 77 190 -1472
2022-11-29 17:13:53 GMT 51.105278 -0.498505 3,925 77 189 -1472
2022-11-29 17:13:51 GMT 51.104874 -0.501214 3,925 77 189 -1472
2022-11-29 17:13:49 GMT 51.104443 -0.504150 3,975 76 189 -1472
2022-11-29 17:13:48 GMT 51.104069 -0.506744 4,050 76 189 -1600
2022-11-29 17:13:46 GMT 51.103882 -0.508041 4,050 76 189 -1664
2022-11-29 17:13:44 GMT 51.103455 -0.510864 4,125 76 189 -1792
2022-11-29 17:13:43 GMT 51.103271 -0.511978 4,150 76 189 -1856
2022-11-29 17:13:42 GMT 51.102585 -0.516357 4,200 75 189 -1920
2022-11-29 17:13:40 GMT 51.102585 -0.516357 4,250 75 189 -1920
2022-11-29 17:13:37 GMT 51.102036 -0.519624 4,325 75 189 -1920
2022-11-29 17:13:36 GMT 51.101742 -0.521545 4,375 74 189 -1792
2022-11-29 17:13:35 GMT 51.101166 -0.524671 4,450 73 189 -1728
2022-11-29 17:13:33 GMT 51.100937 -0.526008 4,475 73 189 -1728
2022-11-29 17:13:31 GMT 51.100533 -0.528259 4,525 73 190 -1664
2022-11-29 17:13:29 GMT 51.099655 -0.532763 4,600 72 191 -1536
2022-11-29 17:13:27 GMT 51.099365 -0.534134 4,625 71 191 -1408
2022-11-29 17:13:25 GMT 51.098949 -0.536194 4,675 71 191 -1408
2022-11-29 17:13:24 GMT 51.098667 -0.537643 4,700 71 192 -1088
2022-11-29 17:13:22 GMT 51.098099 -0.540409 4,750 70 193 -1024
2022-11-29 17:13:21 GMT 51.097824 -0.541522 4,750 70 194 -960
2022-11-29 17:13:19 GMT 51.097229 -0.544269 4,800 68 198 -832
2022-11-29 17:13:17 GMT 51.096668 -0.546570 4,800 68 198 -832
2022-11-29 17:13:15 GMT 51.095856 -0.549688 4,825 66 200 -1024
2022-11-29 17:13:13 GMT 51.095039 -0.552521 4,875 63 200 -1152
2022-11-29 17:13:11 GMT 51.094162 -0.555255 4,925 60 201 -1088
2022-11-29 17:13:10 GMT 51.093658 -0.556591 4,950 58 202 -960
2022-11-29 17:13:08 GMT 51.092850 -0.558624 4,975 52 204 -576
2022-11-29 17:13:07 GMT 51.092102 -0.560377 4,975 49 205 -640
2022-11-29 17:13:05 GMT 51.091507 -0.561639 4,975 49 205 -640
2022-11-29 17:13:04 GMT 51.089539 -0.564757 5,000 44 207 -768
2022-11-29 17:13:03 GMT 51.089539 -0.564757 5,025 42 208 -832
2022-11-29 17:13:01 GMT 51.088120 -0.566761 5,050 39 211 -960
2022-11-29 17:12:59 GMT 51.086891 -0.568314 5,075 38 211 -960
2022-11-29 17:12:58 GMT 51.086052 -0.569382 5,100 37 211 -896
2022-11-29 17:12:57 GMT 51.085327 -0.570324 5,100 37 213 -768
2022-11-29 17:12:56 GMT 51.082981 -0.573196 5,125 37 214 -640
2022-11-29 17:12:54 GMT 51.082237 -0.574112 5,150 38 215 -576
2022-11-29 17:12:52 GMT 51.081398 -0.575104 5,150 37 216 -576
2022-11-29 17:12:50 GMT 51.079769 -0.577164 5,175 37 218 -512
2022-11-29 17:12:49 GMT 51.079056 -0.578044 5,175 37 219 -448
2022-11-29 17:12:48 GMT 51.078232 -0.579083 5,175 38 220 -448
2022-11-29 17:12:47 GMT 51.076416 -0.581360 5,200 38 222 -448
2022-11-29 17:12:45 GMT 51.075623 -0.582350 5,200 38 223 -448
2022-11-29 17:12:43 GMT 51.074413 -0.583801 5,225 37 224 -448
2022-11-29 17:12:42 GMT 51.073250 -0.585251 5,225 38 226 -512
2022-11-29 17:12:41 GMT 51.072460 -0.586243 5,250 38 227 -512
2022-11-29 17:12:38 GMT 51.069946 -0.589294 5,275 38 230 -576
2022-11-29 17:12:37 GMT 51.068176 -0.591583 5,275 38 232 -640
2022-11-29 17:12:35 GMT 51.067387 -0.592575 5,300 38 234 -640
2022-11-29 17:12:33 GMT 51.065735 -0.594598 5,300 38 234 -704
2022-11-29 17:12:32 GMT 51.064865 -0.595711 5,350 38 235 -1088
2022-11-29 17:12:31 GMT 51.064041 -0.596751 5,350 38 235 -1088
2022-11-29 17:12:29 GMT 51.062302 -0.598903 5,400 38 237 -1216
2022-11-29 17:12:28 GMT 51.061428 -0.599976 5,425 38 237 -1152
2022-11-29 17:12:26 GMT 51.059750 -0.602112 5,475 38 238 -1152
2022-11-29 17:12:25 GMT 51.058914 -0.603180 5,475 38 238 -1152
2022-11-29 17:12:24 GMT 51.055939 -0.606846 5,500 38 240 -1024
2022-11-29 17:12:22 GMT 51.055939 -0.606846 5,525 38 241 -1024
2022-11-29 17:12:20 GMT 51.054245 -0.608999 5,575 38 242 -1024
2022-11-29 17:12:18 GMT 51.052814 -0.610733 5,575 38 242 -1024
2022-11-29 17:12:17 GMT 51.051819 -0.612042 5,600 38 243 -1024
2022-11-29 17:12:16 GMT 51.050861 -0.613251 5,650 38 244 -1024
2022-11-29 17:12:14 GMT 51.048950 -0.615616 5,650 38 246 -1024
2022-11-29 17:12:12 GMT 51.046249 -0.619049 5,725 38 248 -1024
2022-11-29 17:12:10 GMT 51.045319 -0.620193 5,725 38 248 -1024
2022-11-29 17:12:08 GMT 51.043900 -0.621989 5,750 38 249 -1088
2022-11-29 17:12:07 GMT 51.042946 -0.623169 5,775 38 250 -1088
2022-11-29 17:12:06 GMT 51.041885 -0.624513 5,800 38 251 -1088
2022-11-29 17:12:04 GMT 51.040009 -0.626889 5,825 38 253 -1216
2022-11-29 17:12:03 GMT 51.039082 -0.628128 5,850 38 253 -1216
2022-11-29 17:12:02 GMT 51.038177 -0.629264 5,875 38 253 -1344
2022-11-29 17:12:00 GMT 51.034752 -0.633621 5,975 38 254 -1472
2022-11-29 17:11:58 GMT 51.034752 -0.633621 5,975 38 255 -1472
2022-11-29 17:11:55 GMT 51.032055 -0.637054 6,050 38 256 -1472
2022-11-29 17:11:54 GMT 51.031029 -0.638351 6,050 38 256 -1472
2022-11-29 17:11:52 GMT 51.029167 -0.640717 6,125 38 258 -1408
2022-11-29 17:11:51 GMT 51.026001 -0.644779 6,200 38 259 -1408
2022-11-29 17:11:49 GMT 51.026001 -0.644779 6,200 38 260 -1408
2022-11-29 17:11:47 GMT 51.024185 -0.647049 6,250 38 260 -1408
2022-11-29 17:11:45 GMT 51.022324 -0.649414 6,275 38 261 -1408
2022-11-29 17:11:43 GMT 51.020645 -0.651627 6,325 38 263 -1344
2022-11-29 17:11:41 GMT 51.018723 -0.653983 6,400 38 264 -1344
2022-11-29 17:11:40 GMT 51.017715 -0.655289 6,400 38 265 -1280
2022-11-29 17:11:39 GMT 51.015701 -0.657769 6,475 38 266 -1280
2022-11-29 17:11:36 GMT 51.012955 -0.661184 6,550 37 270 -1088
2022-11-29 17:11:33 GMT 51.011105 -0.663452 6,550 37 270 -1088
2022-11-29 17:11:32 GMT 51.009750 -0.665118 6,575 37 270 -1024
2022-11-29 17:11:31 GMT 51.008789 -0.666232 6,575 36 272 -1024
2022-11-29 17:11:29 GMT 51.007141 -0.668162 6,625 35 273 -1024
2022-11-29 17:11:27 GMT 51.004959 -0.670624 6,650 35 274 -1024
2022-11-29 17:11:25 GMT 51.002724 -0.672989 6,675 33 277 -896
2022-11-29 17:11:24 GMT 51.000595 -0.675140 6,700 31 278 -832
2022-11-29 17:11:22 GMT 50.999725 -0.676030 6,725 31 280 -832
2022-11-29 17:11:20 GMT 50.997208 -0.678406 6,750 29 282 -832
2022-11-29 17:11:19 GMT 50.996113 -0.679398 6,775 29 283 -832
2022-11-29 17:11:17 GMT 50.993973 -0.681305 6,800 28 285 -832
2022-11-29 17:11:16 GMT 50.992622 -0.682449 6,800 28 286 -832
2022-11-29 17:11:15 GMT 50.991440 -0.683454 6,825 27 288 -832
2022-11-29 17:11:13 GMT 50.989059 -0.685384 6,850 27 291 -832
2022-11-29 17:11:12 GMT 50.986588 -0.687462 6,875 27 292 -896
2022-11-29 17:11:10 GMT 50.985489 -0.688427 6,900 27 295 -896
2022-11-29 17:11:09 GMT 50.984253 -0.689392 6,900 27 296 -960
2022-11-29 17:11:07 GMT 50.981869 -0.691452 6,950 27 297 -960
2022-11-29 17:11:05 GMT 50.979542 -0.693359 6,975 27 298 -960
2022-11-29 17:11:04 GMT 50.978470 -0.694275 7,000 27 300 -832
2022-11-29 17:11:02 GMT 50.975922 -0.696370 7,000 27 303 -576
2022-11-29 17:11:01 GMT 50.974731 -0.697409 7,025 27 305 -384
2022-11-29 17:11:00 GMT 50.972122 -0.699562 7,025 27 307 -64
2022-11-29 17:10:58 GMT 50.970657 -0.700824 7,025 27 308 -64
2022-11-29 17:10:56 GMT 50.968136 -0.702896 7,025 27 312 0
2022-11-29 17:10:55 GMT 50.966812 -0.704016 7,025 27 313 0
2022-11-29 17:10:53 GMT 50.964878 -0.705643 7,025 27 316 64
2022-11-29 17:10:52 GMT 50.963287 -0.706985 7,025 27 318 64
2022-11-29 17:10:51 GMT 50.960594 -0.709229 7,000 27 322 128
2022-11-29 17:10:49 GMT 50.959339 -0.710220 7,000 27 325 128
2022-11-29 17:10:47 GMT 50.956547 -0.712585 7,000 27 326 192
2022-11-29 17:10:46 GMT 50.955242 -0.713654 7,000 27 328 128
2022-11-29 17:10:45 GMT 50.953857 -0.714854 6,975 27 330 128
2022-11-29 17:10:44 GMT 50.949795 -0.718231 6,975 27 333 64
2022-11-29 17:10:42 GMT 50.949795 -0.718231 6,975 27 337 64
2022-11-29 17:10:40 GMT 50.946861 -0.720673 6,975 27 340 64
2022-11-29 17:10:39 GMT 50.945511 -0.721817 6,975 27 342 0
2022-11-29 17:10:37 GMT 50.943184 -0.723724 6,975 27 342 0
2022-11-29 17:10:36 GMT 50.941818 -0.724875 6,975 27 344 0
2022-11-29 17:10:35 GMT 50.940308 -0.726137 6,975 27 345 0
2022-11-29 17:10:33 GMT 50.936901 -0.728989 6,975 27 348 -64
2022-11-29 17:10:31 GMT 50.934711 -0.730743 6,975 27 349 -64
2022-11-29 17:10:30 GMT 50.933167 -0.732075 6,975 27 352 -128
2022-11-29 17:10:29 GMT 50.930283 -0.734451 7,000 27 353 -64
2022-11-29 17:10:27 GMT 50.928753 -0.735703 7,000 27 353 -64
2022-11-29 17:10:26 GMT 50.927216 -0.737000 7,000 27 353 0
2022-11-29 17:10:25 GMT 50.924286 -0.739424 7,000 27 353 0
2022-11-29 17:10:23 GMT 50.922775 -0.740686 7,000 27 353 0
2022-11-29 17:10:22 GMT 50.919861 -0.743103 7,000 27 353 0
2022-11-29 17:10:20 GMT 50.918606 -0.744095 7,000 27 354 0
2022-11-29 17:10:19 GMT 50.915859 -0.746384 7,000 27 354 0
2022-11-29 17:10:16 GMT 50.911423 -0.750114 7,000 27 354 64
2022-11-29 17:10:14 GMT 50.910187 -0.751079 7,000 27 354 64
2022-11-29 17:10:13 GMT 50.908737 -0.752335 7,000 27 354 64
2022-11-29 17:10:12 GMT 50.905838 -0.754716 7,000 27 354 64
2022-11-29 17:10:09 GMT 50.902313 -0.757611 7,000 27 354 64
2022-11-29 17:10:07 GMT 50.899567 -0.759912 7,000 27 355 64
2022-11-29 17:10:06 GMT 50.897003 -0.762024 6,975 27 355 64
2022-11-29 17:10:04 GMT 50.895515 -0.763245 6,975 27 355 0
2022-11-29 17:10:03 GMT 50.893513 -0.764923 6,975 27 355 0
2022-11-29 17:10:01 GMT 50.890686 -0.767261 6,975 27 355 0
2022-11-29 17:09:59 GMT 50.887928 -0.769577 6,975 27 355 0
2022-11-29 17:09:58 GMT 50.886429 -0.770750 6,975 27 355 0
2022-11-29 17:09:57 GMT 50.882309 -0.774165 7,000 27 355 -64
2022-11-29 17:09:55 GMT 50.882309 -0.774165 7,000 27 355 -64
2022-11-29 17:09:54 GMT 50.880711 -0.775528 7,000 27 355 -128
2022-11-29 17:09:53 GMT 50.877731 -0.777969 7,000 27 355 -192
2022-11-29 17:09:51 GMT 50.876266 -0.779139 7,000 27 355 -256
2022-11-29 17:09:50 GMT 50.872421 -0.782330 7,000 27 355 -320
2022-11-29 17:09:48 GMT 50.871002 -0.783444 7,025 27 354 -384
2022-11-29 17:09:46 GMT 50.869583 -0.784683 7,025 27 354 -384
2022-11-29 17:09:45 GMT 50.868095 -0.785828 7,050 27 352 -576
2022-11-29 17:09:43 GMT 50.865025 -0.788422 7,050 27 352 -576
2022-11-29 17:09:42 GMT 50.863579 -0.789566 7,075 27 352 -576
2022-11-29 17:09:40 GMT 50.860508 -0.792084 7,100 27 351 -640
2022-11-29 17:09:39 GMT 50.859100 -0.793243 7,100 27 350 -704
2022-11-29 17:09:38 GMT 50.857574 -0.794525 7,125 27 349 -704
2022-11-29 17:09:36 GMT 50.854458 -0.797119 7,150 27 347 -896
2022-11-29 17:09:35 GMT 50.851757 -0.799332 7,175 27 347 -1152
2022-11-29 17:09:32 GMT 50.848801 -0.801705 7,175 27 348 -1216
2022-11-29 17:09:31 GMT 50.847332 -0.802917 7,225 27 348 -1408
2022-11-29 17:09:30 GMT 50.845963 -0.804080 7,250 27 349 -1472
2022-11-29 17:09:29 GMT 50.843563 -0.806046 7,300 27 350 -1664
2022-11-29 17:09:27 GMT 50.841568 -0.807644 7,325 27 350 -1728
2022-11-29 17:09:26 GMT 50.840149 -0.808831 7,350 27 351 -1792
2022-11-29 17:09:25 GMT 50.837605 -0.810928 7,400 27 351 -1920
2022-11-29 17:09:23 GMT 50.836163 -0.812073 7,450 27 352 -2048
2022-11-29 17:09:22 GMT 50.833099 -0.814621 7,525 27 353 -2176
2022-11-29 17:09:20 GMT 50.831589 -0.815883 7,550 27 353 -2240
2022-11-29 17:09:19 GMT 50.828796 -0.818185 7,625 27 353 -2368
2022-11-29 17:09:17 GMT 50.827503 -0.819244 7,675 27 354 -2368
2022-11-29 17:09:16 GMT 50.825912 -0.820486 7,700 27 354 -2304
2022-11-29 17:09:14 GMT 50.822937 -0.822935 7,775 27 355 -2304
2022-11-29 17:09:13 GMT 50.821449 -0.824127 7,850 27 355 -2304
2022-11-29 17:09:11 GMT 50.818497 -0.826573 7,900 27 356 -2368
2022-11-29 17:09:10 GMT 50.817261 -0.827538 7,925 27 356 -2368
2022-11-29 17:09:09 GMT 50.815750 -0.828800 8,000 27 356 -2432
2022-11-29 17:09:08 GMT 50.812958 -0.831101 8,050 27 356 -2496
2022-11-29 17:09:06 GMT 50.811443 -0.832291 8,100 27 357 -2496
2022-11-29 17:09:05 GMT 50.807968 -0.835184 8,200 27 357 -2560
2022-11-29 17:09:03 GMT 50.806595 -0.836371 8,250 27 357 -2624
2022-11-29 17:09:02 GMT 50.802933 -0.839341 8,325 27 357 -2688
2022-11-29 17:09:00 GMT 50.802933 -0.839341 8,375 27 356 -2688
2022-11-29 17:08:58 GMT 50.799408 -0.842236 8,475 27 357 -2752
2022-11-29 17:08:57 GMT 50.797897 -0.843572 8,500 27 357 -2752
2022-11-29 17:08:56 GMT 50.796570 -0.844611 8,550 27 357 -2752
2022-11-29 17:08:54 GMT 50.793594 -0.847135 8,650 27 357 -2688
2022-11-29 17:08:53 GMT 50.792221 -0.848323 8,675 27 357 -2688
2022-11-29 17:08:51 GMT 50.789108 -0.850921 8,775 28 358 -2688
2022-11-29 17:08:50 GMT 50.787506 -0.852257 8,825 28 358 -2688
2022-11-29 17:08:49 GMT 50.785217 -0.854187 8,925 28 358 -2688
2022-11-29 17:08:47 GMT 50.783249 -0.855820 8,950 28 358 -2688
2022-11-29 17:08:46 GMT 50.781834 -0.857010 9,000 28 359 -2688
2022-11-29 17:08:44 GMT 50.779404 -0.859086 9,100 28 359 -2624
2022-11-29 17:08:42 GMT 50.776428 -0.861610 9,125 28 359 -2560
2022-11-29 17:08:41 GMT 50.774780 -0.863021 9,200 28 359 -2496
2022-11-29 17:08:40 GMT 50.773315 -0.864258 9,250 28 360 -2432
2022-11-29 17:08:38 GMT 50.770195 -0.866852 9,325 28 360 -2368
2022-11-29 17:08:37 GMT 50.768555 -0.868217 9,375 28 361 -2368
2022-11-29 17:08:36 GMT 50.767136 -0.869405 9,425 28 361 -2368
2022-11-29 17:08:34 GMT 50.764378 -0.871811 9,500 28 361 -2368
2022-11-29 17:08:32 GMT 50.759766 -0.875714 9,600 28 362 -2432
2022-11-29 17:08:30 GMT 50.758392 -0.876828 9,650 28 363 -2432
2022-11-29 17:08:28 GMT 50.755344 -0.879440 9,725 28 363 -2496
2022-11-29 17:08:27 GMT 50.753952 -0.880614 9,775 28 363 -2496
2022-11-29 17:08:26 GMT 50.749832 -0.884102 9,850 28 364 -2560
2022-11-29 17:08:24 GMT 50.749832 -0.884102 9,900 28 364 -2688
2022-11-29 17:08:22 GMT 50.746399 -0.886998 10,000 28 364 -2816
2022-11-29 17:08:21 GMT 50.744873 -0.888367 10,050 28 364 -2944
2022-11-29 17:08:20 GMT 50.743607 -0.889373 10,100 28 364 -3072
2022-11-29 17:08:18 GMT 50.740768 -0.891823 10,225 28 364 -3200
2022-11-29 17:08:17 GMT 50.737656 -0.894470 10,250 28 363 -3328
2022-11-29 17:08:15 GMT 50.736237 -0.895608 10,350 28 362 -3456
2022-11-29 17:08:13 GMT 50.733261 -0.898132 10,475 28 361 -3584
2022-11-29 17:08:12 GMT 50.731522 -0.899617 10,575 28 361 -3520
2022-11-29 17:08:11 GMT 50.728638 -0.901992 10,675 28 361 -3456
2022-11-29 17:08:09 GMT 50.727135 -0.903320 10,725 28 361 -3392
2022-11-29 17:08:06 GMT 50.723316 -0.906525 10,875 28 360 -3200
2022-11-29 17:08:05 GMT 50.720291 -0.909042 10,975 28 360 -3136
2022-11-29 17:08:03 GMT 50.718803 -0.910339 11,025 28 360 -3072
2022-11-29 17:08:01 GMT 50.715405 -0.913162 11,150 28 360 -2880
2022-11-29 17:07:58 GMT 50.711060 -0.916839 11,250 28 360 -2816
2022-11-29 17:07:57 GMT 50.709412 -0.918249 11,325 28 361 -2752
2022-11-29 17:07:56 GMT 50.708084 -0.919363 11,375 28 361 -2752
2022-11-29 17:07:55 GMT 50.704975 -0.922012 11,500 28 361 -2752
2022-11-29 17:07:53 GMT 50.703690 -0.923074 11,500 28 361 -2752
2022-11-29 17:07:52 GMT 50.700554 -0.925751 11,600 28 361 -2816
2022-11-29 17:07:50 GMT 50.699203 -0.926895 11,650 28 361 -2816
2022-11-29 17:07:49 GMT 50.694809 -0.930572 11,775 28 361 -2688
2022-11-29 17:07:47 GMT 50.694809 -0.930572 11,775 28 361 -2688
2022-11-29 17:07:46 GMT 50.693478 -0.931702 11,825 28 362 -2624
2022-11-29 17:07:43 GMT 50.689682 -0.934951 11,925 28 362 -2624
2022-11-29 17:07:42 GMT 50.687393 -0.936881 12,000 28 363 -2624
2022-11-29 17:07:41 GMT 50.684647 -0.939183 12,075 28 363 -2624
2022-11-29 17:07:38 GMT 50.682129 -0.941335 12,125 28 364 -2624
2022-11-29 17:07:37 GMT 50.680584 -0.942612 12,200 28 364 -2624
2022-11-29 17:07:36 GMT 50.677746 -0.944977 12,325 28 364 -2624
2022-11-29 17:07:33 GMT 50.673157 -0.948907 12,400 28 364 -2624
2022-11-29 17:07:31 GMT 50.671505 -0.950241 12,500 28 365 -2560
2022-11-29 17:07:29 GMT 50.668434 -0.952841 12,525 28 365 -2432
2022-11-29 17:07:28 GMT 50.667038 -0.954029 12,600 28 365 -2368
2022-11-29 17:07:27 GMT 50.664150 -0.956479 12,675 28 365 -2176
2022-11-29 17:07:25 GMT 50.662674 -0.957690 12,700 28 365 -2048
2022-11-29 17:07:24 GMT 50.657913 -0.961675 12,750 28 365 -1920
2022-11-29 17:07:22 GMT 50.657913 -0.961675 12,800 28 365 -1664
2022-11-29 17:07:20 GMT 50.654617 -0.964484 12,850 28 366 -1280
2022-11-29 17:07:19 GMT 50.653164 -0.965683 12,900 28 367 -1024
2022-11-29 17:07:17 GMT 50.650742 -0.967688 12,900 28 367 -960
2022-11-29 17:07:15 GMT 50.646194 -0.971567 12,950 28 368 -512
2022-11-29 17:07:12 GMT 50.641434 -0.975556 12,975 28 368 -384
2022-11-29 17:07:09 GMT 50.638454 -0.978080 12,975 28 368 -256
2022-11-29 17:07:07 GMT 50.635429 -0.980604 13,000 28 370 -128
2022-11-29 17:07:06 GMT 50.633789 -0.981975 13,000 28 370 -64
2022-11-29 17:07:04 GMT 50.630817 -0.984464 13,000 28 370 0
2022-11-29 17:07:02 GMT 50.628723 -0.986246 13,000 28 370 0
2022-11-29 17:07:01 GMT 50.625324 -0.989141 13,000 28 370 64
2022-11-29 17:06:59 GMT 50.623837 -0.990403 13,000 28 370 64
2022-11-29 17:06:58 GMT 50.622299 -0.991661 13,000 28 370 64
2022-11-29 17:06:56 GMT 50.619095 -0.994335 13,000 28 370 64
2022-11-29 17:06:55 GMT 50.617355 -0.995853 12,975 28 370 64
2022-11-29 17:06:53 GMT 50.614105 -0.998568 12,975 28 371 64
2022-11-29 17:06:51 GMT 50.610168 -1.001852 12,975 28 371 64
2022-11-29 17:06:49 GMT 50.608658 -1.003153 12,975 28 371 64
2022-11-29 17:06:48 GMT 50.605042 -1.006116 12,975 28 371 64
2022-11-29 17:06:46 GMT 50.602097 -1.008589 12,975 28 371 64
2022-11-29 17:06:44 GMT 50.600601 -1.009875 12,975 28 370 64
2022-11-29 17:06:42 GMT 50.597626 -1.012332 12,975 28 370 64
2022-11-29 17:06:41 GMT 50.596416 -1.013340 12,975 28 370 0
2022-11-29 17:06:39 GMT 50.592865 -1.016308 12,975 28 370 0
2022-11-29 17:06:38 GMT 50.591492 -1.017536 12,975 28 370 -64
2022-11-29 17:06:35 GMT 50.585476 -1.022545 13,000 28 370 -128
2022-11-29 17:06:33 GMT 50.583984 -1.023825 13,000 28 369 -192
2022-11-29 17:06:32 GMT 50.581333 -1.026108 13,000 28 369 -320
2022-11-29 17:06:30 GMT 50.579750 -1.027370 13,025 28 369 -320
2022-11-29 17:06:29 GMT 50.574863 -1.031527 13,025 28 369 -448
2022-11-29 17:06:27 GMT 50.574863 -1.031527 13,025 28 369 -512
2022-11-29 17:06:26 GMT 50.571762 -1.034160 13,050 28 367 -640
2022-11-29 17:06:24 GMT 50.570938 -1.034883 13,075 28 367 -704
2022-11-29 17:06:22 GMT 50.568020 -1.037317 13,100 28 367 -768
2022-11-29 17:06:21 GMT 50.566345 -1.038728 13,100 28 366 -896
2022-11-29 17:06:20 GMT 50.564854 -1.039990 13,125 28 366 -896
2022-11-29 17:06:18 GMT 50.559826 -1.044221 13,175 28 365 -1024
2022-11-29 17:06:17 GMT 50.559826 -1.044221 13,175 28 365 -1024
2022-11-29 17:06:15 GMT 50.557343 -1.046303 13,200 28 363 -1152
2022-11-29 17:06:14 GMT 50.555870 -1.047487 13,225 28 362 -1280
2022-11-29 17:06:11 GMT 50.551121 -1.051496 13,300 28 364 -1728
2022-11-29 17:06:10 GMT 50.548050 -1.054037 13,325 28 364 -1728
2022-11-29 17:06:08 GMT 50.546768 -1.055121 13,375 28 365 -1920
2022-11-29 17:06:06 GMT 50.544617 -1.057000 13,425 28 365 -2048
2022-11-29 17:06:05 GMT 50.542099 -1.059096 13,475 27 366 -2240
2022-11-29 17:06:03 GMT 50.539623 -1.061146 13,525 27 366 -2240
2022-11-29 17:06:02 GMT 50.538071 -1.062421 13,575 27 366 -2432
2022-11-29 17:06:01 GMT 50.536606 -1.063650 13,625 27 367 -2560
2022-11-29 17:05:59 GMT 50.533386 -1.066342 13,675 27 367 -2560
2022-11-29 17:05:58 GMT 50.531803 -1.067678 13,750 27 367 -2688
2022-11-29 17:05:57 GMT 50.530357 -1.068866 13,800 27 367 -2752
2022-11-29 17:05:56 GMT 50.527267 -1.071456 13,900 27 368 -2880
2022-11-29 17:05:53 GMT 50.524338 -1.073914 14,000 27 368 -2944
2022-11-29 17:05:52 GMT 50.522827 -1.075142 14,050 27 368 -3008
2022-11-29 17:05:51 GMT 50.519897 -1.077527 14,075 27 368 -3008
2022-11-29 17:05:49 GMT 50.518478 -1.078684 14,200 27 368 -3008
2022-11-29 17:05:47 GMT 50.515881 -1.080891 14,325 27 369 -2944
2022-11-29 17:05:46 GMT 50.514313 -1.082153 14,425 27 369 -2816
2022-11-29 17:05:44 GMT 50.507641 -1.087646 14,500 27 369 -2624
2022-11-29 17:05:42 GMT 50.507641 -1.087646 14,525 27 370 -2560
2022-11-29 17:05:41 GMT 50.504745 -1.090104 14,550 27 370 -2496
2022-11-29 17:05:39 GMT 50.503033 -1.091507 14,650 27 370 -2624
2022-11-29 17:05:38 GMT 50.501495 -1.092768 14,725 27 371 -2752
2022-11-29 17:05:37 GMT 50.499077 -1.094773 14,800 27 371 -2880
2022-11-29 17:05:35 GMT 50.497467 -1.096103 14,850 27 371 -2880
2022-11-29 17:05:34 GMT 50.494186 -1.098856 14,925 27 371 -3072
2022-11-29 17:05:32 GMT 50.492615 -1.100151 14,975 27 371 -3136
2022-11-29 17:05:31 GMT 50.491196 -1.101307 15,025 28 371 -3200
2022-11-29 17:05:30 GMT 50.489719 -1.102567 15,075 28 371 -3328
2022-11-29 17:05:28 GMT 50.486786 -1.105017 15,200 28 370 -3584
2022-11-29 17:05:27 GMT 50.485382 -1.106222 15,300 28 370 -3648
2022-11-29 17:05:24 GMT 50.477150 -1.113182 15,550 28 369 -3648
2022-11-29 17:05:22 GMT 50.477150 -1.113182 15,575 28 369 -3520
2022-11-29 17:05:21 GMT 50.475815 -1.114317 15,650 29 369 -3392
2022-11-29 17:05:18 GMT 50.471466 -1.118293 15,800 30 369 -2880
2022-11-29 17:05:16 GMT 50.468399 -1.121125 15,875 31 369 -2624
2022-11-29 17:05:15 GMT 50.466934 -1.122485 15,925 31 370 -2496
2022-11-29 17:05:14 GMT 50.464581 -1.124837 16,000 32 371 -2112
2022-11-29 17:05:12 GMT 50.462952 -1.126396 16,025 32 371 -1984
2022-11-29 17:05:09 GMT 50.458485 -1.130998 16,125 33 374 -2048
2022-11-29 17:05:08 GMT 50.457226 -1.132334 16,150 33 374 -2240
2022-11-29 17:05:06 GMT 50.454525 -1.135155 16,225 34 375 -2560
2022-11-29 17:05:05 GMT 50.453037 -1.136714 16,275 34 375 -2624
2022-11-29 17:05:02 GMT 50.448532 -1.141494 16,425 34 375 -2624
2022-11-29 17:05:01 GMT 50.447124 -1.142949 16,450 34 376 -2624
2022-11-29 17:04:59 GMT 50.444099 -1.146215 16,550 34 376 -2624
2022-11-29 17:04:57 GMT 50.441864 -1.148517 16,625 33 377 -2624
2022-11-29 17:04:56 GMT 50.439537 -1.150966 16,700 33 377 -2624
2022-11-29 17:04:55 GMT 50.438141 -1.152480 16,725 33 377 -2624
2022-11-29 17:04:53 GMT 50.435898 -1.154865 16,800 33 378 -2624
2022-11-29 17:04:52 GMT 50.434296 -1.156528 16,850 33 378 -2624
2022-11-29 17:04:51 GMT 50.432785 -1.158118 16,925 34 378 -2624
2022-11-29 17:04:49 GMT 50.429443 -1.161660 16,975 34 378 -2624
2022-11-29 17:04:47 GMT 50.427105 -1.164105 17,050 34 378 -2624
2022-11-29 17:04:46 GMT 50.425011 -1.166332 17,175 33 379 -2624
2022-11-29 17:04:44 GMT 50.422714 -1.168743 17,200 33 379 -2624
2022-11-29 17:04:42 GMT 50.419739 -1.171851 17,300 33 380 -2624
2022-11-29 17:04:41 GMT 50.417656 -1.174052 17,350 33 381 -2624
2022-11-29 17:04:40 GMT 50.413651 -1.178284 17,425 33 381 -2624
2022-11-29 17:04:38 GMT 50.413651 -1.178284 17,475 33 381 -2624
2022-11-29 17:04:37 GMT 50.410812 -1.181247 17,550 33 381 -2624
2022-11-29 17:04:35 GMT 50.409557 -1.182589 17,600 33 381 -2688
2022-11-29 17:04:34 GMT 50.407600 -1.184668 17,725 33 382 -2688
2022-11-29 17:04:32 GMT 50.404770 -1.187608 17,750 33 382 -2688
2022-11-29 17:04:31 GMT 50.403122 -1.189342 17,800 33 382 -2688
2022-11-29 17:04:29 GMT 50.400200 -1.192462 17,875 33 382 -2688
2022-11-29 17:04:28 GMT 50.398727 -1.193968 17,925 33 383 -2688
2022-11-29 17:04:27 GMT 50.396336 -1.196471 18,000 33 384 -2752
2022-11-29 17:04:24 GMT 50.393280 -1.199678 18,100 33 384 -2752
2022-11-29 17:04:22 GMT 50.390442 -1.202714 18,200 33 384 -2752
2022-11-29 17:04:21 GMT 50.388748 -1.204488 18,250 33 384 -2752
2022-11-29 17:04:19 GMT 50.385864 -1.207484 18,325 33 384 -2752
2022-11-29 17:04:18 GMT 50.384445 -1.209002 18,400 33 384 -2752
2022-11-29 17:04:16 GMT 50.381470 -1.212110 18,475 33 385 -2752
2022-11-29 17:04:14 GMT 50.376781 -1.217033 18,600 33 385 -2752
2022-11-29 17:04:11 GMT 50.374466 -1.219482 18,675 33 385 -2752
2022-11-29 17:04:10 GMT 50.372269 -1.221784 18,750 33 386 -2752
2022-11-29 17:04:09 GMT 50.370941 -1.223169 18,775 33 386 -2752
2022-11-29 17:04:07 GMT 50.368195 -1.226060 18,850 33 386 -2752
2022-11-29 17:04:05 GMT 50.363750 -1.230691 19,000 33 387 -2688
2022-11-29 17:04:03 GMT 50.362122 -1.232399 19,050 33 387 -2688
2022-11-29 17:04:01 GMT 50.358810 -1.235890 19,100 33 387 -2688
2022-11-29 17:04:00 GMT 50.357483 -1.237263 19,200 33 388 -2688
2022-11-29 17:03:59 GMT 50.355927 -1.238925 19,250 33 388 -2688
2022-11-29 17:03:57 GMT 50.353134 -1.241826 19,325 33 389 -2688
2022-11-29 17:03:56 GMT 50.351551 -1.243534 19,375 33 389 -2752
2022-11-29 17:03:55 GMT 50.348419 -1.246804 19,500 33 389 -2752
2022-11-29 17:03:53 GMT 50.346771 -1.248538 19,500 33 389 -2752
2022-11-29 17:03:52 GMT 50.343777 -1.251625 19,625 33 389 -2816
2022-11-29 17:03:49 GMT 50.338531 -1.257140 19,750 33 390 -2816
2022-11-29 17:03:46 GMT 50.336929 -1.258802 19,825 33 391 -2816
2022-11-29 17:03:45 GMT 50.333771 -1.262166 19,875 33 391 -2816
2022-11-29 17:03:43 GMT 50.332142 -1.263873 19,975 33 391 -2816
2022-11-29 17:03:42 GMT 50.330750 -1.265307 20,025 33 391 -2816
2022-11-29 17:03:40 GMT 50.327858 -1.268327 20,125 33 392 -2816
2022-11-29 17:03:39 GMT 50.325855 -1.270480 20,175 33 392 -2816
2022-11-29 17:03:38 GMT 50.322968 -1.273474 20,275 33 392 -2816
2022-11-29 17:03:36 GMT 50.321457 -1.275065 20,300 33 392 -2816
2022-11-29 17:03:35 GMT 50.320129 -1.276438 20,350 33 393 -2816
2022-11-29 17:03:34 GMT 50.315334 -1.281466 20,500 33 393 -2752
2022-11-29 17:03:32 GMT 50.315334 -1.281466 20,500 33 393 -2752
2022-11-29 17:03:29 GMT 50.311478 -1.285473 20,650 33 394 -2752
2022-11-29 17:03:27 GMT 50.308167 -1.288889 20,750 33 394 -2752
2022-11-29 17:03:26 GMT 50.306629 -1.290522 20,775 33 394 -2752
2022-11-29 17:03:24 GMT 50.303696 -1.293568 20,875 33 395 -2688
2022-11-29 17:03:23 GMT 50.302158 -1.295199 20,925 33 395 -2688
2022-11-29 17:03:22 GMT 50.298668 -1.298836 21,025 33 395 -2624
2022-11-29 17:03:20 GMT 50.297195 -1.300362 21,050 33 395 -2624
2022-11-29 17:03:19 GMT 50.296017 -1.301583 21,075 33 396 -2624
2022-11-29 17:03:17 GMT 50.292755 -1.304988 21,175 33 396 -2624
2022-11-29 17:03:16 GMT 50.290970 -1.306867 21,225 33 397 -2624
2022-11-29 17:03:14 GMT 50.288567 -1.309377 21,275 33 397 -2624
2022-11-29 17:03:13 GMT 50.286518 -1.311530 21,350 33 397 -2624
2022-11-29 17:03:12 GMT 50.283493 -1.314648 21,425 33 397 -2624
2022-11-29 17:03:10 GMT 50.282089 -1.316119 21,475 33 399 -2624
2022-11-29 17:03:07 GMT 50.277393 -1.321032 21,600 33 399 -2688
2022-11-29 17:03:05 GMT 50.274464 -1.324075 21,675 33 400 -2688
2022-11-29 17:03:04 GMT 50.273018 -1.325560 21,725 33 400 -2688
2022-11-29 17:03:02 GMT 50.270130 -1.328603 21,825 33 400 -2688
2022-11-29 17:03:00 GMT 50.267666 -1.331202 21,900 33 400 -2688
2022-11-29 17:02:59 GMT 50.265011 -1.333948 21,975 33 402 -2752
2022-11-29 17:02:57 GMT 50.261009 -1.338105 22,100 33 402 -2752
2022-11-29 17:02:55 GMT 50.258865 -1.340332 22,150 33 402 -2752
2022-11-29 17:02:54 GMT 50.257378 -1.341891 22,200 33 402 -2752
2022-11-29 17:02:53 GMT 50.255997 -1.343368 22,225 33 402 -2752
2022-11-29 17:02:51 GMT 50.253048 -1.346419 22,325 33 402 -2752
2022-11-29 17:02:50 GMT 50.251465 -1.348126 22,375 33 403 -2752
2022-11-29 17:02:48 GMT 50.248207 -1.351541 22,425 33 404 -2752
2022-11-29 17:02:46 GMT 50.244854 -1.355030 22,550 33 404 -2688
2022-11-29 17:02:44 GMT 50.241783 -1.358222 22,650 33 405 -2688
2022-11-29 17:02:43 GMT 50.240383 -1.359707 22,675 33 405 -2688
2022-11-29 17:02:40 GMT 50.235672 -1.364618 22,825 33 406 -2624
2022-11-29 17:02:39 GMT 50.232567 -1.367798 22,900 33 406 -2624
2022-11-29 17:02:36 GMT 50.230087 -1.370400 22,975 33 406 -2624
2022-11-29 17:02:35 GMT 50.228233 -1.372326 23,025 33 407 -2624
2022-11-29 17:02:34 GMT 50.226654 -1.373959 23,075 33 407 -2560
2022-11-29 17:02:33 GMT 50.223312 -1.377411 23,175 33 407 -2560
2022-11-29 17:02:31 GMT 50.222031 -1.378784 23,200 33 408 -2624
2022-11-29 17:02:30 GMT 50.219948 -1.381011 23,275 33 408 -2624
2022-11-29 17:02:29 GMT 50.215294 -1.385762 23,400 33 408 -2560
2022-11-29 17:02:27 GMT 50.215294 -1.385762 23,400 33 408 -2560
2022-11-29 17:02:25 GMT 50.212418 -1.388759 23,475 33 409 -2560
2022-11-29 17:02:24 GMT 50.210777 -1.390439 23,525 33 409 -2560
2022-11-29 17:02:22 GMT 50.207798 -1.393556 23,625 33 409 -2624
2022-11-29 17:02:21 GMT 50.206192 -1.395264 23,650 33 409 -2624
2022-11-29 17:02:20 GMT 50.202942 -1.398588 23,750 33 410 -2624
2022-11-29 17:02:18 GMT 50.201340 -1.400251 23,775 33 410 -2624
2022-11-29 17:02:16 GMT 50.198273 -1.403431 23,875 33 410 -2624
2022-11-29 17:02:14 GMT 50.193230 -1.408625 24,000 33 410 -2624
2022-11-29 17:02:12 GMT 50.191830 -1.410110 24,050 33 411 -2624
2022-11-29 17:02:11 GMT 50.188797 -1.413189 24,125 33 411 -2560
2022-11-29 17:02:08 GMT 50.185822 -1.416369 24,175 33 411 -2560
2022-11-29 17:02:07 GMT 50.184265 -1.417959 24,250 33 411 -2624
2022-11-29 17:02:06 GMT 50.182709 -1.419549 24,300 33 411 -2624
2022-11-29 17:02:05 GMT 50.179596 -1.422802 24,425 33 412 -2624
2022-11-29 17:02:03 GMT 50.178146 -1.424288 24,450 33 412 -2688
2022-11-29 17:02:02 GMT 50.174702 -1.427926 24,525 33 412 -2624
2022-11-29 17:02:00 GMT 50.173210 -1.429410 24,600 33 412 -2624
2022-11-29 17:01:59 GMT 50.171722 -1.430969 24,625 33 412 -2624
2022-11-29 17:01:57 GMT 50.168648 -1.434161 24,700 33 412 -2624
2022-11-29 17:01:56 GMT 50.167053 -1.435884 24,800 33 412 -2688
2022-11-29 17:01:54 GMT 50.162018 -1.441088 24,900 33 413 -2624
2022-11-29 17:01:51 GMT 50.158859 -1.444341 24,925 33 413 -2624
2022-11-29 17:01:50 GMT 50.157257 -1.446075 25,000 33 413 -2624
2022-11-29 17:01:49 GMT 50.155838 -1.447521 25,100 33 413 -2624
2022-11-29 17:01:47 GMT 50.152405 -1.451063 25,125 33 413 -2624
2022-11-29 17:01:46 GMT 50.150711 -1.452797 25,175 33 414 -2624
2022-11-29 17:01:43 GMT 50.145767 -1.457929 25,325 33 414 -2624
2022-11-29 17:01:41 GMT 50.142563 -1.461326 25,400 33 414 -2624
2022-11-29 17:01:39 GMT 50.139416 -1.464596 25,500 33 414 -2688
2022-11-29 17:01:37 GMT 50.137024 -1.467036 25,550 33 414 -2688
2022-11-29 17:01:36 GMT 50.134552 -1.469638 25,625 33 414 -2688
2022-11-29 17:01:34 GMT 50.131393 -1.472891 25,675 33 415 -2688
2022-11-29 17:01:33 GMT 50.129745 -1.474625 25,775 33 415 -2688
2022-11-29 17:01:32 GMT 50.127914 -1.476473 25,825 33 416 -2688
2022-11-29 17:01:30 GMT 50.125397 -1.479107 25,875 33 416 -2688
2022-11-29 17:01:28 GMT 50.122097 -1.482560 25,925 33 416 -2688
2022-11-29 17:01:27 GMT 50.120003 -1.484713 26,050 33 416 -2688
2022-11-29 17:01:26 GMT 50.116196 -1.488647 26,125 33 416 -2688
2022-11-29 17:01:24 GMT 50.116196 -1.488647 26,175 33 416 -2688
2022-11-29 17:01:23 GMT 50.112625 -1.492334 26,225 33 416 -2688
2022-11-29 17:01:21 GMT 50.111343 -1.493707 26,325 33 416 -2688
2022-11-29 17:01:20 GMT 50.107849 -1.497333 26,350 33 416 -2688
2022-11-29 17:01:18 GMT 50.106125 -1.499056 26,450 33 416 -2688
2022-11-29 17:01:17 GMT 50.101273 -1.504115 26,525 33 417 -2688
2022-11-29 17:01:15 GMT 50.101273 -1.504115 26,550 33 417 -2688
2022-11-29 17:01:14 GMT 50.099659 -1.505795 26,675 33 417 -2688
2022-11-29 17:01:12 GMT 50.094452 -1.511198 26,725 33 417 -2752
2022-11-29 17:01:11 GMT 50.094452 -1.511198 26,750 33 417 -2752
2022-11-29 17:01:10 GMT 50.091248 -1.514595 26,825 33 417 -2752
2022-11-29 17:01:08 GMT 50.089691 -1.516186 26,900 33 417 -2752
2022-11-29 17:01:07 GMT 50.088181 -1.517776 26,950 33 417 -2752
2022-11-29 17:01:06 GMT 50.084930 -1.521100 27,025 33 417 -2752
2022-11-29 17:01:04 GMT 50.083282 -1.522835 27,075 33 418 -2752
2022-11-29 17:01:03 GMT 50.080124 -1.526088 27,125 33 418 -2688
2022-11-29 17:01:01 GMT 50.078568 -1.527678 27,200 33 418 -2688
2022-11-29 17:01:00 GMT 50.073498 -1.532890 27,300 33 418 -2688
2022-11-29 17:00:58 GMT 50.073498 -1.532890 27,350 33 418 -2624
2022-11-29 17:00:56 GMT 50.070797 -1.535711 27,425 33 418 -2624
2022-11-29 17:00:54 GMT 50.067631 -1.538977 27,500 33 418 -2624
2022-11-29 17:00:53 GMT 50.066666 -1.539965 27,625 33 419 -2624
2022-11-29 17:00:51 GMT 50.062508 -1.544247 27,625 33 419 -2624
2022-11-29 17:00:50 GMT 50.061035 -1.545820 27,675 33 419 -2624
2022-11-29 17:00:48 GMT 50.056271 -1.550705 27,825 33 419 -2560
2022-11-29 17:00:45 GMT 50.051468 -1.555722 27,950 33 420 -2560
2022-11-29 17:00:43 GMT 50.050049 -1.557167 28,050 33 420 -2560
2022-11-29 17:00:41 GMT 50.046295 -1.560998 28,075 33 420 -2560
2022-11-29 17:00:40 GMT 50.044968 -1.562372 28,125 33 420 -2560
2022-11-29 17:00:39 GMT 50.041763 -1.565696 28,350 33 420 -2624
2022-11-29 17:00:36 GMT 50.035355 -1.572346 28,350 33 421 -2624
2022-11-29 17:00:34 GMT 50.035355 -1.572346 28,375 33 421 -2624
2022-11-29 17:00:33 GMT 50.030434 -1.577429 28,500 33 421 -2752
2022-11-29 17:00:31 GMT 50.030434 -1.577429 28,550 33 421 -2752
2022-11-29 17:00:29 GMT 50.027939 -1.579935 28,675 33 421 -2816
2022-11-29 17:00:27 GMT 50.022583 -1.585501 28,700 33 421 -2944
2022-11-29 17:00:25 GMT 50.020706 -1.587380 28,825 33 421 -3008
2022-11-29 17:00:24 GMT 50.019123 -1.589083 28,850 33 421 -3072
2022-11-29 17:00:22 GMT 50.015957 -1.592349 28,975 33 420 -3328
2022-11-29 17:00:21 GMT 50.014420 -1.593908 29,025 33 419 -3648
2022-11-29 17:00:18 GMT 50.009857 -1.598585 29,250 33 419 -3904
2022-11-29 17:00:16 GMT 50.005997 -1.602593 29,375 33 419 -3520
2022-11-29 17:00:15 GMT 50.004551 -1.604078 29,400 33 419 -3392
2022-11-29 17:00:14 GMT 50.000504 -1.608235 29,525 33 419 -2944
2022-11-29 17:00:11 GMT 49.998093 -1.610726 29,600 33 419 -2624
2022-11-29 17:00:09 GMT 49.995026 -1.613906 29,675 33 419 -2304
2022-11-29 17:00:08 GMT 49.993378 -1.615584 29,725 33 421 -2176
2022-11-29 17:00:06 GMT 49.990864 -1.618182 29,775 33 421 -2176
2022-11-29 17:00:04 GMT 49.986488 -1.622710 29,850 33 422 -2048
2022-11-29 17:00:03 GMT 49.985001 -1.624242 29,875 33 423 -1984
2022-11-29 17:00:02 GMT 49.981834 -1.627461 29,925 33 423 -2048
2022-11-29 17:00:00 GMT 49.980103 -1.629229 30,050 33 424 -2496
2022-11-29 16:59:58 GMT 49.974976 -1.634505 30,125 33 424 -2944
2022-11-29 16:59:56 GMT 49.973236 -1.636312 30,175 33 424 -2944
2022-11-29 16:59:55 GMT 49.968800 -1.640823 30,300 33 424 -3072
2022-11-29 16:59:53 GMT 49.968800 -1.640823 30,300 33 424 -3072
2022-11-29 16:59:51 GMT 49.965775 -1.643941 30,400 33 424 -3072
2022-11-29 16:59:49 GMT 49.960510 -1.649395 30,500 33 426 -3072
2022-11-29 16:59:47 GMT 49.958908 -1.651057 30,650 33 426 -3008
2022-11-29 16:59:45 GMT 49.955612 -1.654454 30,750 33 425 -3072
2022-11-29 16:59:44 GMT 49.953690 -1.656406 30,775 33 425 -3072
2022-11-29 16:59:41 GMT 49.949528 -1.660717 30,975 33 425 -3072
2022-11-29 16:59:39 GMT 49.945404 -1.664935 31,050 33 425 -3072
2022-11-29 16:59:38 GMT 49.944534 -1.665874 31,050 33 425 -3072
2022-11-29 16:59:37 GMT 49.940506 -1.669994 31,200 33 425 -3008
2022-11-29 16:59:35 GMT 49.938858 -1.671729 31,225 33 425 -3008
2022-11-29 16:59:34 GMT 49.937283 -1.673337 31,275 33 425 -3072
2022-11-29 16:59:31 GMT 49.933048 -1.677716 31,400 33 425 -3008
2022-11-29 16:59:30 GMT 49.931305 -1.679463 31,475 33 425 -3008
2022-11-29 16:59:27 GMT 49.924667 -1.686329 31,700 33 424 -3008
2022-11-29 16:59:25 GMT 49.922852 -1.688183 31,725 33 424 -3008
2022-11-29 16:59:24 GMT 49.919872 -1.691226 31,825 33 424 -3072
2022-11-29 16:59:22 GMT 49.918289 -1.692860 31,875 33 424 -3072
2022-11-29 16:59:20 GMT 49.914940 -1.696274 31,975 33 424 -3072
2022-11-29 16:59:19 GMT 49.913357 -1.697982 32,025 33 424 -3072
2022-11-29 16:59:18 GMT 49.910065 -1.701291 32,150 33 424 -3008
2022-11-29 16:59:15 GMT 49.906792 -1.704662 32,200 33 424 -3008
2022-11-29 16:59:14 GMT 49.904938 -1.706567 32,275 33 424 -3008
2022-11-29 16:59:13 GMT 49.903061 -1.708519 32,350 33 423 -3008
2022-11-29 16:59:12 GMT 49.898785 -1.712902 32,450 33 423 -3008
2022-11-29 16:59:10 GMT 49.898785 -1.712902 32,500 33 423 -3072
2022-11-29 16:59:09 GMT 49.896973 -1.714735 32,525 33 423 -3072
2022-11-29 16:59:08 GMT 49.893814 -1.717987 32,675 33 423 -3008
2022-11-29 16:59:05 GMT 49.887177 -1.724781 32,825 33 422 -3008
2022-11-29 16:59:03 GMT 49.887177 -1.724781 32,825 33 422 -3008
2022-11-29 16:59:02 GMT 49.883980 -1.728045 32,925 33 422 -3072
2022-11-29 16:59:00 GMT 49.882187 -1.729913 32,975 33 422 -3072
2022-11-29 16:58:59 GMT 49.880630 -1.731503 33,025 33 422 -3072
2022-11-29 16:58:58 GMT 49.877373 -1.734801 33,225 33 422 -3072
2022-11-29 16:58:55 GMT 49.873627 -1.738659 33,225 33 422 -3072
2022-11-29 16:58:53 GMT 49.870422 -1.741911 33,350 33 421 -3072
2022-11-29 16:58:51 GMT 49.867767 -1.744658 33,425 33 420 -3072
2022-11-29 16:58:50 GMT 49.865917 -1.746529 33,700 33 420 -3072
2022-11-29 16:58:48 GMT 49.862595 -1.749934 33,700 33 420 -3072
2022-11-29 16:58:46 GMT 49.857742 -1.754921 33,750 33 419 -3008
2022-11-29 16:58:43 GMT 49.854187 -1.758481 33,850 33 419 -3008
2022-11-29 16:58:41 GMT 49.851837 -1.760920 33,925 33 418 -3008
2022-11-29 16:58:40 GMT 49.849953 -1.762860 34,050 33 418 -3008
2022-11-29 16:58:38 GMT 49.846458 -1.766423 34,050 33 418 -3008
2022-11-29 16:58:37 GMT 49.845062 -1.767859 34,175 33 417 -3008
2022-11-29 16:58:36 GMT 49.843246 -1.769690 34,200 33 417 -3008
2022-11-29 16:58:34 GMT 49.839943 -1.773104 34,350 33 417 -3008
2022-11-29 16:58:32 GMT 49.835194 -1.777929 34,475 33 416 -2944
2022-11-29 16:58:29 GMT 49.832336 -1.780869 34,550 33 416 -2944
2022-11-29 16:58:27 GMT 49.828770 -1.784536 34,650 33 416 -3008
2022-11-29 16:58:26 GMT 49.827049 -1.786318 34,700 33 415 -3008
2022-11-29 16:58:25 GMT 49.824020 -1.789435 34,850 33 415 -2944
2022-11-29 16:58:22 GMT 49.821461 -1.792033 34,850 33 414 -2944
2022-11-29 16:58:21 GMT 49.815689 -1.797972 34,950 33 414 -2944
2022-11-29 16:58:19 GMT 49.815689 -1.797972 35,050 33 414 -2944
2022-11-29 16:58:17 GMT 49.813202 -1.800529 35,150 33 413 -2944
2022-11-29 16:58:15 GMT 49.809776 -1.803985 35,225 33 412 -2944
2022-11-29 16:58:13 GMT 49.806381 -1.807468 35,325 33 412 -2944
2022-11-29 16:58:12 GMT 49.804642 -1.809275 35,375 33 412 -2944
2022-11-29 16:58:10 GMT 49.799973 -1.814045 35,525 33 411 -2880
2022-11-29 16:58:09 GMT 49.799973 -1.814045 35,525 33 411 -2880
2022-11-29 16:58:07 GMT 49.796906 -1.817225 35,600 33 411 -2816
2022-11-29 16:58:06 GMT 49.795303 -1.818816 35,650 33 411 -2752
2022-11-29 16:58:04 GMT 49.792133 -1.822097 35,750 33 411 -2688
2022-11-29 16:58:03 GMT 49.791203 -1.822988 35,775 33 411 -2624
2022-11-29 16:58:02 GMT 49.788071 -1.826188 35,875 33 410 -2496
2022-11-29 16:58:00 GMT 49.786331 -1.827995 35,925 33 410 -2432
2022-11-29 16:57:58 GMT 49.780975 -1.833416 36,050 33 409 -2048
2022-11-29 16:57:56 GMT 49.779427 -1.835088 36,075 33 409 -1984
2022-11-29 16:57:55 GMT 49.774864 -1.839690 36,150 33 409 -1728
2022-11-29 16:57:53 GMT 49.774864 -1.839690 36,175 33 409 -1600
2022-11-29 16:57:52 GMT 49.773560 -1.841077 36,200 33 409 -1472
2022-11-29 16:57:51 GMT 49.768860 -1.845852 36,275 33 409 -1280
2022-11-29 16:57:49 GMT 49.768860 -1.845852 36,275 33 409 -1088
2022-11-29 16:57:46 GMT 49.764900 -1.849860 36,300 33 409 -960
2022-11-29 16:57:45 GMT 49.762619 -1.852161 36,325 33 409 -832
2022-11-29 16:57:44 GMT 49.760384 -1.854462 36,350 33 409 -832
2022-11-29 16:57:42 GMT 49.755569 -1.859364 36,400 33 409 -832
2022-11-29 16:57:39 GMT 49.752319 -1.862689 36,425 33 410 -896
2022-11-29 16:57:37 GMT 49.749771 -1.865226 36,450 33 410 -896
2022-11-29 16:57:36 GMT 49.746689 -1.868326 36,475 33 410 -960
2022-11-29 16:57:34 GMT 49.745071 -1.870051 36,500 33 410 -960
2022-11-29 16:57:33 GMT 49.743256 -1.871796 36,500 33 410 -960
2022-11-29 16:57:31 GMT 49.739716 -1.875396 36,575 33 410 -960
2022-11-29 16:57:29 GMT 49.735428 -1.879819 36,600 33 410 -960
2022-11-29 16:57:28 GMT 49.735428 -1.879819 36,600 33 410 -960
2022-11-29 16:57:27 GMT 49.733459 -1.881770 36,600 33 410 -960
2022-11-29 16:57:25 GMT 49.730732 -1.884526 36,650 33 410 -1024
2022-11-29 16:57:24 GMT 49.729065 -1.886251 36,650 33 410 -1024
2022-11-29 16:57:22 GMT 49.726124 -1.889203 36,700 33 410 -1024
2022-11-29 16:57:21 GMT 49.724495 -1.890836 36,725 33 410 -1024
2022-11-29 16:57:19 GMT 49.721558 -1.893841 36,750 33 409 -1024
2022-11-29 16:57:17 GMT 49.718208 -1.897220 36,775 33 409 -1024
2022-11-29 16:57:15 GMT 49.715229 -1.900189 36,800 33 409 -1024
2022-11-29 16:57:14 GMT 49.713501 -1.901936 36,825 33 409 -1024
2022-11-29 16:57:12 GMT 49.710342 -1.905163 36,850 33 410 -1024
2022-11-29 16:57:10 GMT 49.703842 -1.911693 36,925 33 410 -1024
2022-11-29 16:57:08 GMT 49.703842 -1.911693 36,925 33 409 -1024
2022-11-29 16:57:07 GMT 49.700474 -1.915184 36,975 33 409 -1088
2022-11-29 16:57:05 GMT 49.698795 -1.916817 36,975 33 410 -1088
2022-11-29 16:57:04 GMT 49.695877 -1.919789 37,000 33 410 -1088
2022-11-29 16:57:02 GMT 49.694141 -1.921568 37,025 33 410 -1088
2022-11-29 16:57:00 GMT 49.691021 -1.924760 37,050 33 410 -1088
2022-11-29 16:56:58 GMT 49.687996 -1.927804 37,100 33 412 -1088
2022-11-29 16:56:56 GMT 49.684799 -1.931064 37,125 33 412 -1088
2022-11-29 16:56:54 GMT 49.681293 -1.934633 37,175 33 412 -1024
2022-11-29 16:56:52 GMT 49.678127 -1.937825 37,200 33 412 -960
2022-11-29 16:56:51 GMT 49.676453 -1.939532 37,225 33 412 -960
2022-11-29 16:56:49 GMT 49.673401 -1.942629 37,250 33 412 -960
2022-11-29 16:56:48 GMT 49.672485 -1.943568 37,275 33 412 -960
2022-11-29 16:56:47 GMT 49.670166 -1.945916 37,300 33 412 -960
2022-11-29 16:56:45 GMT 49.666992 -1.949134 37,325 33 412 -896
2022-11-29 16:56:44 GMT 49.665390 -1.950796 37,350 33 412 -832
2022-11-29 16:56:43 GMT 49.662369 -1.953832 37,375 33 412 -832
2022-11-29 16:56:41 GMT 49.660763 -1.955492 37,400 33 412 -832
2022-11-29 16:56:39 GMT 49.657516 -1.958747 37,425 33 412 -832
2022-11-29 16:56:38 GMT 49.655968 -1.960391 37,425 33 412 -832
2022-11-29 16:56:37 GMT 49.654266 -1.962071 37,450 33 412 -832
2022-11-29 16:56:36 GMT 49.651173 -1.965217 37,475 33 412 -832
2022-11-29 16:56:34 GMT 49.649460 -1.966914 37,500 33 412 -896
2022-11-29 16:56:31 GMT 49.645203 -1.971251 37,525 33 412 -896
2022-11-29 16:56:30 GMT 49.642090 -1.974431 37,550 33 412 -896
2022-11-29 16:56:28 GMT 49.640419 -1.976129 37,550 33 412 -960
2022-11-29 16:56:27 GMT 49.635223 -1.981370 37,600 33 412 -960
2022-11-29 16:56:25 GMT 49.635223 -1.981370 37,625 33 412 -960
2022-11-29 16:56:24 GMT 49.632088 -1.984517 37,625 33 412 -960
2022-11-29 16:56:21 GMT 49.628952 -1.987730 37,675 33 412 -1024
2022-11-29 16:56:19 GMT 49.625431 -1.991272 37,700 33 412 -1024
2022-11-29 16:56:17 GMT 49.620823 -1.995949 37,750 33 413 -1024
2022-11-29 16:56:15 GMT 49.619473 -1.997359 37,750 33 413 -1024
2022-11-29 16:56:13 GMT 49.616215 -2.000625 37,800 33 414 -1024
2022-11-29 16:56:12 GMT 49.614723 -2.002184 37,800 33 414 -960
2022-11-29 16:56:11 GMT 49.613281 -2.003594 37,825 33 414 -960
2022-11-29 16:56:09 GMT 49.610115 -2.006786 37,850 33 415 -896
2022-11-29 16:56:08 GMT 49.607834 -2.009088 37,875 33 415 -896
2022-11-29 16:56:07 GMT 49.604645 -2.012305 37,900 33 415 -768
2022-11-29 16:56:04 GMT 49.602081 -2.014907 37,925 33 415 -768
2022-11-29 16:56:03 GMT 49.598850 -2.018144 37,950 33 416 -640
2022-11-29 16:56:02 GMT 49.598850 -2.018144 37,950 33 416 -640
2022-11-29 16:56:01 GMT 49.594208 -2.022858 37,975 33 416 -448
2022-11-29 16:55:59 GMT 49.594208 -2.022858 38,000 33 416 -384
2022-11-29 16:55:58 GMT 49.591919 -2.025171 38,000 33 416 -256
2022-11-29 16:55:56 GMT 49.589443 -2.027646 38,000 33 416 -192
2022-11-29 16:55:55 GMT 49.587799 -2.029363 38,025 33 416 -64
2022-11-29 16:55:53 GMT 49.584686 -2.032471 38,025 33 416 0
2022-11-29 16:55:52 GMT 49.582260 -2.034928 38,025 33 416 0
2022-11-29 16:55:50 GMT 49.579010 -2.038181 38,025 33 417 0
2022-11-29 16:55:47 GMT 49.574661 -2.042590 38,025 33 417 0
2022-11-29 16:55:46 GMT 49.571243 -2.046055 38,025 33 417 -64
2022-11-29 16:55:43 GMT 49.566261 -2.051029 38,025 33 417 -64
2022-11-29 16:55:40 GMT 49.563004 -2.054369 38,025 33 418 0
2022-11-29 16:55:38 GMT 49.560349 -2.057041 38,025 33 418 0
2022-11-29 16:55:36 GMT 49.557312 -2.060081 38,025 33 418 0
2022-11-29 16:55:34 GMT 49.553146 -2.064273 38,025 33 418 0
2022-11-29 16:55:32 GMT 49.550014 -2.067434 38,025 33 418 64
2022-11-29 16:55:30 GMT 49.546967 -2.070489 38,025 33 418 64
2022-11-29 16:55:28 GMT 49.543732 -2.073744 38,025 33 418 0
2022-11-29 16:55:26 GMT 49.540661 -2.076861 38,025 33 419 0
2022-11-29 16:55:25 GMT 49.538891 -2.078643 38,025 33 419 0
2022-11-29 16:55:24 GMT 49.537258 -2.080276 38,025 33 419 0
2022-11-29 16:55:22 GMT 49.534012 -2.083572 38,025 33 419 0
2022-11-29 16:55:21 GMT 49.532364 -2.085162 38,025 33 419 0
2022-11-29 16:55:18 GMT 49.528229 -2.089332 38,025 33 420 0
2022-11-29 16:55:15 GMT 49.523117 -2.094486 38,025 33 420 -64
2022-11-29 16:55:13 GMT 49.519711 -2.097869 38,025 33 420 -64
2022-11-29 16:55:12 GMT 49.518036 -2.099576 38,025 33 420 -64
2022-11-29 16:55:11 GMT 49.514542 -2.103065 38,025 33 420 -64
2022-11-29 16:55:09 GMT 49.512959 -2.104624 38,025 33 420 0
2022-11-29 16:55:07 GMT 49.507702 -2.109969 38,025 33 421 0
2022-11-29 16:55:05 GMT 49.506256 -2.111379 38,025 33 421 0
2022-11-29 16:55:03 GMT 49.503510 -2.114126 38,025 33 421 0
2022-11-29 16:55:01 GMT 49.499645 -2.117986 38,025 33 421 0
2022-11-29 16:55:00 GMT 49.495697 -2.122024 38,025 33 421 0
2022-11-29 16:54:58 GMT 49.495697 -2.122024 38,025 33 421 0
2022-11-29 16:54:56 GMT 49.491714 -2.125999 38,025 33 421 0
2022-11-29 16:54:54 GMT 49.488194 -2.129492 38,025 33 421 0
2022-11-29 16:54:51 GMT 49.483913 -2.133797 38,025 33 422 0
2022-11-29 16:54:49 GMT 49.480606 -2.137064 38,025 33 422 0
2022-11-29 16:54:47 GMT 49.477066 -2.140672 38,025 33 422 0
2022-11-29 16:54:46 GMT 49.475391 -2.142334 38,025 33 422 0
2022-11-29 16:54:44 GMT 49.472076 -2.145659 38,025 33 423 0
2022-11-29 16:54:42 GMT 49.468597 -2.149163 38,025 33 423 0
2022-11-29 16:54:41 GMT 49.467087 -2.150646 38,025 33 423 0
2022-11-29 16:54:39 GMT 49.463654 -2.154115 38,025 33 422 0
2022-11-29 16:54:38 GMT 49.462730 -2.155028 38,025 33 422 0
2022-11-29 16:54:36 GMT 49.458866 -2.158888 38,025 33 422 0
2022-11-29 16:54:34 GMT 49.455700 -2.162080 38,025 33 423 0
2022-11-29 16:54:32 GMT 49.452164 -2.165608 38,025 33 423 0
2022-11-29 16:54:30 GMT 49.449966 -2.167776 38,025 33 423 0
2022-11-29 16:54:29 GMT 49.448364 -2.169438 38,025 33 424 0
2022-11-29 16:54:27 GMT 49.445042 -2.172769 38,025 33 424 0
2022-11-29 16:54:26 GMT 49.443413 -2.174402 38,025 33 424 64
2022-11-29 16:54:25 GMT 49.442001 -2.175799 38,025 33 424 64
2022-11-29 16:54:23 GMT 49.438618 -2.179227 38,025 33 424 64
2022-11-29 16:54:21 GMT 49.431564 -2.186279 38,025 33 424 0
2022-11-29 16:54:19 GMT 49.431564 -2.186279 38,025 33 424 0
2022-11-29 16:54:17 GMT 49.428375 -2.189471 38,025 33 424 0
2022-11-29 16:54:15 GMT 49.425247 -2.192688 38,025 33 424 0
2022-11-29 16:54:13 GMT 49.420692 -2.197193 38,025 33 426 0
2022-11-29 16:54:11 GMT 49.418289 -2.199660 38,025 33 425 0
2022-11-29 16:54:09 GMT 49.411800 -2.206156 38,025 33 425 0
2022-11-29 16:54:07 GMT 49.411800 -2.206156 38,025 33 425 64
2022-11-29 16:54:05 GMT 49.407990 -2.210013 38,025 33 425 64
2022-11-29 16:54:03 GMT 49.405422 -2.212589 38,025 33 425 64
2022-11-29 16:54:02 GMT 49.403229 -2.214801 38,025 33 425 64
2022-11-29 16:54:01 GMT 49.401840 -2.216203 38,025 33 426 64
2022-11-29 16:53:58 GMT 49.396858 -2.221190 38,025 33 426 64
2022-11-29 16:53:56 GMT 49.393646 -2.224370 38,000 33 426 64
2022-11-29 16:53:54 GMT 49.390015 -2.228056 38,000 33 426 64
2022-11-29 16:53:53 GMT 49.388443 -2.229661 38,000 33 426 128
2022-11-29 16:53:51 GMT 49.385605 -2.232478 38,000 33 426 128
2022-11-29 16:53:49 GMT 49.379929 -2.238112 38,000 33 426 0
2022-11-29 16:53:45 GMT 49.375534 -2.242549 38,000 33 427 0
2022-11-29 16:53:43 GMT 49.373116 -2.244969 38,000 33 427 0
2022-11-29 16:53:41 GMT 49.369949 -2.248113 38,000 33 427 64
2022-11-29 16:53:40 GMT 49.367294 -2.250789 38,000 33 427 0
2022-11-29 16:53:38 GMT 49.364693 -2.253354 38,000 33 427 0
2022-11-29 16:53:36 GMT 49.360931 -2.257127 38,000 33 427 0
2022-11-29 16:53:34 GMT 49.357616 -2.260437 38,000 33 427 0
2022-11-29 16:53:32 GMT 49.355118 -2.262972 38,000 33 427 0
2022-11-29 16:53:30 GMT 49.351795 -2.266292 38,000 33 427 0
2022-11-29 16:53:29 GMT 49.350121 -2.267954 38,000 33 427 0
2022-11-29 16:53:28 GMT 49.347656 -2.270367 38,000 32 427 0
2022-11-29 16:53:26 GMT 49.344440 -2.273592 38,000 32 427 0
2022-11-29 16:53:25 GMT 49.342896 -2.275156 38,000 32 427 0
2022-11-29 16:53:24 GMT 49.341042 -2.276989 38,000 32 427 0
2022-11-29 16:53:22 GMT 49.337723 -2.280297 38,000 32 427 0
2022-11-29 16:53:21 GMT 49.335983 -2.282058 38,000 32 427 0
2022-11-29 16:53:19 GMT 49.333549 -2.284433 38,000 32 427 0
2022-11-29 16:53:17 GMT 49.329437 -2.288466 38,000 32 427 0
2022-11-29 16:53:15 GMT 49.326782 -2.291142 38,000 33 428 0
2022-11-29 16:53:13 GMT 49.322662 -2.295297 38,000 33 428 0
2022-11-29 16:53:12 GMT 49.321701 -2.296213 38,000 33 428 0
2022-11-29 16:53:10 GMT 49.315704 -2.302129 38,000 33 428 0
2022-11-29 16:53:09 GMT 49.315704 -2.302129 38,000 33 428 0
2022-11-29 16:53:07 GMT 49.312225 -2.305650 38,000 33 428 0
2022-11-29 16:53:05 GMT 49.309109 -2.308719 38,000 33 428 0
2022-11-29 16:53:02 GMT 49.304535 -2.313326 38,000 33 428 0
2022-11-29 16:53:00 GMT 49.301102 -2.316707 38,000 33 428 0
2022-11-29 16:52:58 GMT 49.298035 -2.319805 38,000 33 429 0
2022-11-29 16:52:56 GMT 49.294647 -2.323186 38,000 33 429 0
2022-11-29 16:52:54 GMT 49.291325 -2.326500 38,000 33 429 0
2022-11-29 16:52:53 GMT 49.289749 -2.327975 38,000 32 428 0
2022-11-29 16:52:52 GMT 49.288300 -2.329463 38,000 32 428 0
2022-11-29 16:52:50 GMT 49.284393 -2.333327 38,000 32 428 0
2022-11-29 16:52:48 GMT 49.279781 -2.337920 38,000 33 429 0
2022-11-29 16:52:47 GMT 49.279781 -2.337920 38,000 33 429 0
2022-11-29 16:52:45 GMT 49.276615 -2.341028 38,000 33 429 0
2022-11-29 16:52:44 GMT 49.275078 -2.342545 38,000 33 429 0
2022-11-29 16:52:42 GMT 49.271587 -2.346015 38,000 33 428 0
2022-11-29 16:52:40 GMT 49.267536 -2.350062 38,000 33 428 0
2022-11-29 16:52:39 GMT 49.266651 -2.350930 38,000 33 429 0
2022-11-29 16:52:36 GMT 49.261642 -2.355934 38,000 33 429 0
2022-11-29 16:52:34 GMT 49.257385 -2.360159 38,000 33 429 0
2022-11-29 16:52:32 GMT 49.255005 -2.362554 38,000 33 429 64
2022-11-29 16:52:31 GMT 49.251335 -2.366108 38,000 33 429 64
2022-11-29 16:52:29 GMT 49.249474 -2.367987 38,000 33 429 64
2022-11-29 16:52:28 GMT 49.247910 -2.369596 38,000 33 429 64
2022-11-29 16:52:27 GMT 49.244522 -2.372976 38,000 33 429 64
2022-11-29 16:52:25 GMT 49.242691 -2.374737 38,000 33 429 64
2022-11-29 16:52:24 GMT 49.237839 -2.379596 38,000 33 429 64
2022-11-29 16:52:21 GMT 49.236145 -2.381287 38,000 33 429 64
2022-11-29 16:52:20 GMT 49.232803 -2.384597 38,000 33 429 0
2022-11-29 16:52:17 GMT 49.229736 -2.387647 38,000 33 429 0
2022-11-29 16:52:16 GMT 49.228134 -2.389174 38,000 33 429 0
2022-11-29 16:52:15 GMT 49.226578 -2.390724 38,000 33 430 0
2022-11-29 16:52:14 GMT 49.224289 -2.392996 38,000 33 430 0
2022-11-29 16:52:12 GMT 49.221588 -2.395742 38,000 33 430 0
2022-11-29 16:52:11 GMT 49.219822 -2.397477 38,000 33 430 0
2022-11-29 16:52:09 GMT 49.216507 -2.400794 38,000 33 430 0
2022-11-29 16:52:07 GMT 49.213070 -2.404199 38,000 33 430 0
2022-11-29 16:52:06 GMT 49.211441 -2.405789 38,000 33 430 0
2022-11-29 16:52:05 GMT 49.209812 -2.407379 38,000 33 430 0
2022-11-29 16:52:04 GMT 49.206573 -2.410654 38,000 33 430 0
2022-11-29 16:52:02 GMT 49.204926 -2.412222 38,000 33 430 -64
2022-11-29 16:52:01 GMT 49.203342 -2.413812 38,000 33 430 -64
2022-11-29 16:51:58 GMT 49.197876 -2.419246 38,000 33 430 -64
2022-11-29 16:51:56 GMT 49.194168 -2.422908 38,000 33 430 -64
2022-11-29 16:51:54 GMT 49.190872 -2.426147 38,000 32 430 -64
2022-11-29 16:51:53 GMT 49.189281 -2.427762 38,000 32 430 -64
2022-11-29 16:51:52 GMT 49.187698 -2.429352 38,000 32 430 -64
2022-11-29 16:51:51 GMT 49.184299 -2.432677 38,000 32 430 0
2022-11-29 16:51:48 GMT 49.179520 -2.437415 38,000 32 430 0
2022-11-29 16:51:45 GMT 49.177223 -2.439688 38,000 32 431 0
2022-11-29 16:51:44 GMT 49.171825 -2.444964 38,000 32 431 0
2022-11-29 16:51:41 GMT 49.169357 -2.447421 38,000 32 431 0
2022-11-29 16:51:40 GMT 49.167496 -2.449301 38,000 32 431 0
2022-11-29 16:51:39 GMT 49.166054 -2.450674 38,000 32 431 0
2022-11-29 16:51:37 GMT 49.162979 -2.453710 38,000 32 431 -64
2022-11-29 16:51:35 GMT 49.159653 -2.456994 38,000 32 431 0
2022-11-29 16:51:34 GMT 49.157997 -2.458625 38,000 32 431 -64
2022-11-29 16:51:33 GMT 49.156265 -2.460374 38,000 32 431 -64
2022-11-29 16:51:31 GMT 49.152973 -2.463540 38,000 32 431 -64
2022-11-29 16:51:30 GMT 49.151436 -2.465130 38,025 32 431 -64
2022-11-29 16:51:28 GMT 49.148117 -2.468403 38,025 32 431 -64
2022-11-29 16:51:26 GMT 49.145508 -2.470938 38,025 32 431 -64
2022-11-29 16:51:25 GMT 49.143585 -2.472839 38,025 32 431 -64
2022-11-29 16:51:24 GMT 49.141159 -2.475234 38,025 32 431 -64
2022-11-29 16:51:23 GMT 49.139328 -2.477065 38,025 32 431 -64
2022-11-29 16:51:21 GMT 49.136585 -2.479802 38,025 32 431 -64
2022-11-29 16:51:20 GMT 49.134769 -2.481537 38,025 32 431 -64
2022-11-29 16:51:18 GMT 49.131557 -2.484717 38,025 32 431 -64
2022-11-29 16:51:17 GMT 49.129715 -2.486572 38,025 32 431 -64
2022-11-29 16:51:15 GMT 49.126297 -2.489993 38,025 32 431 0
2022-11-29 16:51:13 GMT 49.122894 -2.493263 38,025 32 431 0
2022-11-29 16:51:10 GMT 49.117870 -2.498233 38,025 32 431 0
2022-11-29 16:51:08 GMT 49.114609 -2.501502 38,025 32 431 0
2022-11-29 16:51:07 GMT 49.112751 -2.503293 38,025 32 431 0
2022-11-29 16:51:06 GMT 49.111267 -2.504812 38,025 32 431 0
2022-11-29 16:51:05 GMT 49.107788 -2.508193 38,025 32 431 0
2022-11-29 16:51:03 GMT 49.106186 -2.509798 38,025 32 431 0
2022-11-29 16:51:02 GMT 49.100830 -2.515094 38,025 32 432 -64
2022-11-29 16:51:00 GMT 49.100830 -2.515094 38,025 32 432 -64
2022-11-29 16:50:59 GMT 49.099182 -2.516714 38,025 32 432 -64
2022-11-29 16:50:57 GMT 49.096828 -2.519049 38,025 32 432 -64
2022-11-29 16:50:56 GMT 49.093479 -2.522302 38,025 32 432 -64
2022-11-29 16:50:53 GMT 49.088867 -2.526855 38,025 32 432 -64
2022-11-29 16:50:50 GMT 49.081097 -2.534517 38,050 32 432 -64
2022-11-29 16:50:48 GMT 49.081097 -2.534517 38,050 32 432 -64
2022-11-29 16:50:46 GMT 49.077713 -2.537842 38,050 32 432 0
2022-11-29 16:50:45 GMT 49.076206 -2.539360 38,050 32 432 64
2022-11-29 16:50:42 GMT 49.070023 -2.545448 38,025 32 432 128
2022-11-29 16:50:40 GMT 49.068199 -2.547238 38,025 32 432 128
2022-11-29 16:50:38 GMT 49.064026 -2.551363 38,025 32 432 128
2022-11-29 16:50:35 GMT 49.059635 -2.555695 38,025 32 432 128
2022-11-29 16:50:34 GMT 49.055305 -2.559887 38,000 32 432 128
2022-11-29 16:50:31 GMT 49.053070 -2.562127 38,000 32 432 128
2022-11-29 16:50:29 GMT 49.049484 -2.565669 38,000 32 433 64
2022-11-29 16:50:27 GMT 49.045994 -2.569066 38,000 32 433 64
2022-11-29 16:50:26 GMT 49.044067 -2.571012 38,000 32 433 0
2022-11-29 16:50:25 GMT 49.040455 -2.574487 38,000 32 433 0
2022-11-29 16:50:22 GMT 49.037243 -2.577667 38,000 32 433 0
2022-11-29 16:50:20 GMT 49.033985 -2.580847 38,000 32 433 0
2022-11-29 16:50:18 GMT 49.031376 -2.583450 38,000 32 433 0
2022-11-29 16:50:17 GMT 49.028912 -2.585907 38,000 32 433 0
2022-11-29 16:50:15 GMT 49.022766 -2.591906 38,000 32 433 0
2022-11-29 16:50:12 GMT 49.020905 -2.593759 38,000 32 433 64
2022-11-29 16:50:10 GMT 49.017319 -2.597327 38,000 32 433 0
2022-11-29 16:50:08 GMT 49.014011 -2.600507 38,000 32 433 0
2022-11-29 16:50:06 GMT 49.010338 -2.604193 38,000 32 433 64
2022-11-29 16:50:03 GMT 49.005020 -2.609394 38,000 32 433 64
2022-11-29 16:50:01 GMT 49.003075 -2.611277 38,000 32 433 64
2022-11-29 16:50:00 GMT 49.000465 -2.613879 38,000 32 433 64
2022-11-29 16:49:58 GMT 48.997559 -2.616718 38,000 32 433 64
2022-11-29 16:49:57 GMT 48.996048 -2.618197 38,000 32 433 64
2022-11-29 16:49:55 GMT 48.992321 -2.621902 38,000 32 433 64
2022-11-29 16:49:54 GMT 48.990555 -2.623620 38,000 32 433 64
2022-11-29 16:49:52 GMT 48.987259 -2.626859 37,975 32 433 0
2022-11-29 16:49:51 GMT 48.985523 -2.628551 38,000 32 433 0
2022-11-29 16:49:49 GMT 48.979610 -2.634334 37,975 32 433 64
2022-11-29 16:49:46 GMT 48.978123 -2.635851 37,975 32 433 -64
2022-11-29 16:49:45 GMT 48.974670 -2.639184 37,975 32 433 0
2022-11-29 16:49:43 GMT 48.973068 -2.640803 37,975 32 433 -64
2022-11-29 16:49:42 GMT 48.969322 -2.644453 38,000 32 433 -64
2022-11-29 16:49:40 GMT 48.967575 -2.646156 38,000 32 433 -64
2022-11-29 16:49:38 GMT 48.964188 -2.649466 38,000 32 432 -64
2022-11-29 16:49:37 GMT 48.962585 -2.651015 38,000 32 432 -64
2022-11-29 16:49:36 GMT 48.960945 -2.652620 38,000 32 432 -64
2022-11-29 16:49:35 GMT 48.958878 -2.654607 38,000 32 432 -64
2022-11-29 16:49:33 GMT 48.955452 -2.658041 38,000 32 432 0
2022-11-29 16:49:32 GMT 48.953728 -2.659703 38,000 32 432 0
2022-11-29 16:49:31 GMT 48.950821 -2.662494 38,000 32 432 0
2022-11-29 16:49:28 GMT 48.947395 -2.665847 38,000 32 432 64
2022-11-29 16:49:27 GMT 48.942490 -2.670593 38,000 32 432 64
2022-11-29 16:49:25 GMT 48.942490 -2.670593 38,000 32 431 64
2022-11-29 16:49:24 GMT 48.940182 -2.672858 38,000 32 431 64
2022-11-29 16:49:22 GMT 48.936310 -2.676650 38,000 32 431 64
2022-11-29 16:49:20 GMT 48.933292 -2.679580 38,000 32 432 64
2022-11-29 16:49:18 GMT 48.929810 -2.682988 37,975 32 432 64
2022-11-29 16:49:16 GMT 48.925194 -2.687531 37,975 32 432 64
2022-11-29 16:49:14 GMT 48.923492 -2.689186 37,975 32 432 0
2022-11-29 16:49:12 GMT 48.920105 -2.692425 37,975 32 432 0
2022-11-29 16:49:10 GMT 48.917633 -2.694890 37,975 32 432 0
2022-11-29 16:49:09 GMT 48.911774 -2.700524 37,975 32 432 0
2022-11-29 16:49:07 GMT 48.911774 -2.700524 37,975 32 432 -64
2022-11-29 16:49:06 GMT 48.910172 -2.702073 37,975 32 432 0
2022-11-29 16:49:04 GMT 48.904663 -2.707479 37,975 32 432 0
2022-11-29 16:49:03 GMT 48.904663 -2.707479 37,975 32 432 0
2022-11-29 16:49:01 GMT 48.902298 -2.709750 37,975 32 432 0
2022-11-29 16:48:59 GMT 48.898563 -2.713406 37,975 32 432 0
2022-11-29 16:48:57 GMT 48.894516 -2.717356 37,975 32 432 0
2022-11-29 16:48:56 GMT 48.892914 -2.718905 37,975 32 432 0
2022-11-29 16:48:54 GMT 48.889481 -2.722285 37,975 32 431 0
2022-11-29 16:48:53 GMT 48.888016 -2.723694 37,975 32 431 0
2022-11-29 16:48:51 GMT 48.884830 -2.726778 37,975 32 432 0
2022-11-29 16:48:50 GMT 48.882889 -2.728694 37,975 32 432 0
2022-11-29 16:48:49 GMT 48.881195 -2.730314 37,975 32 432 0
2022-11-29 16:48:47 GMT 48.878220 -2.733211 37,975 32 432 0
2022-11-29 16:48:46 GMT 48.876266 -2.735090 37,975 32 432 0
2022-11-29 16:48:45 GMT 48.872681 -2.738624 37,975 32 432 64
2022-11-29 16:48:43 GMT 48.871006 -2.740222 37,975 32 432 64
2022-11-29 16:48:41 GMT 48.867737 -2.743413 37,975 32 432 64
2022-11-29 16:48:39 GMT 48.864300 -2.746727 37,975 32 432 0
2022-11-29 16:48:37 GMT 48.861275 -2.749690 37,975 32 432 0
2022-11-29 16:48:36 GMT 48.859268 -2.751582 37,975 32 432 0
2022-11-29 16:48:35 GMT 48.855606 -2.755174 37,975 32 432 0
2022-11-29 16:48:33 GMT 48.854107 -2.756629 37,975 32 432 0
2022-11-29 16:48:31 GMT 48.850849 -2.759809 37,975 32 431 0
2022-11-29 16:48:28 GMT 48.845589 -2.764941 37,975 32 431 0
2022-11-29 16:48:27 GMT 48.841415 -2.768977 37,975 32 431 0
2022-11-29 16:48:25 GMT 48.837204 -2.773062 37,975 32 431 0
2022-11-29 16:48:23 GMT 48.837204 -2.773062 37,975 32 431 0
2022-11-29 16:48:21 GMT 48.831573 -2.778529 37,975 32 431 0
2022-11-29 16:48:19 GMT 48.831573 -2.778529 37,975 32 431 0
2022-11-29 16:48:18 GMT 48.829880 -2.780245 37,975 32 431 0
2022-11-29 16:48:15 GMT 48.824406 -2.785540 37,975 32 431 0
2022-11-29 16:48:14 GMT 48.821045 -2.788767 37,975 32 431 0
2022-11-29 16:48:12 GMT 48.819519 -2.790311 37,975 32 431 0
2022-11-29 16:48:10 GMT 48.815842 -2.793852 37,975 32 431 0
2022-11-29 16:48:08 GMT 48.812759 -2.796866 37,975 32 431 0
2022-11-29 16:48:06 GMT 48.810303 -2.799201 37,975 32 431 0
2022-11-29 16:48:04 GMT 48.805321 -2.804116 37,975 32 431 0
2022-11-29 16:48:02 GMT 48.801922 -2.807368 37,975 32 431 0
2022-11-29 16:48:00 GMT 48.800171 -2.809049 37,975 32 431 0
2022-11-29 16:47:59 GMT 48.798382 -2.810765 37,975 32 431 0
2022-11-29 16:47:58 GMT 48.794815 -2.814261 37,975 32 431 0
2022-11-29 16:47:55 GMT 48.790424 -2.818499 37,975 32 431 0
2022-11-29 16:47:53 GMT 48.788864 -2.820035 37,975 32 431 0
2022-11-29 16:47:52 GMT 48.786987 -2.821867 37,975 32 431 0
2022-11-29 16:47:50 GMT 48.781067 -2.827678 37,975 32 431 0
2022-11-29 16:47:47 GMT 48.777668 -2.830931 37,975 32 431 0
2022-11-29 16:47:45 GMT 48.774132 -2.834400 37,975 32 431 -64
2022-11-29 16:47:44 GMT 48.772499 -2.835918 37,975 32 431 0
2022-11-29 16:47:42 GMT 48.769009 -2.839315 37,975 32 431 0
2022-11-29 16:47:41 GMT 48.767395 -2.840952 37,975 32 431 0
2022-11-29 16:47:39 GMT 48.763515 -2.844664 37,975 32 431 0
2022-11-29 16:47:37 GMT 48.756672 -2.851314 37,975 32 431 -64
2022-11-29 16:47:35 GMT 48.756672 -2.851314 37,975 32 431 -64
2022-11-29 16:47:34 GMT 48.753693 -2.854205 37,975 32 431 -64
2022-11-29 16:47:31 GMT 48.750412 -2.857361 38,000 32 431 -64
2022-11-29 16:47:29 GMT 48.747253 -2.860460 38,000 32 431 -64
2022-11-29 16:47:27 GMT 48.744057 -2.863601 38,000 32 431 -64
2022-11-29 16:47:25 GMT 48.740334 -2.867143 38,000 32 431 0
2022-11-29 16:47:23 GMT 48.736771 -2.870601 38,000 32 431 -64
2022-11-29 16:47:22 GMT 48.735123 -2.872221 38,000 32 431 -64
2022-11-29 16:47:20 GMT 48.731861 -2.875382 38,000 32 431 -64
2022-11-29 16:47:18 GMT 48.726746 -2.880319 38,000 32 431 -64
2022-11-29 16:47:16 GMT 48.725250 -2.881743 38,000 32 431 0
2022-11-29 16:47:15 GMT 48.721848 -2.885108 38,000 32 432 -64
2022-11-29 16:47:13 GMT 48.719971 -2.886869 38,000 32 432 -64
2022-11-29 16:47:11 GMT 48.716545 -2.890199 38,000 32 432 -64
2022-11-29 16:47:09 GMT 48.714123 -2.892512 38,000 32 432 -64
2022-11-29 16:47:08 GMT 48.712261 -2.894319 38,000 32 432 -64
2022-11-29 16:47:06 GMT 48.704865 -2.901517 38,000 32 432 -64
2022-11-29 16:47:04 GMT 48.704865 -2.901517 38,000 32 432 -64
2022-11-29 16:47:02 GMT 48.701599 -2.904655 38,000 32 432 -64
2022-11-29 16:47:00 GMT 48.697861 -2.908278 38,000 32 432 0
2022-11-29 16:46:58 GMT 48.696201 -2.909859 38,000 32 432 0
2022-11-29 16:46:57 GMT 48.694290 -2.911729 38,000 32 432 0
2022-11-29 16:46:56 GMT 48.692368 -2.913560 38,000 32 432 0
2022-11-29 16:46:53 GMT 48.686646 -2.919124 38,025 32 432 -64
2022-11-29 16:46:51 GMT 48.681839 -2.923772 38,025 32 433 0
2022-11-29 16:46:48 GMT 48.679211 -2.926339 38,025 32 433 0
2022-11-29 16:46:46 GMT 48.674694 -2.930675 38,025 32 433 0
2022-11-29 16:46:45 GMT 48.671219 -2.934054 38,025 32 433 0
2022-11-29 16:46:42 GMT 48.668793 -2.936378 38,025 32 433 0
2022-11-29 16:46:41 GMT 48.666267 -2.938843 38,025 32 433 0
2022-11-29 16:46:40 GMT 48.664780 -2.940288 38,025 32 433 0
2022-11-29 16:46:37 GMT 48.659939 -2.944986 38,025 32 433 0
2022-11-29 16:46:36 GMT 48.658260 -2.946577 38,025 32 433 0
2022-11-29 16:46:34 GMT 48.654190 -2.950463 38,025 32 433 0
2022-11-29 16:46:33 GMT 48.653278 -2.951347 38,025 32 433 0
2022-11-29 16:46:31 GMT 48.649796 -2.954688 38,025 32 433 -64
2022-11-29 16:46:29 GMT 48.646484 -2.957924 38,025 32 433 -64
2022-11-29 16:46:27 GMT 48.642746 -2.961449 38,025 32 433 0
2022-11-29 16:46:25 GMT 48.639038 -2.965041 38,025 32 434 0
2022-11-29 16:46:24 GMT 48.637161 -2.966802 38,025 32 434 64
2022-11-29 16:46:22 GMT 48.634659 -2.969272 38,025 32 434 0
2022-11-29 16:46:21 GMT 48.632843 -2.971007 38,025 32 435 -128
2022-11-29 16:46:20 GMT 48.629398 -2.974332 38,025 32 435 0
2022-11-29 16:46:18 GMT 48.627914 -2.975746 38,025 32 435 64
2022-11-29 16:46:15 GMT 48.621094 -2.982366 38,025 32 435 64
2022-11-29 16:46:13 GMT 48.619583 -2.983774 38,025 32 435 64
2022-11-29 16:46:12 GMT 48.616104 -2.987154 38,025 32 435 64
2022-11-29 16:46:09 GMT 48.610638 -2.992473 38,025 32 436 128
2022-11-29 16:46:07 GMT 48.608826 -2.994197 38,000 32 436 64
2022-11-29 16:46:06 GMT 48.607040 -2.995958 38,000 32 436 64
2022-11-29 16:46:03 GMT 48.602921 -2.999972 38,000 32 436 64
2022-11-29 16:46:02 GMT 48.601143 -3.001653 38,000 32 436 128
2022-11-29 16:46:01 GMT 48.595779 -3.006873 38,000 32 436 64
2022-11-29 16:45:59 GMT 48.595779 -3.006873 38,000 32 436 64
2022-11-29 16:45:57 GMT 48.591553 -3.010977 38,000 32 437 64
2022-11-29 16:45:55 GMT 48.584335 -3.017988 38,000 32 437 0
2022-11-29 16:45:53 GMT 48.584335 -3.017988 38,000 32 437 0
2022-11-29 16:45:52 GMT 48.582985 -3.019289 38,000 32 437 0
2022-11-29 16:45:50 GMT 48.581177 -3.021029 38,000 32 437 0
2022-11-29 16:45:49 GMT 48.577866 -3.024276 38,000 32 438 0
2022-11-29 16:45:47 GMT 48.576050 -3.026011 38,000 32 438 0
2022-11-29 16:45:45 GMT 48.569717 -3.032154 38,000 32 438 0
2022-11-29 16:45:43 GMT 48.567764 -3.034106 38,000 32 438 0
2022-11-29 16:45:41 GMT 48.563248 -3.038443 38,000 32 438 0
2022-11-29 16:45:40 GMT 48.563248 -3.038443 38,000 32 438 0
2022-11-29 16:45:38 GMT 48.559525 -3.042056 38,000 32 438 0
2022-11-29 16:45:36 GMT 48.553238 -3.048128 38,000 32 438 0
2022-11-29 16:45:33 GMT 48.549049 -3.052103 38,000 32 438 0
2022-11-29 16:45:30 GMT 48.546490 -3.054561 38,000 32 438 0
2022-11-29 16:45:28 GMT 48.541462 -3.059331 38,000 32 438 -64
2022-11-29 16:45:26 GMT 48.539646 -3.061066 38,000 32 438 -64
2022-11-29 16:45:24 GMT 48.535721 -3.064763 38,000 32 438 64
2022-11-29 16:45:23 GMT 48.534061 -3.066414 38,000 32 438 64
2022-11-29 16:45:21 GMT 48.531265 -3.069016 38,000 31 438 0
2022-11-29 16:45:19 GMT 48.526798 -3.073208 38,000 31 438 0
2022-11-29 16:45:17 GMT 48.524826 -3.075045 38,000 31 438 0
2022-11-29 16:45:16 GMT 48.522469 -3.077328 38,000 31 438 0
2022-11-29 16:45:15 GMT 48.520706 -3.078989 38,000 31 438 -64
2022-11-29 16:45:13 GMT 48.516510 -3.082894 38,000 31 438 -64
2022-11-29 16:45:10 GMT 48.511482 -3.087592 38,000 31 438 -64
2022-11-29 16:45:09 GMT 48.509903 -3.089130 38,000 31 438 -64
2022-11-29 16:45:08 GMT 48.504498 -3.094169 38,000 31 438 0
2022-11-29 16:45:06 GMT 48.504498 -3.094169 38,000 31 438 0
2022-11-29 16:45:05 GMT 48.501240 -3.097205 38,000 31 438 0
2022-11-29 16:45:03 GMT 48.499470 -3.098940 38,000 31 438 0
2022-11-29 16:45:02 GMT 48.497864 -3.100398 38,000 32 438 0
2022-11-29 16:45:00 GMT 48.494156 -3.103849 38,000 32 438 0
2022-11-29 16:44:59 GMT 48.492580 -3.105372 38,000 32 438 0
2022-11-29 16:44:58 GMT 48.489414 -3.108336 38,000 32 438 0
2022-11-29 16:44:56 GMT 48.485916 -3.111666 38,000 32 438 64
2022-11-29 16:44:53 GMT 48.482483 -3.114835 38,000 32 438 64
2022-11-29 16:44:51 GMT 48.478848 -3.118310 38,000 32 438 64
2022-11-29 16:44:48 GMT 48.473637 -3.123225 38,000 32 438 64
2022-11-29 16:44:46 GMT 48.466698 -3.129730 38,000 32 439 0
2022-11-29 16:44:44 GMT 48.466698 -3.129730 38,000 32 440 0
2022-11-29 16:44:41 GMT 48.462368 -3.133850 38,000 31 439 0
2022-11-29 16:44:40 GMT 48.460464 -3.135611 38,000 32 440 0
2022-11-29 16:44:39 GMT 48.458817 -3.137160 38,000 31 439 0
2022-11-29 16:44:37 GMT 48.455521 -3.140259 38,000 31 439 0
2022-11-29 16:44:35 GMT 48.447659 -3.147655 38,000 31 439 0
2022-11-29 16:44:33 GMT 48.447659 -3.147655 38,000 31 439 0
2022-11-29 16:44:31 GMT 48.444534 -3.150611 38,000 31 440 0
2022-11-29 16:44:30 GMT 48.442818 -3.152209 38,000 31 440 0
2022-11-29 16:44:28 GMT 48.438396 -3.156329 37,975 31 440 0
2022-11-29 16:44:25 GMT 48.434902 -3.159654 38,000 31 440 0
2022-11-29 16:44:23 GMT 48.432110 -3.162256 38,000 31 440 0
2022-11-29 16:44:21 GMT 48.428574 -3.165508 38,000 31 440 0
2022-11-29 16:44:20 GMT 48.426758 -3.167243 38,000 31 440 0
2022-11-29 16:44:18 GMT 48.423405 -3.170351 38,000 31 440 0
2022-11-29 16:44:17 GMT 48.421555 -3.172091 38,000 31 440 0
2022-11-29 16:44:15 GMT 48.417526 -3.175894 38,000 31 440 0
2022-11-29 16:44:14 GMT 48.416515 -3.176784 38,000 31 440 0
2022-11-29 16:44:11 GMT 48.410019 -3.182936 38,000 31 440 0
2022-11-29 16:44:09 GMT 48.407391 -3.185312 38,000 31 440 0
2022-11-29 16:44:08 GMT 48.405903 -3.186758 38,000 31 440 0
2022-11-29 16:44:06 GMT 48.401138 -3.191247 38,000 31 440 0
2022-11-29 16:44:04 GMT 48.399662 -3.192612 38,000 31 440 0
2022-11-29 16:44:02 GMT 48.394684 -3.197238 38,000 31 440 0
2022-11-29 16:44:00 GMT 48.391388 -3.200331 38,000 31 440 0
2022-11-29 16:43:59 GMT 48.389793 -3.201792 38,000 31 440 0
2022-11-29 16:43:57 GMT 48.384163 -3.207068 38,000 31 440 0
2022-11-29 16:43:55 GMT 48.382462 -3.208642 38,000 31 441 0
2022-11-29 16:43:53 GMT 48.379395 -3.211529 38,000 31 441 0
2022-11-29 16:43:52 GMT 48.375084 -3.215597 38,000 31 441 -64
2022-11-29 16:43:48 GMT 48.370743 -3.219628 38,000 31 441 0
2022-11-29 16:43:47 GMT 48.368847 -3.221379 38,000 31 441 0
2022-11-29 16:43:45 GMT 48.366100 -3.223981 38,000 31 441 0
2022-11-29 16:43:44 GMT 48.364105 -3.225825 38,000 31 441 -64
2022-11-29 16:43:43 GMT 48.362282 -3.227523 38,000 31 441 -64
2022-11-29 16:43:41 GMT 48.358604 -3.230992 38,000 31 442 -64
2022-11-29 16:43:40 GMT 48.357193 -3.232234 38,000 31 442 0
2022-11-29 16:43:39 GMT 48.354786 -3.234534 38,000 31 442 -64
2022-11-29 16:43:36 GMT 48.350319 -3.238726 38,000 31 442 -64
2022-11-29 16:43:34 GMT 48.346313 -3.242485 38,000 31 442 -64
2022-11-29 16:43:31 GMT 48.341537 -3.246953 38,000 31 442 -128
2022-11-29 16:43:29 GMT 48.338821 -3.249423 38,000 31 442 -64
2022-11-29 16:43:28 GMT 48.337143 -3.251038 38,025 31 442 -64
2022-11-29 16:43:27 GMT 48.334442 -3.253543 38,025 31 442 -64
2022-11-29 16:43:26 GMT 48.332626 -3.255206 38,025 31 442 -64
2022-11-29 16:43:24 GMT 48.329224 -3.258362 38,025 31 442 -64
2022-11-29 16:43:23 GMT 48.327553 -3.259904 38,025 31 442 -64
2022-11-29 16:43:21 GMT 48.323502 -3.263714 38,025 31 442 -64
2022-11-29 16:43:19 GMT 48.321037 -3.265975 38,025 31 442 -64
2022-11-29 16:43:18 GMT 48.319336 -3.267588 38,025 31 442 -64
2022-11-29 16:43:16 GMT 48.315536 -3.271109 38,025 31 442 0
2022-11-29 16:43:15 GMT 48.311874 -3.274560 38,025 31 442 -64
2022-11-29 16:43:13 GMT 48.309956 -3.276383 38,025 31 442 -64
2022-11-29 16:43:12 GMT 48.306278 -3.279780 38,025 31 442 -64
2022-11-29 16:43:09 GMT 48.302399 -3.283363 38,025 31 442 -64
2022-11-29 16:43:07 GMT 48.297775 -3.287729 38,050 31 442 0
2022-11-29 16:43:04 GMT 48.294342 -3.290898 38,050 32 443 64
2022-11-29 16:43:01 GMT 48.288918 -3.295971 38,025 32 443 64
2022-11-29 16:43:00 GMT 48.285053 -3.299585 38,025 32 443 64
2022-11-29 16:42:58 GMT 48.283470 -3.301102 38,025 32 443 64
2022-11-29 16:42:57 GMT 48.278301 -3.305945 38,025 32 443 128
2022-11-29 16:42:55 GMT 48.278301 -3.305945 38,025 32 443 128
2022-11-29 16:42:53 GMT 48.274841 -3.309209 38,025 32 444 128
2022-11-29 16:42:52 GMT 48.272919 -3.310969 38,025 32 444 64
2022-11-29 16:42:51 GMT 48.270992 -3.312739 38,000 32 444 0
2022-11-29 16:42:48 GMT 48.266922 -3.316603 38,000 31 444 64
2022-11-29 16:42:47 GMT 48.264175 -3.319139 38,000 31 444 64
2022-11-29 16:42:46 GMT 48.262253 -3.320970 38,000 31 445 64
2022-11-29 16:42:44 GMT 48.258701 -3.324232 38,000 31 445 64
2022-11-29 16:42:43 GMT 48.257675 -3.325195 38,000 31 445 64
2022-11-29 16:42:40 GMT 48.249348 -3.332905 38,000 31 445 64
2022-11-29 16:42:38 GMT 48.246460 -3.335618 38,000 31 445 64
2022-11-29 16:42:34 GMT 48.242294 -3.339492 38,000 31 445 64
2022-11-29 16:42:31 GMT 48.237625 -3.343858 38,000 31 445 0
2022-11-29 16:42:29 GMT 48.234741 -3.346534 38,000 31 445 -64
2022-11-29 16:42:28 GMT 48.232819 -3.348295 38,000 31 445 0
2022-11-29 16:42:26 GMT 48.229607 -3.351264 38,000 31 445 0
2022-11-29 16:42:25 GMT 48.227234 -3.353506 38,000 31 445 0
2022-11-29 16:42:24 GMT 48.223984 -3.356464 38,000 31 445 0
2022-11-29 16:42:21 GMT 48.218853 -3.361238 38,000 31 445 0
2022-11-29 16:42:20 GMT 48.213734 -3.366009 38,000 31 445 0
2022-11-29 16:42:18 GMT 48.208660 -3.370707 38,000 31 445 0
2022-11-29 16:42:15 GMT 48.208660 -3.370707 38,000 31 445 0
2022-11-29 16:42:13 GMT 48.204758 -3.374352 38,000 31 445 0
2022-11-29 16:42:11 GMT 48.202148 -3.376747 38,000 31 446 0
2022-11-29 16:42:10 GMT 48.201141 -3.377732 38,000 31 446 0
2022-11-29 16:42:09 GMT 48.197617 -3.380972 38,000 31 446 0
2022-11-29 16:42:07 GMT 48.195374 -3.383085 38,000 31 446 -64
2022-11-29 16:42:05 GMT 48.187664 -3.390150 38,000 31 446 -64
2022-11-29 16:42:03 GMT 48.187664 -3.390150 38,025 31 446 -64
2022-11-29 16:42:02 GMT 48.182419 -3.394987 38,025 31 446 -64
2022-11-29 16:42:00 GMT 48.182419 -3.394987 38,025 32 447 0
2022-11-29 16:41:58 GMT 48.178711 -3.398508 38,025 32 447 0
2022-11-29 16:41:56 GMT 48.172722 -3.404244 38,025 32 447 0
2022-11-29 16:41:54 GMT 48.172722 -3.404244 38,025 33 449 64
2022-11-29 16:41:53 GMT 48.171043 -3.405906 38,025 34 451 0
2022-11-29 16:41:51 GMT 48.166718 -3.410128 38,025 34 451 0
2022-11-29 16:41:50 GMT 48.164902 -3.411978 38,025 34 451 0
2022-11-29 16:41:49 GMT 48.160675 -3.416255 38,000 34 451 64
2022-11-29 16:41:47 GMT 48.160675 -3.416255 38,000 35 453 0
2022-11-29 16:41:44 GMT 48.156151 -3.420903 38,000 35 451 0
2022-11-29 16:41:41 GMT 48.148560 -3.429002 38,025 37 455 -64
2022-11-29 16:41:37 GMT 48.142639 -3.435493 38,025 36 454 0
2022-11-29 16:41:34 GMT 48.132874 -3.446467 38,000 37 455 0
2022-11-29 16:41:31 GMT 48.132874 -3.446467 38,000 37 455 0
2022-11-29 16:41:27 GMT 48.125748 -3.454514 38,000 37 455 0
2022-11-29 16:41:23 GMT 48.114716 -3.466961 38,000 37 455 0
2022-11-29 16:41:20 GMT 48.114716 -3.466961 38,025 37 455 -64
2022-11-29 16:41:17 GMT 48.108765 -3.473671 38,025 37 455 -64
2022-11-29 16:41:13 GMT 48.102631 -3.480606 38,025 37 455 0
2022-11-29 16:41:10 GMT 48.098377 -3.485413 38,000 37 456 0
2022-11-29 16:41:07 GMT 48.091953 -3.492666 38,000 37 456 0
2022-11-29 16:41:04 GMT 48.088669 -3.496399 38,000 36 455 0
2022-11-29 16:41:00 GMT 48.080887 -3.505188 38,000 37 456 0
2022-11-29 16:40:57 GMT 48.075623 -3.511024 38,000 37 456 0
2022-11-29 16:40:55 GMT 48.070541 -3.516792 38,000 37 456 0
2022-11-29 16:40:50 GMT 48.062298 -3.526118 38,000 37 456 0
2022-11-29 16:40:47 GMT 48.059875 -3.528809 38,000 37 456 0
2022-11-29 16:40:44 GMT 48.052368 -3.537254 38,000 37 456 0
2022-11-29 16:40:40 GMT 48.048065 -3.542130 38,000 37 456 0
2022-11-29 16:40:37 GMT 48.042618 -3.548309 38,000 37 456 0
2022-11-29 16:40:33 GMT 48.036163 -3.555519 38,000 37 456 64
2022-11-29 16:40:29 GMT 48.028919 -3.563655 38,000 36 455 64
2022-11-29 16:40:26 GMT 48.018997 -3.574883 38,000 36 455 128
2022-11-29 16:40:23 GMT 48.018997 -3.574883 37,975 37 456 64
2022-11-29 16:40:21 GMT 48.016342 -3.577835 37,975 37 456 64
2022-11-29 16:40:17 GMT 48.009045 -3.586050 37,975 37 456 -64
2022-11-29 16:40:14 GMT 48.004250 -3.591473 37,975 37 456 -64
2022-11-29 16:40:12 GMT 47.999313 -3.597061 37,975 36 455 0
2022-11-29 16:40:07 GMT 47.991680 -3.605628 37,975 36 455 0
2022-11-29 16:40:04 GMT 47.983292 -3.615051 37,975 36 455 0
2022-11-29 16:39:59 GMT 47.977203 -3.621849 37,975 36 455 0
2022-11-29 16:39:56 GMT 47.969475 -3.630488 37,975 36 455 0
2022-11-29 16:39:53 GMT 47.969475 -3.630488 37,975 36 455 0
2022-11-29 16:39:51 GMT 47.965054 -3.635489 37,975 37 454 0
2022-11-29 16:39:48 GMT 47.959885 -3.641193 37,975 36 454 0
2022-11-29 16:39:44 GMT 47.952576 -3.649452 37,975 37 454 0
2022-11-29 16:39:41 GMT 47.947998 -3.654533 37,975 37 454 0
2022-11-29 16:39:38 GMT 47.943787 -3.659271 37,975 37 454 0
2022-11-29 16:39:34 GMT 47.936653 -3.667250 38,000 36 455 -64
2022-11-29 16:39:31 GMT 47.929504 -3.675270 37,975 36 455 -64
2022-11-29 16:39:27 GMT 47.926041 -3.679152 37,975 36 455 -64
2022-11-29 16:39:24 GMT 47.918964 -3.687040 38,000 36 455 0
2022-11-29 16:39:21 GMT 47.915520 -3.690984 38,000 36 455 0
2022-11-29 16:39:18 GMT 47.909561 -3.697604 38,000 36 455 0
2022-11-29 16:39:14 GMT 47.903091 -3.704857 38,000 36 455 0
2022-11-29 16:39:11 GMT 47.898056 -3.710495 38,000 36 455 0
2022-11-29 16:39:08 GMT 47.891510 -3.717773 38,000 36 455 0
2022-11-29 16:39:04 GMT 47.886978 -3.722855 38,000 36 455 0
2022-11-29 16:39:01 GMT 47.879814 -3.730844 38,000 36 455 0
2022-11-29 16:38:58 GMT 47.876541 -3.734459 38,000 36 455 0
2022-11-29 16:38:55 GMT 47.871964 -3.739609 38,000 36 455 0
2022-11-29 16:38:52 GMT 47.865829 -3.746407 38,000 36 455 0
2022-11-29 16:38:49 GMT 47.860634 -3.752254 38,000 36 456 0
2022-11-29 16:38:46 GMT 47.853886 -3.759719 38,000 36 456 0
2022-11-29 16:38:43 GMT 47.851959 -3.761856 38,000 36 456 0
2022-11-29 16:38:41 GMT 47.847366 -3.766972 38,000 36 456 0
2022-11-29 16:38:38 GMT 47.842346 -3.772568 38,000 36 456 0
2022-11-29 16:38:33 GMT 47.831539 -3.784579 38,000 36 456 0
2022-11-29 16:38:31 GMT 47.831539 -3.784579 38,000 36 456 0
2022-11-29 16:38:28 GMT 47.825546 -3.791313 38,000 36 457 0
2022-11-29 16:38:25 GMT 47.821014 -3.796326 38,000 36 457 0
2022-11-29 16:38:22 GMT 47.816711 -3.801132 38,000 36 457 0
2022-11-29 16:38:20 GMT 47.811756 -3.806692 38,000 36 457 0
2022-11-29 16:38:15 GMT 47.803802 -3.815620 38,000 36 457 0
2022-11-29 16:38:12 GMT 47.799133 -3.820770 38,000 36 457 0
2022-11-29 16:38:09 GMT 47.794235 -3.826195 38,000 36 458 0
2022-11-29 16:38:06 GMT 47.789017 -3.832100 38,000 36 458 0
2022-11-29 16:38:03 GMT 47.783775 -3.837891 38,000 36 458 0
2022-11-29 16:37:59 GMT 47.771255 -3.851764 38,000 36 458 0
2022-11-29 16:37:56 GMT 47.771255 -3.851764 38,000 36 458 -64
2022-11-29 16:37:53 GMT 47.764645 -3.859089 38,000 36 458 -64
2022-11-29 16:37:50 GMT 47.762131 -3.861906 38,000 36 458 -64
2022-11-29 16:37:47 GMT 47.757149 -3.867469 38,000 36 458 -64
2022-11-29 16:37:43 GMT 47.749512 -3.875908 38,000 36 458 0
2022-11-29 16:37:39 GMT 47.735916 -3.891014 38,000 36 458 0
2022-11-29 16:37:35 GMT 47.735916 -3.891014 38,000 36 458 0
2022-11-29 16:37:32 GMT 47.730942 -3.896555 38,000 36 459 0
2022-11-29 16:37:30 GMT 47.727081 -3.900764 38,000 36 459 -64
2022-11-29 16:37:26 GMT 47.719437 -3.909279 38,000 36 459 0
2022-11-29 16:37:20 GMT 47.710598 -3.919091 38,000 36 459 0
2022-11-29 16:37:15 GMT 47.702217 -3.928317 38,000 36 459 0
2022-11-29 16:37:12 GMT 47.695606 -3.935641 38,000 36 460 0
2022-11-29 16:37:09 GMT 47.692841 -3.938736 38,000 36 460 -64
2022-11-29 16:37:04 GMT 47.684097 -3.948418 38,025 36 460 0
2022-11-29 16:37:01 GMT 47.678696 -3.954391 38,025 36 460 0
2022-11-29 16:36:59 GMT 47.675171 -3.958318 38,025 36 460 0
2022-11-29 16:36:55 GMT 47.667755 -3.966545 38,025 36 460 0
2022-11-29 16:36:52 GMT 47.663345 -3.971346 38,025 36 460 0
2022-11-29 16:36:50 GMT 47.659996 -3.975079 38,025 36 460 0
2022-11-29 16:36:47 GMT 47.655014 -3.980642 38,025 36 460 0
2022-11-29 16:36:45 GMT 47.651138 -3.984879 38,025 36 461 0
2022-11-29 16:36:42 GMT 47.646469 -3.990097 38,025 36 461 0
2022-11-29 16:36:39 GMT 47.632065 -4.005996 38,025 36 461 -64
2022-11-29 16:36:35 GMT 47.632065 -4.005996 38,025 36 462 -64
2022-11-29 16:36:32 GMT 47.629364 -4.008953 38,025 36 462 0
2022-11-29 16:36:28 GMT 47.621567 -4.017563 38,025 36 462 0
2022-11-29 16:36:25 GMT 47.617950 -4.021614 38,025 36 462 0
2022-11-29 16:36:22 GMT 47.612186 -4.028039 38,025 36 462 64
2022-11-29 16:36:20 GMT 47.607948 -4.032616 38,025 36 463 64
2022-11-29 16:36:17 GMT 47.602936 -4.038162 38,025 36 463 64
2022-11-29 16:36:14 GMT 47.597672 -4.043999 38,000 36 463 64
2022-11-29 16:36:09 GMT 47.589478 -4.052994 38,000 36 462 0
2022-11-29 16:36:06 GMT 47.583618 -4.059517 38,000 36 462 0
2022-11-29 16:36:03 GMT 47.578171 -4.065491 38,000 36 462 0
2022-11-29 16:35:59 GMT 47.572266 -4.072014 38,025 36 463 -64
2022-11-29 16:35:55 GMT 47.566269 -4.078537 38,025 36 462 0
2022-11-29 16:35:51 GMT 47.558853 -4.086708 38,025 36 462 0
2022-11-29 16:35:49 GMT 47.554916 -4.091034 38,025 36 462 64
2022-11-29 16:35:45 GMT 47.548176 -4.098464 38,000 36 462 64
2022-11-29 16:35:42 GMT 47.542786 -4.104355 38,000 36 463 64
2022-11-29 16:35:39 GMT 47.538071 -4.109573 38,000 36 463 64
2022-11-29 16:35:36 GMT 47.533356 -4.114723 38,000 36 463 0
2022-11-29 16:35:33 GMT 47.519360 -4.130085 38,000 36 463 0
2022-11-29 16:35:29 GMT 47.519360 -4.130085 38,000 36 463 0
2022-11-29 16:35:24 GMT 47.512379 -4.137691 38,000 36 463 0
2022-11-29 16:35:21 GMT 47.506485 -4.144180 38,000 36 463 0
2022-11-29 16:35:19 GMT 47.504089 -4.146775 38,000 36 463 0
2022-11-29 16:35:16 GMT 47.496922 -4.154663 38,000 36 463 0
2022-11-29 16:35:12 GMT 47.491379 -4.160728 38,000 36 463 0
2022-11-29 16:35:08 GMT 47.485519 -4.167183 38,000 36 463 0
2022-11-29 16:35:05 GMT 47.477463 -4.176002 38,000 36 463 0
2022-11-29 16:35:02 GMT 47.473618 -4.180229 38,000 36 463 0
2022-11-29 16:34:57 GMT 47.465515 -4.189087 38,000 36 463 0
2022-11-29 16:34:54 GMT 47.458832 -4.196365 38,000 36 463 0
2022-11-29 16:34:51 GMT 47.455582 -4.199936 38,000 36 463 64
2022-11-29 16:34:48 GMT 47.449310 -4.206802 38,000 36 463 64
2022-11-29 16:34:44 GMT 47.442642 -4.214102 38,000 36 463 0
2022-11-29 16:34:40 GMT 47.438049 -4.219093 38,000 36 463 0
2022-11-29 16:34:36 GMT 47.430817 -4.227060 38,000 36 463 64
2022-11-29 16:34:33 GMT 47.424347 -4.234103 37,975 36 463 0
2022-11-29 16:34:30 GMT 47.420792 -4.237976 37,975 36 463 0
2022-11-29 16:34:27 GMT 47.413967 -4.245441 37,975 36 464 -64
2022-11-29 16:34:24 GMT 47.408890 -4.250954 37,975 36 464 -64
2022-11-29 16:34:21 GMT 47.404633 -4.255623 37,975 36 464 0
2022-11-29 16:34:17 GMT 47.394745 -4.266403 38,000 36 464 -64
2022-11-29 16:34:11 GMT 47.387478 -4.274315 38,000 36 464 -64
2022-11-29 16:34:08 GMT 47.377003 -4.285724 38,000 36 463 0
2022-11-29 16:34:05 GMT 47.369339 -4.294075 38,000 36 463 0
2022-11-29 16:34:00 GMT 47.369339 -4.294075 38,000 36 463 0
2022-11-29 16:33:58 GMT 47.364201 -4.299739 38,000 36 463 0
2022-11-29 16:33:55 GMT 47.360104 -4.304176 38,000 36 463 0
2022-11-29 16:33:50 GMT 47.350983 -4.314176 38,000 36 463 64
2022-11-29 16:33:48 GMT 47.346977 -4.318472 38,000 36 463 0
2022-11-29 16:33:45 GMT 47.342194 -4.323738 38,000 36 463 0
2022-11-29 16:33:40 GMT 47.325283 -4.342135 38,000 36 464 0
2022-11-29 16:33:35 GMT 47.325283 -4.342135 38,000 36 464 0
2022-11-29 16:33:30 GMT 47.317417 -4.350727 38,000 36 463 0
2022-11-29 16:33:27 GMT 47.312016 -4.356572 38,000 36 463 0
2022-11-29 16:33:24 GMT 47.306709 -4.362347 38,000 36 464 0
2022-11-29 16:33:19 GMT 47.297745 -4.372078 38,000 36 464 -64
2022-11-29 16:33:17 GMT 47.294632 -4.375443 38,000 36 463 -64
2022-11-29 16:33:12 GMT 47.278564 -4.392815 38,000 36 463 0
2022-11-29 16:33:08 GMT 47.278564 -4.392815 38,000 36 464 0
2022-11-29 16:33:05 GMT 47.271652 -4.400368 38,000 36 464 0
2022-11-29 16:33:00 GMT 47.264465 -4.408127 38,000 36 464 0
2022-11-29 16:32:57 GMT 47.259293 -4.413757 38,000 36 464 -64
2022-11-29 16:32:54 GMT 47.254349 -4.419113 38,000 36 464 0
2022-11-29 16:32:51 GMT 47.248352 -4.425636 38,000 36 464 0
2022-11-29 16:32:47 GMT 47.241577 -4.432983 38,000 36 464 0
2022-11-29 16:32:41 GMT 47.231064 -4.444392 38,000 36 464 0
2022-11-29 16:32:35 GMT 47.213234 -4.463689 38,000 36 465 0
2022-11-29 16:32:31 GMT 47.213234 -4.463689 38,000 36 465 64
2022-11-29 16:32:25 GMT 47.198475 -4.479605 38,000 36 465 0
2022-11-29 16:32:19 GMT 47.195023 -4.483383 38,000 36 465 0
2022-11-29 16:32:17 GMT 47.189713 -4.489082 38,000 36 465 0
2022-11-29 16:32:14 GMT 47.185581 -4.493549 38,000 36 465 -64
2022-11-29 16:32:11 GMT 47.179111 -4.500521 38,000 36 465 0
2022-11-29 16:32:06 GMT 47.172081 -4.508197 38,000 36 465 -64
2022-11-29 16:32:02 GMT 47.165005 -4.515803 38,000 36 465 0
2022-11-29 16:31:58 GMT 47.158264 -4.523071 38,025 36 465 0
2022-11-29 16:31:56 GMT 47.154671 -4.526931 38,000 36 465 0
2022-11-29 16:31:53 GMT 47.147461 -4.534744 38,000 36 465 0
2022-11-29 16:31:49 GMT 47.141914 -4.540734 38,000 36 465 0
2022-11-29 16:31:46 GMT 47.136978 -4.546016 38,000 36 466 0
2022-11-29 16:31:42 GMT 47.129471 -4.554108 38,000 36 466 -64
2022-11-29 16:31:38 GMT 47.122086 -4.562073 38,000 36 466 -64
2022-11-29 16:31:35 GMT 47.111664 -4.573265 38,025 36 466 -64
2022-11-29 16:31:32 GMT 47.111664 -4.573265 38,025 36 466 0
2022-11-29 16:31:29 GMT 47.101414 -4.584327 38,025 36 466 0
2022-11-29 16:31:26 GMT 47.101414 -4.584327 38,025 36 466 64
2022-11-29 16:31:23 GMT 47.096100 -4.590019 38,025 36 466 64
2022-11-29 16:31:20 GMT 47.090614 -4.595947 38,000 36 466 0
2022-11-29 16:31:16 GMT 47.084984 -4.602004 38,000 36 466 0
2022-11-29 16:31:11 GMT 47.076790 -4.610807 38,000 36 466 0
2022-11-29 16:31:09 GMT 47.065895 -4.622498 38,000 36 466 0
2022-11-29 16:31:05 GMT 47.058929 -4.629982 38,000 36 466 0
2022-11-29 16:31:01 GMT 47.058929 -4.629982 38,000 36 466 0
2022-11-29 16:30:58 GMT 47.053391 -4.635956 38,000 36 467 0
2022-11-29 16:30:56 GMT 47.050022 -4.639611 38,000 36 467 0
2022-11-29 16:30:53 GMT 47.044621 -4.645386 38,000 36 467 0
2022-11-29 16:30:50 GMT 47.039780 -4.650527 38,000 36 467 64
2022-11-29 16:30:47 GMT 47.032928 -4.657928 38,000 36 467 64
2022-11-29 16:30:44 GMT 47.029358 -4.661705 38,000 36 467 64
2022-11-29 16:30:41 GMT 47.023254 -4.668274 38,000 36 467 0
2022-11-29 16:30:38 GMT 47.018646 -4.673204 38,000 36 467 0
2022-11-29 16:30:33 GMT 47.010452 -4.682007 38,000 36 467 0
2022-11-29 16:30:30 GMT 47.005188 -4.687660 38,000 36 467 0
2022-11-29 16:30:27 GMT 47.000118 -4.693134 38,000 36 467 -64
2022-11-29 16:30:23 GMT 46.990448 -4.703522 38,000 36 466 0
2022-11-29 16:30:18 GMT 46.983124 -4.711349 38,000 36 466 0
2022-11-29 16:30:10 GMT 46.969803 -4.725563 38,000 36 466 0
2022-11-29 16:30:06 GMT 46.962177 -4.733769 38,000 36 466 0
2022-11-29 16:30:01 GMT 46.953369 -4.743141 38,000 36 466 0
2022-11-29 16:29:58 GMT 46.948563 -4.748291 38,000 36 465 0
2022-11-29 16:29:55 GMT 46.944206 -4.752925 38,000 36 465 64
2022-11-29 16:29:47 GMT 46.929932 -4.768204 38,000 36 465 0
2022-11-29 16:29:44 GMT 46.925495 -4.772926 38,000 36 465 0
2022-11-29 16:29:39 GMT 46.916199 -4.782829 38,000 36 465 0
2022-11-29 16:29:35 GMT 46.909153 -4.790321 38,000 36 465 0
2022-11-29 16:29:28 GMT 46.897099 -4.803209 38,000 36 465 -64
2022-11-29 16:29:21 GMT 46.884567 -4.816544 38,000 36 466 0
2022-11-29 16:29:16 GMT 46.870094 -4.832012 38,000 36 466 0
2022-11-29 16:29:13 GMT 46.870094 -4.832012 38,000 35 466 -64
2022-11-29 16:29:06 GMT 46.858177 -4.844696 38,000 36 466 0
2022-11-29 16:29:03 GMT 46.852661 -4.850531 38,000 36 467 0
2022-11-29 16:28:54 GMT 46.837372 -4.866876 38,000 36 468 -64
2022-11-29 16:28:47 GMT 46.825150 -4.879872 38,000 36 468 0
2022-11-29 16:28:44 GMT 46.819962 -4.885414 38,000 36 468 0
2022-11-29 16:28:34 GMT 46.800453 -4.906082 38,000 36 467 64
2022-11-29 16:28:26 GMT 46.788536 -4.918716 38,000 35 466 0
2022-11-29 16:28:23 GMT 46.783722 -4.923818 38,000 35 466 -64
2022-11-29 16:28:16 GMT 46.770401 -4.937886 38,000 35 465 -128
2022-11-29 16:28:13 GMT 46.766659 -4.941856 38,025 35 464 -128
2022-11-29 16:28:01 GMT 46.735001 -4.975296 38,025 35 461 -64
2022-11-29 16:27:52 GMT 46.719910 -4.991276 38,025 36 462 0
2022-11-29 16:27:42 GMT 46.712585 -4.998980 38,025 36 462 0
2022-11-29 16:27:32 GMT 46.695374 -5.017201 38,025 36 462 64
2022-11-29 16:27:25 GMT 46.683144 -5.030159 38,000 35 461 64
2022-11-29 16:27:22 GMT 46.678024 -5.035557 38,000 35 461 64
2022-11-29 16:27:15 GMT 46.665115 -5.049156 38,000 35 462 0
2022-11-29 16:27:10 GMT 46.657928 -5.056658 38,000 35 461 0
2022-11-29 16:26:56 GMT 46.633759 -5.082115 38,000 35 461 0
2022-11-29 16:26:51 GMT 46.624950 -5.091339 38,000 35 461 0
2022-11-29 16:26:36 GMT 46.599209 -5.118462 38,000 35 461 64
2022-11-29 16:26:30 GMT 46.588760 -5.129476 37,975 35 461 64
2022-11-29 16:26:13 GMT 46.559872 -5.159866 37,975 35 459 0
2022-11-29 16:26:05 GMT 46.544678 -5.175833 38,000 35 459 0
2022-11-29 16:24:43 GMT 46.403362 -5.323631 38,000 35 461 0
2022-11-29 16:24:34 GMT 46.387939 -5.339757 38,000 35 461 0
2022-11-29 16:24:13 GMT 46.351959 -5.377138 38,025 35 461 0
2022-11-29 16:23:59 GMT 46.327621 -5.402458 38,000 35 461 0
2022-11-29 16:23:36 GMT 46.288101 -5.443458 38,000 35 462 -64
2022-11-29 16:23:33 GMT 46.282654 -5.449085 38,025 35 462 0
2022-11-29 16:23:15 GMT 46.252670 -5.480168 38,025 35 462 0
2022-11-29 16:23:11 GMT 46.245438 -5.487671 38,025 35 462 -64
2022-11-29 16:23:01 GMT 46.227303 -5.506485 38,025 35 462 0
2022-11-29 16:22:50 GMT 46.208263 -5.526192 38,025 35 463 0
2022-11-29 16:22:38 GMT 46.187965 -5.547134 38,025 35 463 64
2022-11-29 16:22:29 GMT 46.172092 -5.563477 38,025 35 463 0
2022-11-29 16:22:18 GMT 46.152603 -5.583533 38,025 35 463 64
2022-11-29 16:22:03 GMT 46.126740 -5.610128 38,025 35 463 0
2022-11-29 16:21:11 GMT 46.035740 -5.703621 38,000 35 463 0
2022-11-29 16:21:04 GMT 46.023697 -5.715972 37,975 35 463 64
2022-11-29 16:20:29 GMT 45.962311 -5.778742 37,975 35 461 0
2022-11-29 16:20:23 GMT 45.951855 -5.789383 37,975 35 461 0
2022-11-29 16:20:11 GMT 45.931091 -5.810532 38,000 35 462 -64
2022-11-29 16:20:02 GMT 45.916008 -5.825844 38,000 35 461 -64
2022-11-29 16:19:52 GMT 45.898643 -5.843559 38,000 35 461 0
2022-11-29 16:19:25 GMT 45.851021 -5.891899 38,000 35 462 0
2022-11-29 16:19:13 GMT 45.830887 -5.912319 38,000 35 462 0
2022-11-29 16:19:07 GMT 45.820389 -5.923004 38,000 35 462 0
2022-11-29 16:18:40 GMT 45.772766 -5.971138 38,000 35 463 0
2022-11-29 16:18:09 GMT 45.718597 -6.025867 38,000 35 463 0
2022-11-29 16:18:08 GMT 45.716858 -6.027609 38,000 35 463 64
2022-11-29 16:15:41 GMT 45.459003 -6.286256 38,000 35 466 -64
2022-11-29 16:15:31 GMT 45.440662 -6.304545 38,000 35 467 0
2022-11-29 16:15:21 GMT 45.423065 -6.322109 38,025 35 468 0
2022-11-29 16:11:39 GMT 45.026505 -6.713366 38,000 34 473 0
2022-11-29 16:11:30 GMT 45.011810 -6.727753 38,000 34 473 0
2022-11-29 16:11:20 GMT 44.991760 -6.747347 38,000 34 473 0
2022-11-29 16:10:30 GMT 44.902287 -6.834501 38,000 32 474 0
2022-11-29 16:06:41 GMT 44.484154 -7.229607 38,000 32 474 0
2022-11-29 16:06:07 GMT 44.422897 -7.283282 38,000 32 475 -64
2022-11-29 16:06:06 GMT 44.420151 -7.285701 38,025 32 475 -64
2022-11-29 16:05:20 GMT 44.334641 -7.360251 38,000 31 477 0
2022-11-29 16:05:10 GMT 44.316467 -7.376077 38,000 32 478 0
2022-11-29 16:04:51 GMT 44.279526 -7.408186 38,000 31 477 0
2022-11-29 16:04:45 GMT 44.268311 -7.417995 38,000 32 478 0
2022-11-29 16:04:31 GMT 44.244549 -7.438682 38,000 32 478 0
2022-11-29 16:04:22 GMT 44.226471 -7.454420 38,000 32 478 0
2022-11-29 16:04:13 GMT 44.209496 -7.469095 38,000 31 479 0
2022-11-29 16:03:55 GMT 44.176392 -7.497722 38,000 31 479 0
2022-11-29 16:03:52 GMT 44.169662 -7.503534 38,000 31 479 0
2022-11-29 16:03:41 GMT 44.149017 -7.521419 38,000 31 479 0
2022-11-29 16:03:33 GMT 44.131348 -7.536685 38,000 31 479 0
2022-11-29 16:02:50 GMT 44.052849 -7.604436 38,000 31 480 64
2022-11-29 16:02:43 GMT 44.039303 -7.616076 38,000 31 480 64
2022-11-29 16:02:32 GMT 44.018600 -7.633901 37,975 31 480 0
2022-11-29 16:02:29 GMT 44.011826 -7.639714 37,975 31 480 0
2022-11-29 16:02:22 GMT 44.000610 -7.649359 38,000 31 480 0
2022-11-29 16:01:58 GMT 43.954857 -7.688664 38,000 31 480 0
2022-11-29 16:01:48 GMT 43.936752 -7.704226 38,000 31 480 0
2022-11-29 16:01:39 GMT 43.920452 -7.718222 38,000 31 480 0
2022-11-29 16:01:31 GMT 43.901646 -7.734244 38,000 31 480 0
2022-11-29 16:01:27 GMT 43.885166 -7.748369 38,000 31 480 0
2022-11-29 16:01:21 GMT 43.885166 -7.748369 38,000 31 480 0
2022-11-29 16:01:17 GMT 43.877014 -7.755326 38,000 31 480 0
2022-11-29 16:01:13 GMT 43.869553 -7.761713 38,000 31 480 -64
2022-11-29 16:01:10 GMT 43.864426 -7.766057 38,025 31 480 -64
2022-11-29 16:01:04 GMT 43.853603 -7.775312 38,025 31 480 0
2022-11-29 16:01:01 GMT 43.847134 -7.780805 38,025 31 480 0
2022-11-29 16:00:57 GMT 43.840530 -7.786496 38,025 31 480 0
2022-11-29 16:00:48 GMT 43.821110 -7.803105 38,025 31 480 0
2022-11-29 16:00:45 GMT 43.817528 -7.806179 38,025 31 480 0
2022-11-29 16:00:36 GMT 43.799973 -7.821116 38,000 31 481 0
2022-11-29 16:00:26 GMT 43.781158 -7.837148 38,000 31 481 0
2022-11-29 16:00:20 GMT 43.767902 -7.848489 38,000 31 481 0
2022-11-29 16:00:17 GMT 43.764084 -7.851712 38,000 31 481 0
2022-11-29 16:00:10 GMT 43.750854 -7.862953 38,000 31 481 0
2022-11-29 16:00:06 GMT 43.744160 -7.868631 38,000 31 481 0
2022-11-29 16:00:00 GMT 43.731720 -7.879241 38,000 31 481 0
2022-11-29 15:59:56 GMT 43.725174 -7.884798 38,000 31 481 0
2022-11-29 15:59:53 GMT 43.718464 -7.890472 38,000 31 481 0
2022-11-29 15:59:47 GMT 43.705811 -7.901214 38,000 31 481 0
2022-11-29 15:59:43 GMT 43.699722 -7.906388 38,000 31 481 0
2022-11-29 15:59:39 GMT 43.689148 -7.915394 38,000 31 481 0
2022-11-29 15:59:34 GMT 43.684387 -7.919418 38,000 31 481 0
2022-11-29 15:59:25 GMT 43.666672 -7.934492 38,000 31 481 0
2022-11-29 15:59:16 GMT 43.648453 -7.950014 38,000 31 481 0
2022-11-29 15:59:09 GMT 43.635040 -7.961383 38,000 31 482 0
2022-11-29 15:59:06 GMT 43.629223 -7.966265 38,000 31 482 0
2022-11-29 15:59:03 GMT 43.624512 -7.970326 38,000 31 482 -64
2022-11-29 15:58:58 GMT 43.614120 -7.979076 38,000 31 482 -64
2022-11-29 15:58:55 GMT 43.609486 -7.983006 38,000 31 482 0
2022-11-29 15:58:48 GMT 43.594822 -7.995431 38,000 31 482 0
2022-11-29 15:58:45 GMT 43.587185 -8.001905 38,000 31 482 0
2022-11-29 15:58:39 GMT 43.577595 -8.010014 38,000 31 482 0
2022-11-29 15:58:35 GMT 43.570988 -8.015573 38,000 31 482 0
2022-11-29 15:58:27 GMT 43.549061 -8.034079 38,000 31 481 0
2022-11-29 15:58:23 GMT 43.549061 -8.034079 38,000 31 481 0
2022-11-29 15:58:15 GMT 43.533142 -8.047549 38,000 31 481 0
2022-11-29 15:58:10 GMT 43.524387 -8.054940 38,000 31 481 0
2022-11-29 15:58:07 GMT 43.516800 -8.061349 38,000 31 481 0
2022-11-29 15:58:04 GMT 43.513168 -8.064357 38,000 31 481 0
2022-11-29 15:58:01 GMT 43.507534 -8.069131 38,000 31 480 0
2022-11-29 15:57:55 GMT 43.485306 -8.087854 38,000 31 480 0
2022-11-29 15:57:50 GMT 43.485306 -8.087854 38,000 31 480 0
2022-11-29 15:57:46 GMT 43.477844 -8.094113 38,000 31 480 0
2022-11-29 15:57:42 GMT 43.470245 -8.100521 38,000 31 480 0
2022-11-29 15:57:38 GMT 43.462372 -8.107144 38,000 31 480 0
2022-11-29 15:57:35 GMT 43.447174 -8.119918 38,000 31 481 0
2022-11-29 15:57:30 GMT 43.447174 -8.119918 38,000 31 481 0
2022-11-29 15:57:27 GMT 43.442642 -8.123736 38,000 31 481 0
2022-11-29 15:57:21 GMT 43.430584 -8.133872 38,000 31 482 64
2022-11-29 15:57:17 GMT 43.423004 -8.140294 38,000 31 482 128
2022-11-29 15:57:14 GMT 43.417511 -8.144893 38,000 31 482 128
2022-11-29 15:57:07 GMT 43.404510 -8.155816 37,975 31 482 320
2022-11-29 15:57:04 GMT 43.398148 -8.161181 37,950 31 482 448
2022-11-29 15:57:01 GMT 43.392925 -8.165523 37,925 31 482 576
2022-11-29 15:56:57 GMT 43.384357 -8.172716 37,875 31 482 640
2022-11-29 15:56:54 GMT 43.378723 -8.177490 37,850 31 482 704
2022-11-29 15:56:47 GMT 43.365551 -8.188542 37,775 31 482 704
2022-11-29 15:56:41 GMT 43.354332 -8.197959 37,700 31 482 768
2022-11-29 15:56:37 GMT 43.346741 -8.204296 37,625 31 482 832
2022-11-29 15:56:34 GMT 43.339920 -8.210045 37,600 31 482 832
2022-11-29 15:56:27 GMT 43.326920 -8.220903 37,500 31 483 896
2022-11-29 15:56:21 GMT 43.314903 -8.230983 37,400 31 483 832
2022-11-29 15:56:16 GMT 43.306850 -8.237719 37,350 31 483 704
2022-11-29 15:56:13 GMT 43.301010 -8.242557 37,325 31 483 640
2022-11-29 15:56:09 GMT 43.294006 -8.248433 37,275 31 483 640
2022-11-29 15:56:06 GMT 43.287048 -8.254245 37,225 31 483 640
2022-11-29 15:56:03 GMT 43.281464 -8.258908 37,200 31 483 640
2022-11-29 15:55:56 GMT 43.268814 -8.269435 37,075 31 483 896
2022-11-29 15:55:53 GMT 43.262344 -8.274863 37,075 31 483 896
2022-11-29 15:55:48 GMT 43.254593 -8.281328 37,025 31 483 896
2022-11-29 15:55:45 GMT 43.248520 -8.286438 36,950 31 483 896
2022-11-29 15:55:42 GMT 43.242691 -8.291229 36,925 31 483 832
2022-11-29 15:55:37 GMT 43.231201 -8.300874 36,825 31 483 832
2022-11-29 15:55:33 GMT 43.223648 -8.307133 36,775 31 484 832
2022-11-29 15:55:26 GMT 43.209457 -8.318950 36,675 31 484 896
2022-11-29 15:55:22 GMT 43.204014 -8.323451 36,625 31 484 896
2022-11-29 15:55:19 GMT 43.197777 -8.328683 36,575 31 484 896
2022-11-29 15:55:15 GMT 43.190281 -8.334896 36,525 31 484 832
2022-11-29 15:55:11 GMT 43.183392 -8.340650 36,475 31 484 832
2022-11-29 15:55:08 GMT 43.177826 -8.345266 36,425 31 484 832
2022-11-29 15:55:05 GMT 43.171097 -8.350887 36,375 31 484 896
2022-11-29 15:55:02 GMT 43.165329 -8.355691 36,350 31 484 896
2022-11-29 15:54:58 GMT 43.156624 -8.362885 36,275 31 484 896
2022-11-29 15:54:55 GMT 43.146057 -8.371647 36,225 31 483 896
2022-11-29 15:54:52 GMT 43.146057 -8.371647 36,200 31 483 832
2022-11-29 15:54:44 GMT 43.131775 -8.383526 36,100 31 483 768
2022-11-29 15:54:41 GMT 43.125713 -8.388585 36,050 31 483 832
2022-11-29 15:54:38 GMT 43.119289 -8.393882 36,025 31 483 128
2022-11-29 15:54:35 GMT 43.112492 -8.399571 36,000 31 483 64
2022-11-29 15:54:32 GMT 43.106873 -8.404222 36,000 31 483 0
2022-11-29 15:54:27 GMT 43.099922 -8.410034 36,000 31 483 0
2022-11-29 15:54:24 GMT 43.092133 -8.416485 36,000 31 483 -64
2022-11-29 15:54:21 GMT 43.086937 -8.420824 36,000 31 483 -64
2022-11-29 15:54:17 GMT 43.079952 -8.426644 36,000 31 483 0
2022-11-29 15:54:14 GMT 43.073685 -8.431815 36,000 31 484 0
2022-11-29 15:54:10 GMT 43.066730 -8.437565 36,000 31 483 0
2022-11-29 15:54:07 GMT 43.059586 -8.443504 36,000 31 484 0
2022-11-29 15:54:04 GMT 43.055000 -8.447309 36,000 31 484 0
2022-11-29 15:54:01 GMT 43.048370 -8.452766 36,000 31 484 0
2022-11-29 15:53:57 GMT 43.040680 -8.459153 36,000 31 484 0
2022-11-29 15:53:54 GMT 43.035217 -8.463658 36,000 31 484 -64
2022-11-29 15:53:51 GMT 43.029053 -8.468734 36,000 31 484 -64
2022-11-29 15:53:47 GMT 43.021454 -8.474994 36,025 31 485 -64
2022-11-29 15:53:44 GMT 43.016602 -8.478954 36,025 31 485 -64
2022-11-29 15:53:41 GMT 43.010056 -8.484384 36,025 31 485 -64
2022-11-29 15:53:37 GMT 43.002319 -8.490707 36,025 31 485 -64
2022-11-29 15:53:33 GMT 42.994762 -8.496944 36,025 31 485 -64
2022-11-29 15:53:30 GMT 42.990761 -8.500279 36,025 31 485 -64
2022-11-29 15:53:26 GMT 42.981995 -8.507506 36,025 31 485 0
2022-11-29 15:53:23 GMT 42.976791 -8.511789 36,025 31 485 0
2022-11-29 15:53:20 GMT 42.970322 -8.517151 36,025 31 485 64
2022-11-29 15:53:17 GMT 42.962906 -8.523283 36,025 31 485 64
2022-11-29 15:53:13 GMT 42.957104 -8.528072 36,025 31 485 64
2022-11-29 15:53:10 GMT 42.951424 -8.532780 36,025 31 485 64
2022-11-29 15:53:06 GMT 42.942947 -8.539762 36,000 31 485 64
2022-11-29 15:53:03 GMT 42.932198 -8.548606 36,000 31 486 0
2022-11-29 15:53:00 GMT 42.932198 -8.548606 36,000 31 486 0
2022-11-29 15:52:56 GMT 42.923676 -8.555603 36,000 31 486 0
2022-11-29 15:52:53 GMT 42.918091 -8.560246 36,000 31 486 0
2022-11-29 15:52:49 GMT 42.912086 -8.565151 36,000 31 486 64
2022-11-29 15:52:46 GMT 42.904499 -8.571429 36,000 31 486 0
2022-11-29 15:52:43 GMT 42.898354 -8.576464 36,000 31 487 -64
2022-11-29 15:52:40 GMT 42.892868 -8.580961 36,000 31 487 0
2022-11-29 15:52:33 GMT 42.879364 -8.592139 36,000 31 487 0
2022-11-29 15:52:29 GMT 42.873596 -8.596866 36,000 31 487 0
2022-11-29 15:52:26 GMT 42.866512 -8.602687 36,000 31 487 0
2022-11-29 15:52:23 GMT 42.853867 -8.613026 36,000 31 487 64
2022-11-29 15:52:20 GMT 42.853867 -8.613026 36,000 31 487 64
2022-11-29 15:52:13 GMT 42.839630 -8.624715 35,975 31 487 0
2022-11-29 15:52:09 GMT 42.834137 -8.629186 36,000 31 487 0
2022-11-29 15:52:02 GMT 42.820267 -8.640555 36,000 31 487 0
2022-11-29 15:51:59 GMT 42.814232 -8.645521 36,000 31 487 -64
2022-11-29 15:51:52 GMT 42.800171 -8.657039 36,000 31 487 -64
2022-11-29 15:51:49 GMT 42.794495 -8.661698 36,000 31 487 -64
2022-11-29 15:51:45 GMT 42.785744 -8.668852 36,000 31 487 -64
2022-11-29 15:51:42 GMT 42.780945 -8.672770 36,000 31 487 0
2022-11-29 15:51:38 GMT 42.775040 -8.677639 36,000 31 487 0
2022-11-29 15:51:32 GMT 42.761719 -8.688625 36,000 31 487 0
2022-11-29 15:51:26 GMT 42.749523 -8.698553 36,000 31 487 64
2022-11-29 15:51:22 GMT 42.742451 -8.704366 36,000 31 487 0
2022-11-29 15:51:19 GMT 42.735855 -8.709786 36,000 31 487 0
2022-11-29 15:51:12 GMT 42.722664 -8.720590 36,000 31 488 -64
2022-11-29 15:51:07 GMT 42.715393 -8.726515 36,000 30 487 0
2022-11-29 15:51:01 GMT 42.702942 -8.736690 36,000 30 487 0
2022-11-29 15:50:58 GMT 42.696533 -8.741871 36,000 30 487 0
2022-11-29 15:50:54 GMT 42.687790 -8.748987 36,000 30 487 0
2022-11-29 15:50:51 GMT 42.682983 -8.752920 36,000 30 487 0
2022-11-29 15:50:47 GMT 42.676666 -8.758101 36,000 30 487 0
2022-11-29 15:50:41 GMT 42.664169 -8.768276 36,000 30 487 0
2022-11-29 15:50:38 GMT 42.657352 -8.773797 36,000 30 487 0
2022-11-29 15:50:31 GMT 42.644211 -8.784506 36,000 30 487 0
2022-11-29 15:50:27 GMT 42.635006 -8.792001 36,000 30 487 0
2022-11-29 15:50:21 GMT 42.624710 -8.800423 36,000 31 488 0
2022-11-29 15:50:16 GMT 42.616333 -8.807227 36,000 31 488 0
2022-11-29 15:50:11 GMT 42.604374 -8.816975 36,000 30 487 0
2022-11-29 15:50:07 GMT 42.598976 -8.821383 36,000 30 487 0
2022-11-29 15:50:03 GMT 42.588730 -8.829762 36,000 30 487 0
2022-11-29 15:50:00 GMT 42.585148 -8.832625 36,000 30 487 0
2022-11-29 15:49:57 GMT 42.578659 -8.837939 36,000 30 487 0
2022-11-29 15:49:50 GMT 42.565201 -8.848863 36,000 30 487 0
2022-11-29 15:49:45 GMT 42.555496 -8.856728 36,000 31 486 0
2022-11-29 15:49:40 GMT 42.545673 -8.864753 36,000 31 486 0
2022-11-29 15:49:36 GMT 42.538223 -8.870757 36,000 31 486 0
2022-11-29 15:49:33 GMT 42.532608 -8.875393 36,000 31 486 0
2022-11-29 15:49:30 GMT 42.526657 -8.880199 36,000 30 487 0
2022-11-29 15:49:27 GMT 42.520954 -8.884874 36,000 30 487 0
2022-11-29 15:49:22 GMT 42.510498 -8.893308 36,000 30 487 0
2022-11-29 15:49:19 GMT 42.505600 -8.897303 36,000 30 487 0
2022-11-29 15:49:16 GMT 42.500977 -8.901048 36,000 30 487 0
2022-11-29 15:49:12 GMT 42.490814 -8.909288 36,000 30 487 -64
2022-11-29 15:49:09 GMT 42.486786 -8.912531 36,000 30 487 -64
2022-11-29 15:49:03 GMT 42.473923 -8.922896 36,000 30 487 0
2022-11-29 15:48:59 GMT 42.466812 -8.928691 36,000 30 487 0
2022-11-29 15:48:56 GMT 42.461784 -8.932779 36,000 30 488 0
2022-11-29 15:48:52 GMT 42.453506 -8.939500 36,000 30 488 0
2022-11-29 15:48:49 GMT 42.447784 -8.944120 36,000 30 488 0
2022-11-29 15:48:46 GMT 42.435997 -8.953666 36,000 30 488 0
2022-11-29 15:48:39 GMT 42.428642 -8.959606 36,000 30 488 0
2022-11-29 15:48:36 GMT 42.422447 -8.964652 36,000 30 488 0
2022-11-29 15:48:33 GMT 42.415283 -8.970399 36,000 30 488 0
2022-11-29 15:48:29 GMT 42.407867 -8.976392 36,000 30 489 0
2022-11-29 15:48:25 GMT 42.402153 -8.981004 36,000 30 489 0
2022-11-29 15:48:18 GMT 42.388607 -8.991926 36,000 30 489 0
2022-11-29 15:48:13 GMT 42.379017 -8.999655 36,000 30 489 0
2022-11-29 15:48:09 GMT 42.368042 -9.008477 36,000 30 489 0
2022-11-29 15:48:04 GMT 42.360161 -9.014857 36,000 30 489 0
2022-11-29 15:47:58 GMT 42.349270 -9.023608 36,000 30 489 64
2022-11-29 15:47:54 GMT 42.341721 -9.029701 36,000 30 489 64
2022-11-29 15:47:49 GMT 42.331055 -9.038315 36,000 30 488 64
2022-11-29 15:47:45 GMT 42.321106 -9.046283 35,975 30 488 0
2022-11-29 15:47:40 GMT 42.312836 -9.052922 35,975 30 489 0
2022-11-29 15:47:37 GMT 42.308071 -9.056758 36,000 30 488 0
2022-11-29 15:47:34 GMT 42.302032 -9.061598 35,975 30 489 0
2022-11-29 15:47:28 GMT 42.289867 -9.071386 36,000 30 488 0
2022-11-29 15:47:25 GMT 42.284409 -9.075768 36,000 30 488 -64
2022-11-29 15:47:22 GMT 42.276321 -9.082244 36,000 30 488 0
2022-11-29 15:47:18 GMT 42.269485 -9.087753 36,000 30 488 0
2022-11-29 15:47:14 GMT 42.264217 -9.092017 36,000 30 488 0
2022-11-29 15:47:07 GMT 42.246918 -9.105918 36,000 30 488 0
2022-11-29 15:47:04 GMT 42.243176 -9.108880 36,000 30 488 -64
2022-11-29 15:47:00 GMT 42.235062 -9.115406 36,000 30 488 -64
2022-11-29 15:46:57 GMT 42.229980 -9.119526 36,000 30 488 0
2022-11-29 15:46:54 GMT 42.225128 -9.123396 36,000 30 488 0
2022-11-29 15:46:50 GMT 42.216640 -9.130277 36,000 30 488 0
2022-11-29 15:46:47 GMT 42.210983 -9.134820 36,000 30 488 0
2022-11-29 15:46:44 GMT 42.204941 -9.139689 36,000 30 488 0
2022-11-29 15:46:34 GMT 42.185127 -9.155572 36,000 30 488 0
2022-11-29 15:46:31 GMT 42.179031 -9.160475 36,000 30 488 0
2022-11-29 15:46:27 GMT 42.171532 -9.166494 36,000 30 488 0
2022-11-29 15:46:23 GMT 42.165482 -9.171337 36,000 30 488 0
2022-11-29 15:46:20 GMT 42.158264 -9.177161 36,000 30 488 0
2022-11-29 15:46:16 GMT 42.150879 -9.183010 36,000 30 488 0
2022-11-29 15:46:12 GMT 42.143089 -9.189297 36,000 30 488 0
2022-11-29 15:46:09 GMT 42.136688 -9.194433 36,000 30 488 0
2022-11-29 15:46:05 GMT 42.127579 -9.201674 36,000 30 488 0
2022-11-29 15:45:59 GMT 42.118046 -9.209290 36,000 30 488 0
2022-11-29 15:45:56 GMT 42.112061 -9.214096 36,000 30 489 -64
2022-11-29 15:45:52 GMT 42.102680 -9.221553 36,000 30 489 -64
2022-11-29 15:45:46 GMT 42.092056 -9.230014 36,000 30 488 0
2022-11-29 15:45:41 GMT 42.082947 -9.237317 36,025 30 488 0
2022-11-29 15:45:38 GMT 42.076797 -9.242185 36,025 30 488 0
2022-11-29 15:45:33 GMT 42.066971 -9.250051 36,025 30 489 0
2022-11-29 15:45:26 GMT 42.052460 -9.261599 36,025 30 489 0
2022-11-29 15:45:23 GMT 42.047653 -9.265470 36,025 30 489 0
2022-11-29 15:45:15 GMT 42.032227 -9.277767 36,025 30 489 0
2022-11-29 15:45:12 GMT 42.027557 -9.281450 36,025 30 489 0
2022-11-29 15:45:08 GMT 42.018703 -9.288493 36,025 30 490 0
2022-11-29 15:45:05 GMT 42.012680 -9.293310 36,025 30 490 0
2022-11-29 15:45:01 GMT 42.002838 -9.301113 36,025 30 490 0
2022-11-29 15:44:58 GMT 41.999008 -9.304142 36,025 30 490 0
2022-11-29 15:44:55 GMT 41.993050 -9.308869 36,025 30 490 0
2022-11-29 15:44:52 GMT 41.979080 -9.319964 36,025 30 490 0
2022-11-29 15:44:48 GMT 41.979080 -9.319964 36,025 30 490 0
2022-11-29 15:44:44 GMT 41.971069 -9.326269 36,000 30 490 64
2022-11-29 15:44:41 GMT 41.966747 -9.329756 36,000 30 491 0
2022-11-29 15:44:38 GMT 41.959763 -9.335320 36,000 30 491 0
2022-11-29 15:44:35 GMT 41.955112 -9.339018 36,000 30 491 0
2022-11-29 15:44:32 GMT 41.947151 -9.345341 36,000 30 491 0
2022-11-29 15:44:29 GMT 41.941051 -9.350259 36,000 30 490 0
2022-11-29 15:44:26 GMT 41.935467 -9.354667 36,000 30 489 0
2022-11-29 15:44:22 GMT 41.928818 -9.359790 36,000 29 489 0
2022-11-29 15:44:18 GMT 41.920990 -9.365720 36,000 29 488 0
2022-11-29 15:44:15 GMT 41.915264 -9.369933 36,000 28 488 0
2022-11-29 15:44:11 GMT 41.905907 -9.376703 36,000 28 487 0
2022-11-29 15:44:08 GMT 41.899948 -9.381047 36,000 28 487 0
2022-11-29 15:44:05 GMT 41.894852 -9.384759 36,000 28 487 0
2022-11-29 15:44:01 GMT 41.888355 -9.389478 36,000 28 487 0
2022-11-29 15:43:58 GMT 41.880707 -9.394996 36,000 28 487 0
2022-11-29 15:43:54 GMT 41.874847 -9.399241 36,000 28 487 64
2022-11-29 15:43:50 GMT 41.865417 -9.405982 36,000 28 487 64
2022-11-29 15:43:47 GMT 41.859261 -9.410493 36,000 28 487 64
2022-11-29 15:43:44 GMT 41.854477 -9.413910 36,000 28 487 0
2022-11-29 15:43:40 GMT 41.844818 -9.420901 36,000 28 487 -64
2022-11-29 15:43:37 GMT 41.838173 -9.425695 36,000 28 487 -64
2022-11-29 15:43:34 GMT 41.834076 -9.428633 36,000 28 487 0
2022-11-29 15:43:31 GMT 41.828072 -9.433040 36,000 28 487 0
2022-11-29 15:43:27 GMT 41.819412 -9.439236 36,000 28 487 0
2022-11-29 15:43:23 GMT 41.812683 -9.444122 36,000 28 487 0
2022-11-29 15:43:20 GMT 41.804169 -9.450240 36,000 28 487 0
2022-11-29 15:43:16 GMT 41.797394 -9.455077 36,000 28 487 0
2022-11-29 15:43:12 GMT 41.790409 -9.460123 36,000 28 487 0
2022-11-29 15:43:09 GMT 41.784668 -9.464222 36,000 28 487 0
2022-11-29 15:43:06 GMT 41.778397 -9.468779 36,000 28 487 0
2022-11-29 15:43:02 GMT 41.770294 -9.474584 36,000 28 487 0
2022-11-29 15:42:59 GMT 41.764202 -9.478966 36,000 28 487 0
2022-11-29 15:42:55 GMT 41.756798 -9.484331 36,000 28 487 0
2022-11-29 15:42:49 GMT 41.744202 -9.493374 36,000 28 487 0
2022-11-29 15:42:46 GMT 41.739063 -9.497106 36,000 28 487 0
2022-11-29 15:42:40 GMT 41.727612 -9.505346 36,000 28 487 0
2022-11-29 15:42:37 GMT 41.718952 -9.511541 36,000 28 487 0
2022-11-29 15:42:30 GMT 41.706711 -9.520340 36,000 28 487 0
2022-11-29 15:42:26 GMT 41.699261 -9.525721 36,000 28 487 0
2022-11-29 15:42:21 GMT 41.689499 -9.532700 36,000 28 487 0
2022-11-29 15:42:18 GMT 41.683105 -9.537283 36,000 28 487 0
2022-11-29 15:42:15 GMT 41.677940 -9.540987 36,000 28 487 0
2022-11-29 15:42:11 GMT 41.669632 -9.546932 36,000 28 487 0
2022-11-29 15:42:08 GMT 41.662903 -9.551782 36,000 28 487 0
2022-11-29 15:42:04 GMT 41.654617 -9.557731 36,000 28 487 0
2022-11-29 15:42:00 GMT 41.636787 -9.570497 36,000 28 486 0
2022-11-29 15:41:55 GMT 41.636787 -9.570497 36,000 28 486 0
2022-11-29 15:41:50 GMT 41.626125 -9.578098 36,000 28 486 0
2022-11-29 15:41:46 GMT 41.618774 -9.583387 36,000 28 486 0
2022-11-29 15:41:39 GMT 41.606049 -9.592438 36,000 28 486 0
2022-11-29 15:41:35 GMT 41.598057 -9.598154 36,000 28 486 0
2022-11-29 15:41:28 GMT 41.583115 -9.608855 36,000 28 487 0
2022-11-29 15:41:24 GMT 41.574921 -9.614785 36,000 28 487 0
2022-11-29 15:41:17 GMT 41.562469 -9.623711 36,000 28 485 0
2022-11-29 15:41:14 GMT 41.556808 -9.627792 36,000 28 485 0
2022-11-29 15:41:10 GMT 41.549316 -9.633094 36,000 28 485 0
2022-11-29 15:41:07 GMT 41.542099 -9.638256 36,000 28 485 64
2022-11-29 15:41:03 GMT 41.534821 -9.643437 36,000 28 486 64
2022-11-29 15:40:59 GMT 41.518124 -9.655322 36,000 28 486 0
2022-11-29 15:40:55 GMT 41.518124 -9.655322 36,000 28 486 0
2022-11-29 15:40:49 GMT 41.507233 -9.663050 36,000 28 486 0
2022-11-29 15:40:45 GMT 41.496571 -9.670651 36,000 28 486 0
2022-11-29 15:40:40 GMT 41.487350 -9.677207 36,000 28 485 0
2022-11-29 15:40:37 GMT 41.481079 -9.681639 36,000 28 485 0
2022-11-29 15:40:34 GMT 41.477253 -9.684384 36,000 28 485 0
2022-11-29 15:40:29 GMT 41.460262 -9.696520 36,000 28 485 0
2022-11-29 15:40:26 GMT 41.460262 -9.696520 36,000 28 485 0
2022-11-29 15:40:23 GMT 41.454815 -9.700353 36,000 28 485 0
2022-11-29 15:40:17 GMT 41.444504 -9.707732 36,000 28 485 0
2022-11-29 15:40:13 GMT 41.434658 -9.714725 36,000 28 485 0
2022-11-29 15:40:08 GMT 41.424973 -9.721559 36,000 28 485 0
2022-11-29 15:40:04 GMT 41.415943 -9.728074 36,000 28 485 0
2022-11-29 15:39:59 GMT 41.407703 -9.733887 36,000 28 485 0
2022-11-29 15:39:56 GMT 41.401611 -9.738256 36,000 28 485 0
2022-11-29 15:39:53 GMT 41.395340 -9.742688 36,000 28 485 0
2022-11-29 15:39:47 GMT 41.384903 -9.750122 36,000 28 485 0
2022-11-29 15:39:44 GMT 41.376663 -9.755981 36,000 28 485 0
2022-11-29 15:39:36 GMT 41.360779 -9.767273 36,000 28 484 0
2022-11-29 15:39:31 GMT 41.352997 -9.772766 36,000 28 484 0
2022-11-29 15:39:27 GMT 41.345371 -9.778207 36,000 28 484 0
2022-11-29 15:39:23 GMT 41.335735 -9.785011 36,000 28 484 0
2022-11-29 15:39:15 GMT 41.320930 -9.795498 36,000 28 484 0
2022-11-29 15:39:11 GMT 41.312878 -9.801178 36,000 28 484 0
2022-11-29 15:39:05 GMT 41.301098 -9.809543 36,000 28 484 0
2022-11-29 15:39:02 GMT 41.295181 -9.813721 36,000 28 484 0
2022-11-29 15:38:57 GMT 41.285019 -9.820923 36,000 28 484 0
2022-11-29 15:38:53 GMT 41.274796 -9.828144 36,000 28 484 0
2022-11-29 15:38:49 GMT 41.268860 -9.832336 36,000 28 484 0
2022-11-29 15:38:45 GMT 41.260227 -9.838444 36,000 28 484 0
2022-11-29 15:38:41 GMT 41.253242 -9.843375 36,025 27 484 0
2022-11-29 15:38:37 GMT 41.244396 -9.849618 36,000 27 484 0
2022-11-29 15:38:34 GMT 41.240341 -9.852478 36,000 27 484 0
2022-11-29 15:38:31 GMT 41.233414 -9.857358 36,000 28 484 0
2022-11-29 15:38:26 GMT 41.224613 -9.863538 36,025 28 484 0
2022-11-29 15:38:22 GMT 41.216034 -9.869629 36,025 28 484 0
2022-11-29 15:38:19 GMT 41.209396 -9.874268 36,025 28 484 0
2022-11-29 15:38:14 GMT 41.199707 -9.881141 36,025 28 484 0
2022-11-29 15:38:11 GMT 41.193787 -9.885254 36,000 28 484 0
2022-11-29 15:38:06 GMT 41.184540 -9.891785 36,025 28 484 0
2022-11-29 15:38:01 GMT 41.173462 -9.899597 36,025 28 484 0
2022-11-29 15:37:56 GMT 41.165630 -9.905111 36,025 28 484 0
2022-11-29 15:37:53 GMT 41.159767 -9.909231 36,000 28 484 0
2022-11-29 15:37:50 GMT 41.152504 -9.914350 36,000 28 484 0
2022-11-29 15:37:47 GMT 41.144073 -9.920288 36,000 28 484 0
2022-11-29 15:37:44 GMT 41.139793 -9.923338 36,000 28 484 0
2022-11-29 15:37:40 GMT 41.133087 -9.928040 36,025 28 484 0
2022-11-29 15:37:36 GMT 41.124199 -9.934325 36,025 28 484 0
2022-11-29 15:37:33 GMT 41.119171 -9.937866 36,000 28 484 64
2022-11-29 15:37:30 GMT 41.113029 -9.942190 36,000 28 484 0
2022-11-29 15:37:25 GMT 41.104477 -9.948181 36,000 28 484 0
2022-11-29 15:37:22 GMT 41.098709 -9.952271 36,000 28 484 0
2022-11-29 15:37:19 GMT 41.091476 -9.957336 36,000 28 484 0
2022-11-29 15:37:15 GMT 41.083466 -9.962977 36,000 28 484 0
2022-11-29 15:37:12 GMT 41.078613 -9.966431 36,000 28 484 0
2022-11-29 15:37:08 GMT 41.070831 -9.971863 36,000 27 484 0
2022-11-29 15:37:03 GMT 41.059296 -9.979980 36,000 27 484 0
2022-11-29 15:36:58 GMT 41.050976 -9.985823 36,000 27 484 0
2022-11-29 15:36:53 GMT 41.038635 -9.994437 36,000 27 484 0
2022-11-29 15:36:48 GMT 41.027161 -10.002502 36,000 27 484 0
2022-11-29 15:36:42 GMT 41.018509 -10.008606 36,000 27 484 0
2022-11-29 15:36:38 GMT 41.009495 -10.014912 36,000 27 484 64
2022-11-29 15:36:35 GMT 41.004044 -10.018677 36,000 27 484 64
2022-11-29 15:36:32 GMT 40.998043 -10.022902 36,000 27 484 0
2022-11-29 15:36:27 GMT 40.987839 -10.030090 36,000 27 484 0
2022-11-29 15:36:24 GMT 40.981842 -10.034241 36,000 27 484 0
2022-11-29 15:36:21 GMT 40.977448 -10.037354 36,000 27 484 0
2022-11-29 15:36:18 GMT 40.970718 -10.042066 36,000 27 484 0
2022-11-29 15:36:14 GMT 40.958195 -10.050867 36,000 27 484 0
2022-11-29 15:36:11 GMT 40.958195 -10.050867 36,000 27 483 0
2022-11-29 15:36:07 GMT 40.949722 -10.056735 36,000 27 483 0
2022-11-29 15:36:03 GMT 40.941761 -10.062291 36,000 27 483 64
2022-11-29 15:36:00 GMT 40.932499 -10.068782 36,000 27 483 64
2022-11-29 15:35:57 GMT 40.929794 -10.070679 35,975 27 483 64
2022-11-29 15:35:52 GMT 40.917435 -10.079285 35,975 27 483 0
2022-11-29 15:35:47 GMT 40.909515 -10.084778 35,975 27 483 -64
2022-11-29 15:35:44 GMT 40.902969 -10.089355 36,000 27 483 0
2022-11-29 15:35:40 GMT 40.893906 -10.095642 36,000 27 483 0
2022-11-29 15:35:36 GMT 40.888779 -10.099243 36,000 27 483 0
2022-11-29 15:35:33 GMT 40.881821 -10.104126 36,000 27 483 0
2022-11-29 15:35:30 GMT 40.876144 -10.108093 36,000 27 483 0
2022-11-29 15:35:27 GMT 40.870304 -10.112104 36,000 27 483 0
2022-11-29 15:35:23 GMT 40.860435 -10.118970 36,000 27 483 0
2022-11-29 15:35:20 GMT 40.856525 -10.121717 36,000 27 483 0
2022-11-29 15:35:17 GMT 40.849262 -10.126773 36,000 27 483 0
2022-11-29 15:35:11 GMT 40.838242 -10.134460 36,000 27 483 0
2022-11-29 15:35:08 GMT 40.832504 -10.138446 36,000 27 483 -64
2022-11-29 15:35:03 GMT 40.822262 -10.145624 36,000 27 483 -64
2022-11-29 15:35:00 GMT 40.815979 -10.149994 36,000 27 483 -64
2022-11-29 15:34:56 GMT 40.808395 -10.155273 36,000 27 483 0
2022-11-29 15:34:52 GMT 40.801346 -10.160156 36,000 27 483 0
2022-11-29 15:34:49 GMT 40.795486 -10.164246 36,000 27 483 0
2022-11-29 15:34:46 GMT 40.781250 -10.174133 36,000 27 483 0
2022-11-29 15:34:42 GMT 40.781250 -10.174133 36,000 27 482 -64
2022-11-29 15:34:38 GMT 40.772171 -10.180456 36,000 27 482 -64
2022-11-29 15:34:35 GMT 40.768250 -10.183167 36,000 27 482 -64
2022-11-29 15:34:32 GMT 40.762257 -10.187322 36,000 27 482 -64
2022-11-29 15:34:29 GMT 40.756531 -10.191255 36,000 27 482 -64
2022-11-29 15:34:26 GMT 40.747173 -10.197809 36,000 27 482 0
2022-11-29 15:34:22 GMT 40.742474 -10.201055 36,000 27 482 0
2022-11-29 15:34:18 GMT 40.733997 -10.206923 36,000 27 482 0
2022-11-29 15:34:13 GMT 40.723755 -10.213989 36,000 27 482 0
2022-11-29 15:34:08 GMT 40.712540 -10.221802 36,000 27 483 0
2022-11-29 15:34:03 GMT 40.703506 -10.228084 36,000 27 483 0
2022-11-29 15:34:00 GMT 40.696571 -10.232891 36,000 27 482 0
2022-11-29 15:33:57 GMT 40.691635 -10.236262 36,000 27 482 0
2022-11-29 15:33:52 GMT 40.681812 -10.243128 36,000 27 482 0
2022-11-29 15:33:47 GMT 40.671936 -10.249939 36,000 27 482 0
2022-11-29 15:33:44 GMT 40.667953 -10.252686 36,000 27 482 0
2022-11-29 15:33:41 GMT 40.661362 -10.257263 36,000 27 482 0
2022-11-29 15:33:37 GMT 40.652023 -10.263733 36,000 27 482 0
2022-11-29 15:33:34 GMT 40.645226 -10.268409 36,000 27 482 0
2022-11-29 15:33:31 GMT 40.641361 -10.271093 36,000 27 482 0
2022-11-29 15:33:27 GMT 40.633587 -10.276462 36,000 27 482 0
2022-11-29 15:33:24 GMT 40.627396 -10.280769 36,000 27 482 0
2022-11-29 15:33:20 GMT 40.620026 -10.285889 36,000 27 482 0
2022-11-29 15:33:16 GMT 40.603455 -10.297302 36,000 27 483 0
2022-11-29 15:33:12 GMT 40.603455 -10.297302 36,000 27 483 0
2022-11-29 15:33:09 GMT 40.595509 -10.302804 36,000 27 483 0
2022-11-29 15:33:04 GMT 40.587593 -10.308234 36,000 27 483 0
2022-11-29 15:33:01 GMT 40.581116 -10.312744 36,000 27 483 64
2022-11-29 15:32:56 GMT 40.572647 -10.318597 36,000 27 483 64
2022-11-29 15:32:51 GMT 40.562439 -10.325623 36,000 27 483 0
2022-11-29 15:32:48 GMT 40.554886 -10.330872 35,975 27 483 0
2022-11-29 15:32:44 GMT 40.547977 -10.335575 35,975 27 482 0
2022-11-29 15:32:40 GMT 40.540527 -10.340757 35,975 27 482 0
2022-11-29 15:32:37 GMT 40.527260 -10.349870 35,975 27 482 0
2022-11-29 15:32:33 GMT 40.527260 -10.349870 35,975 27 483 0
2022-11-29 15:32:26 GMT 40.512817 -10.359802 35,975 27 482 0
2022-11-29 15:32:23 GMT 40.507874 -10.363220 35,975 27 482 0
2022-11-29 15:32:17 GMT 40.495285 -10.371826 35,975 27 482 64
2022-11-29 15:32:13 GMT 40.487320 -10.377336 35,975 27 482 0
2022-11-29 15:32:06 GMT 40.472443 -10.387573 35,975 27 482 0
2022-11-29 15:32:03 GMT 40.468140 -10.390503 35,975 27 482 0
2022-11-29 15:31:56 GMT 40.454269 -10.400085 35,975 27 482 -64
2022-11-29 15:31:53 GMT 40.447376 -10.404864 35,975 27 482 -64
2022-11-29 15:31:45 GMT 40.430294 -10.416600 35,975 27 482 0
2022-11-29 15:31:35 GMT 40.411789 -10.429260 35,975 27 482 0
2022-11-29 15:31:32 GMT 40.405472 -10.433594 35,975 27 482 0
2022-11-29 15:31:25 GMT 40.391510 -10.443176 36,000 27 482 -64
2022-11-29 15:31:22 GMT 40.387604 -10.445813 36,000 27 482 -64
2022-11-29 15:31:15 GMT 40.371777 -10.456675 36,000 27 482 0
2022-11-29 15:31:12 GMT 40.367588 -10.459546 36,000 27 482 0
2022-11-29 15:31:06 GMT 40.347198 -10.473511 36,000 27 482 0
2022-11-29 15:31:02 GMT 40.347198 -10.473511 36,000 27 481 0
2022-11-29 15:30:55 GMT 40.333374 -10.482910 36,000 27 481 0
2022-11-29 15:30:52 GMT 40.326527 -10.487574 36,000 27 482 0
2022-11-29 15:30:44 GMT 40.310143 -10.498747 36,000 27 482 0
2022-11-29 15:30:41 GMT 40.306183 -10.501465 36,000 27 482 0
2022-11-29 15:30:34 GMT 40.290684 -10.512043 36,000 27 483 -64
2022-11-29 15:30:31 GMT 40.286545 -10.514832 36,000 27 483 0
2022-11-29 15:30:24 GMT 40.270760 -10.525651 36,000 27 483 -64
2022-11-29 15:30:21 GMT 40.265167 -10.529480 36,000 27 483 -64
2022-11-29 15:30:18 GMT 40.259026 -10.533704 36,000 27 483 -64
2022-11-29 15:30:14 GMT 40.250198 -10.539734 36,000 27 483 0
2022-11-29 15:30:11 GMT 40.246410 -10.542256 36,000 27 483 0
2022-11-29 15:30:08 GMT 40.239899 -10.546753 36,000 27 483 0
2022-11-29 15:30:05 GMT 40.234028 -10.550808 36,000 27 483 0
2022-11-29 15:30:01 GMT 40.226486 -10.555908 36,000 27 483 0
2022-11-29 15:29:54 GMT 40.213127 -10.565040 36,025 27 483 -64
2022-11-29 15:29:51 GMT 40.205154 -10.570435 36,025 27 483 -64
2022-11-29 15:29:48 GMT 40.200932 -10.573342 36,025 27 483 -64
2022-11-29 15:29:45 GMT 40.194031 -10.578064 36,025 27 483 0
2022-11-29 15:29:42 GMT 40.185616 -10.583829 36,025 27 483 0
2022-11-29 15:29:38 GMT 40.181610 -10.586513 36,025 27 483 0
2022-11-29 15:29:34 GMT 40.173569 -10.591980 36,025 27 483 0
2022-11-29 15:29:30 GMT 40.164433 -10.598249 36,025 27 483 0
2022-11-29 15:29:23 GMT 40.147533 -10.609734 36,025 27 484 0
2022-11-29 15:29:20 GMT 40.144592 -10.611694 36,025 27 484 0
2022-11-29 15:29:17 GMT 40.139809 -10.614978 36,025 27 484 0
2022-11-29 15:29:12 GMT 40.128250 -10.622803 36,025 27 484 0
2022-11-29 15:29:09 GMT 40.124222 -10.625488 36,025 27 484 0
2022-11-29 15:29:02 GMT 40.109547 -10.635452 36,025 27 485 0
2022-11-29 15:28:59 GMT 40.103989 -10.639221 36,025 27 484 0
2022-11-29 15:28:53 GMT 40.091675 -10.647583 36,025 27 485 0
2022-11-29 15:28:49 GMT 40.083992 -10.652806 36,025 27 485 -64
2022-11-29 15:28:45 GMT 40.072769 -10.660484 36,025 27 485 0
2022-11-29 15:28:38 GMT 40.062344 -10.667537 36,025 27 485 0
2022-11-29 15:28:35 GMT 40.055145 -10.672485 36,025 27 485 0
2022-11-29 15:28:31 GMT 40.046703 -10.678212 36,025 27 485 64
2022-11-29 15:28:27 GMT 40.040512 -10.682456 36,025 27 485 0
2022-11-29 15:28:24 GMT 40.032394 -10.687988 36,025 27 485 64
2022-11-29 15:28:21 GMT 40.027058 -10.691632 36,025 27 486 0
2022-11-29 15:28:18 GMT 40.022690 -10.694580 36,025 27 486 -64
2022-11-29 15:28:15 GMT 40.015743 -10.699310 36,025 27 486 -64
2022-11-29 15:28:11 GMT 40.007263 -10.705078 36,025 27 485 0
2022-11-29 15:28:08 GMT 40.001312 -10.709106 36,025 27 486 -64
2022-11-29 15:28:02 GMT 39.989349 -10.717163 36,025 27 485 0
2022-11-29 15:27:58 GMT 39.982273 -10.721970 36,025 27 485 64
2022-11-29 15:27:52 GMT 39.969269 -10.730774 36,025 27 485 64
2022-11-29 15:27:48 GMT 39.959000 -10.737700 36,000 27 485 0
2022-11-29 15:27:41 GMT 39.946056 -10.746439 36,000 27 485 0
2022-11-29 15:27:36 GMT 39.937912 -10.751953 36,000 27 485 0
2022-11-29 15:27:32 GMT 39.928345 -10.758362 36,000 27 485 0
2022-11-29 15:27:28 GMT 39.921196 -10.763245 36,000 27 485 0
2022-11-29 15:27:20 GMT 39.905823 -10.773587 36,000 27 485 0
2022-11-29 15:27:17 GMT 39.901062 -10.776812 36,000 27 485 0
2022-11-29 15:27:11 GMT 39.888016 -10.785649 36,000 27 485 64
2022-11-29 15:27:07 GMT 39.867245 -10.799683 36,000 27 485 0
2022-11-29 15:27:01 GMT 39.867245 -10.799683 36,000 27 485 0
2022-11-29 15:26:57 GMT 39.860214 -10.804382 36,000 27 485 0
2022-11-29 15:26:50 GMT 39.845692 -10.814209 36,000 27 485 0
2022-11-29 15:26:47 GMT 39.839767 -10.818190 36,000 27 485 0
2022-11-29 15:26:37 GMT 39.818085 -10.832825 36,000 27 484 0
2022-11-29 15:26:26 GMT 39.798763 -10.845886 36,000 27 484 0
2022-11-29 15:26:19 GMT 39.782867 -10.856642 36,000 27 484 0
2022-11-29 15:26:16 GMT 39.778934 -10.859253 36,000 27 484 0
2022-11-29 15:26:12 GMT 39.768951 -10.866016 36,000 27 484 0
2022-11-29 15:26:09 GMT 39.764690 -10.868835 36,000 27 484 0
2022-11-29 15:26:06 GMT 39.758823 -10.872803 36,000 27 484 0
2022-11-29 15:25:59 GMT 39.742264 -10.883928 36,000 27 483 0
2022-11-29 15:25:56 GMT 39.738667 -10.886292 36,000 27 483 0
2022-11-29 15:25:46 GMT 39.718323 -10.899930 36,000 27 483 0
2022-11-29 15:25:38 GMT 39.696724 -10.914429 36,000 27 484 0
2022-11-29 15:25:35 GMT 39.696724 -10.914429 36,000 27 484 0
2022-11-29 15:25:30 GMT 39.685131 -10.922180 36,000 27 484 0
2022-11-29 15:25:26 GMT 39.676987 -10.927695 36,000 27 484 0
2022-11-29 15:25:15 GMT 39.656456 -10.941467 36,000 27 484 0
2022-11-29 15:25:08 GMT 39.641697 -10.951355 36,000 27 484 0
2022-11-29 15:25:05 GMT 39.636795 -10.954683 36,000 27 484 0
2022-11-29 15:24:57 GMT 39.621075 -10.965210 36,000 27 483 0
2022-11-29 15:24:54 GMT 39.616104 -10.968535 36,000 27 483 0
2022-11-29 15:24:50 GMT 39.604176 -10.976501 36,000 27 484 0
2022-11-29 15:24:47 GMT 39.600311 -10.979103 36,000 27 484 0
2022-11-29 15:24:44 GMT 39.596512 -10.981671 36,000 27 484 0
2022-11-29 15:24:37 GMT 39.580490 -10.992359 36,000 27 483 0
2022-11-29 15:24:33 GMT 39.574173 -10.996538 36,000 27 483 0
2022-11-29 15:24:26 GMT 39.559158 -11.006569 36,000 27 483 0
2022-11-29 15:24:22 GMT 39.552063 -11.011286 36,000 27 483 0
2022-11-29 15:24:17 GMT 39.539520 -11.019705 36,000 27 483 0
2022-11-29 15:24:12 GMT 39.531929 -11.024780 36,000 27 483 0
2022-11-29 15:24:07 GMT 39.520195 -11.032654 36,000 27 483 0
2022-11-29 15:24:01 GMT 39.509995 -11.039469 36,000 27 483 0
2022-11-29 15:23:56 GMT 39.499374 -11.046514 36,000 27 483 0
2022-11-29 15:23:51 GMT 39.489750 -11.052917 36,000 27 483 0
2022-11-29 15:23:45 GMT 39.477448 -11.061083 36,000 27 483 0
2022-11-29 15:23:42 GMT 39.471687 -11.064941 36,000 27 483 0
2022-11-29 15:23:39 GMT 39.467640 -11.067627 36,000 27 483 0
2022-11-29 15:23:34 GMT 39.456001 -11.075378 36,000 27 483 0
2022-11-29 15:23:31 GMT 39.451065 -11.078674 36,000 27 483 0
2022-11-29 15:23:27 GMT 39.435928 -11.088788 36,000 27 483 0
2022-11-29 15:23:24 GMT 39.435928 -11.088788 36,000 27 483 0
2022-11-29 15:23:21 GMT 39.430210 -11.092590 36,000 27 483 0
2022-11-29 15:23:15 GMT 39.417572 -11.101028 36,000 27 482 0
2022-11-29 15:23:11 GMT 39.410519 -11.105713 36,000 27 482 0
2022-11-29 15:23:06 GMT 39.398209 -11.113865 36,000 27 482 0
2022-11-29 15:23:02 GMT 39.392853 -11.117448 36,000 27 482 0
2022-11-29 15:22:58 GMT 39.383469 -11.123657 36,025 27 482 64
2022-11-29 15:22:53 GMT 39.375141 -11.129150 36,000 27 482 0
2022-11-29 15:22:49 GMT 39.367134 -11.134460 36,000 27 482 0
2022-11-29 15:22:44 GMT 39.356983 -11.141174 36,000 27 482 64
2022-11-29 15:22:40 GMT 39.349503 -11.146167 36,000 27 482 0
2022-11-29 15:22:35 GMT 39.337807 -11.153931 36,000 27 481 0
2022-11-29 15:22:32 GMT 39.333801 -11.156616 36,000 27 481 0
2022-11-29 15:22:28 GMT 39.326065 -11.161751 36,000 27 481 0
2022-11-29 15:22:25 GMT 39.320347 -11.165527 36,000 27 482 0
2022-11-29 15:22:22 GMT 39.312927 -11.170469 36,000 27 481 0
2022-11-29 15:22:19 GMT 39.306568 -11.174683 36,000 27 481 0
2022-11-29 15:22:14 GMT 39.292370 -11.184021 36,000 27 481 0
2022-11-29 15:22:11 GMT 39.292370 -11.184021 36,000 27 481 0
2022-11-29 15:22:08 GMT 39.284729 -11.189157 36,000 27 481 0
2022-11-29 15:22:04 GMT 39.277496 -11.193934 36,000 27 481 0
2022-11-29 15:22:01 GMT 39.272644 -11.197158 36,000 27 480 0
2022-11-29 15:21:56 GMT 39.261879 -11.204285 36,000 27 480 0
2022-11-29 15:21:52 GMT 39.252319 -11.210593 36,000 27 480 0
2022-11-29 15:21:49 GMT 39.242203 -11.217280 36,000 27 480 0
2022-11-29 15:21:46 GMT 39.242203 -11.217280 36,000 27 480 -64
2022-11-29 15:21:42 GMT 39.234413 -11.222412 36,000 27 479 0
2022-11-29 15:21:39 GMT 39.228561 -11.226296 36,000 27 480 0
2022-11-29 15:21:31 GMT 39.212997 -11.236572 36,000 27 479 0
2022-11-29 15:21:28 GMT 39.207733 -11.240029 36,000 27 479 0
2022-11-29 15:21:25 GMT 39.200706 -11.244690 36,000 27 479 0
2022-11-29 15:21:19 GMT 39.190002 -11.251770 36,000 27 479 0
2022-11-29 15:21:16 GMT 39.181667 -11.257202 36,000 27 478 0
2022-11-29 15:21:13 GMT 39.175873 -11.261046 36,000 27 478 0
2022-11-29 15:21:08 GMT 39.168217 -11.266113 36,000 27 478 0
2022-11-29 15:21:01 GMT 39.152435 -11.276510 36,000 27 478 -64
2022-11-29 15:20:57 GMT 39.146988 -11.280153 36,000 27 478 0
2022-11-29 15:20:51 GMT 39.133667 -11.288870 36,000 27 478 0
2022-11-29 15:20:48 GMT 39.127533 -11.292930 36,000 27 478 0
2022-11-29 15:20:45 GMT 39.121662 -11.296814 36,000 27 478 0
2022-11-29 15:20:41 GMT 39.114029 -11.301819 36,000 27 478 0
2022-11-29 15:20:37 GMT 39.106300 -11.306885 36,000 27 478 0
2022-11-29 15:20:31 GMT 39.094254 -11.314843 36,000 27 478 0
2022-11-29 15:20:27 GMT 39.086197 -11.320157 36,000 27 478 0
2022-11-29 15:20:20 GMT 39.070312 -11.330606 36,000 27 478 0
2022-11-29 15:20:13 GMT 39.056625 -11.339622 36,000 27 478 0
2022-11-29 15:20:09 GMT 39.050575 -11.343567 36,000 27 478 0
2022-11-29 15:20:06 GMT 39.044403 -11.347623 36,000 27 478 0
2022-11-29 15:20:03 GMT 39.040058 -11.350464 36,000 27 478 0
2022-11-29 15:20:00 GMT 39.033875 -11.354549 36,000 27 478 0
2022-11-29 15:19:56 GMT 39.026138 -11.359619 36,000 27 478 0
2022-11-29 15:19:52 GMT 39.018410 -11.364685 36,000 27 478 0
2022-11-29 15:19:49 GMT 39.012405 -11.368652 36,000 27 478 0
2022-11-29 15:19:46 GMT 39.006680 -11.372437 36,000 26 478 0
2022-11-29 15:19:43 GMT 39.000366 -11.376522 36,000 27 478 0
2022-11-29 15:19:40 GMT 38.991177 -11.382568 36,000 27 478 0
2022-11-29 15:19:34 GMT 38.981400 -11.388977 36,000 27 478 0
2022-11-29 15:19:31 GMT 38.975815 -11.392639 36,000 27 478 0
2022-11-29 15:19:26 GMT 38.967499 -11.398077 36,000 26 478 0
2022-11-29 15:19:23 GMT 38.961338 -11.402100 36,000 26 478 0
2022-11-29 15:19:19 GMT 38.953171 -11.407451 36,000 26 478 0
2022-11-29 15:19:15 GMT 38.945229 -11.412659 36,000 26 478 0
2022-11-29 15:19:10 GMT 38.934338 -11.419739 36,000 26 478 0
2022-11-29 15:19:05 GMT 38.925491 -11.425537 36,000 27 478 0
2022-11-29 15:19:01 GMT 38.917053 -11.431036 36,000 27 478 0
2022-11-29 15:18:58 GMT 38.910324 -11.435454 36,000 27 478 0
2022-11-29 15:18:55 GMT 38.906021 -11.438260 36,000 27 478 0
2022-11-29 15:18:50 GMT 38.893707 -11.446381 36,000 27 478 0
2022-11-29 15:18:45 GMT 38.886063 -11.451336 36,000 27 478 0
2022-11-29 15:18:38 GMT 38.872513 -11.460233 36,000 27 478 0
2022-11-29 15:18:35 GMT 38.866554 -11.464111 36,000 26 478 0
2022-11-29 15:18:31 GMT 38.856583 -11.470622 36,000 26 478 0
2022-11-29 15:18:28 GMT 38.852776 -11.473145 36,000 26 478 0
2022-11-29 15:18:25 GMT 38.846832 -11.477011 36,000 26 478 0
2022-11-29 15:18:17 GMT 38.831364 -11.487061 36,000 27 477 0
2022-11-29 15:18:14 GMT 38.825363 -11.490983 36,000 27 477 0
2022-11-29 15:18:10 GMT 38.816513 -11.496765 36,000 27 477 0
2022-11-29 15:18:05 GMT 38.806782 -11.503113 36,000 27 477 0
2022-11-29 15:17:57 GMT 38.790482 -11.513732 36,000 27 477 0
2022-11-29 15:17:54 GMT 38.786636 -11.516239 36,000 27 477 0
2022-11-29 15:17:49 GMT 38.772583 -11.525375 36,000 26 478 0
2022-11-29 15:17:43 GMT 38.763290 -11.531405 36,000 26 478 0
2022-11-29 15:17:40 GMT 38.756744 -11.535645 36,000 26 476 0
2022-11-29 15:17:37 GMT 38.751434 -11.539108 36,000 27 477 0
2022-11-29 15:17:34 GMT 38.745335 -11.543091 36,000 27 477 0
2022-11-29 15:17:27 GMT 38.732849 -11.551169 36,000 27 477 64
2022-11-29 15:17:21 GMT 38.719311 -11.559998 36,000 27 477 0
2022-11-29 15:17:18 GMT 38.704468 -11.569619 36,000 27 477 -64
2022-11-29 15:17:13 GMT 38.704468 -11.569619 36,000 27 477 -64
2022-11-29 15:17:09 GMT 38.696827 -11.574646 36,000 27 477 -64
2022-11-29 15:17:02 GMT 38.680115 -11.585449 36,025 26 476 0
2022-11-29 15:16:59 GMT 38.676018 -11.588135 36,000 26 476 0
2022-11-29 15:16:52 GMT 38.664139 -11.595831 36,000 26 476 0
2022-11-29 15:16:47 GMT 38.650555 -11.604675 36,000 26 476 64
2022-11-29 15:16:43 GMT 38.645645 -11.607832 36,000 27 477 64
2022-11-29 15:16:37 GMT 38.632584 -11.616333 36,000 27 477 0
2022-11-29 15:16:33 GMT 38.625732 -11.620789 36,000 27 477 0
2022-11-29 15:16:23 GMT 38.605633 -11.633850 36,000 26 476 0
2022-11-29 15:16:19 GMT 38.596367 -11.639832 36,000 26 476 0
2022-11-29 15:16:11 GMT 38.583286 -11.648254 36,000 26 476 0
2022-11-29 15:16:06 GMT 38.573044 -11.654882 36,000 26 476 0
2022-11-29 15:16:02 GMT 38.565079 -11.660017 36,000 26 476 0
2022-11-29 15:15:56 GMT 38.551304 -11.668945 36,000 26 475 0
2022-11-29 15:15:52 GMT 38.546139 -11.672302 36,000 26 475 0
2022-11-29 15:15:46 GMT 38.533428 -11.680542 36,000 26 476 -64
2022-11-29 15:15:42 GMT 38.525482 -11.685692 36,000 26 475 -64
2022-11-29 15:15:35 GMT 38.512062 -11.694336 36,000 26 475 0
2022-11-29 15:15:32 GMT 38.505936 -11.698290 36,000 26 475 0
2022-11-29 15:15:25 GMT 38.492661 -11.706828 36,000 26 475 0
2022-11-29 15:15:19 GMT 38.481895 -11.713745 36,000 26 475 0
2022-11-29 15:15:16 GMT 38.474586 -11.718506 36,000 26 475 0
2022-11-29 15:15:11 GMT 38.465649 -11.724243 36,000 26 475 0
2022-11-29 15:15:05 GMT 38.453125 -11.732300 36,000 26 475 0
2022-11-29 15:15:01 GMT 38.445877 -11.736981 36,000 26 475 0
2022-11-29 15:14:56 GMT 38.435944 -11.743429 36,000 26 475 0
2022-11-29 15:14:53 GMT 38.429478 -11.747559 36,000 26 475 0
2022-11-29 15:14:50 GMT 38.424030 -11.751099 36,000 26 475 0
2022-11-29 15:14:44 GMT 38.412415 -11.758527 36,000 26 475 0
2022-11-29 15:14:34 GMT 38.380692 -11.778980 36,000 26 474 0
2022-11-29 15:14:28 GMT 38.380692 -11.778980 36,000 26 474 0
2022-11-29 15:14:25 GMT 38.373047 -11.783889 36,000 26 474 0
2022-11-29 15:14:16 GMT 38.356716 -11.794361 36,000 26 474 0
2022-11-29 15:14:08 GMT 38.342743 -11.803407 36,000 26 474 -64
2022-11-29 15:14:02 GMT 38.329559 -11.811822 36,000 26 474 0
2022-11-29 15:13:59 GMT 38.323380 -11.815854 36,000 26 474 0
2022-11-29 15:13:56 GMT 38.317200 -11.819770 36,000 26 474 0
2022-11-29 15:13:52 GMT 38.311329 -11.823558 36,000 26 474 64
2022-11-29 15:13:48 GMT 38.301865 -11.829646 36,000 26 474 64
2022-11-29 15:13:45 GMT 38.296692 -11.832977 36,000 26 474 64
2022-11-29 15:13:42 GMT 38.291870 -11.836097 36,000 26 474 0
2022-11-29 15:13:38 GMT 38.283279 -11.841567 36,000 26 474 0
2022-11-29 15:13:35 GMT 38.276039 -11.846247 36,000 26 474 0
2022-11-29 15:13:31 GMT 38.270035 -11.850068 36,000 26 473 -64
2022-11-29 15:13:26 GMT 38.257599 -11.857988 36,000 26 473 0
2022-11-29 15:13:22 GMT 38.252625 -11.861234 36,000 26 473 64
2022-11-29 15:13:15 GMT 38.237640 -11.870786 36,000 26 473 64
2022-11-29 15:13:12 GMT 38.232143 -11.874250 36,000 26 473 64
2022-11-29 15:13:05 GMT 38.218002 -11.883292 36,000 26 473 0
2022-11-29 15:13:01 GMT 38.210915 -11.887864 35,975 26 473 0
2022-11-29 15:12:56 GMT 38.201324 -11.894014 36,000 26 473 0
2022-11-29 15:12:51 GMT 38.192017 -11.899985 36,000 26 473 0
2022-11-29 15:12:47 GMT 38.184147 -11.905060 36,000 26 472 0
2022-11-29 15:12:44 GMT 38.177032 -11.909589 35,975 26 472 0
2022-11-29 15:12:40 GMT 38.170258 -11.913913 35,975 26 472 0
2022-11-29 15:12:34 GMT 38.158264 -11.921539 35,975 26 472 0
2022-11-29 15:12:31 GMT 38.152542 -11.925192 35,975 26 472 0
2022-11-29 15:12:25 GMT 38.140343 -11.932944 35,975 26 472 -64
2022-11-29 15:12:21 GMT 38.132706 -11.937780 36,000 26 472 -64
2022-11-29 15:12:14 GMT 38.118183 -11.947035 36,000 26 471 -64
2022-11-29 15:12:11 GMT 38.112808 -11.950437 36,000 26 471 -64
2022-11-29 15:12:04 GMT 38.099213 -11.959144 36,000 26 471 0
2022-11-29 15:12:00 GMT 38.091476 -11.964111 36,000 26 471 0
2022-11-29 15:11:53 GMT 38.076611 -11.973605 36,000 26 472 0
2022-11-29 15:11:49 GMT 38.069778 -11.977961 36,000 26 472 0
2022-11-29 15:11:46 GMT 38.063808 -11.981725 36,000 26 472 -64
2022-11-29 15:11:43 GMT 38.058083 -11.985367 36,000 26 472 0
2022-11-29 15:11:39 GMT 38.049892 -11.990562 36,000 26 472 0
2022-11-29 15:11:33 GMT 38.037415 -11.998503 36,000 26 472 0
2022-11-29 15:11:29 GMT 38.031689 -12.002146 36,000 26 472 0
2022-11-29 15:11:25 GMT 38.023132 -12.007589 36,000 26 472 0
2022-11-29 15:11:22 GMT 38.015488 -12.012475 36,000 26 472 0
2022-11-29 15:11:19 GMT 38.011810 -12.014804 36,000 26 472 0
2022-11-29 15:11:13 GMT 37.999054 -12.022900 36,000 26 472 0
2022-11-29 15:11:08 GMT 37.989746 -12.028835 36,000 26 472 0
2022-11-29 15:11:02 GMT 37.979038 -12.035642 36,000 26 472 0
2022-11-29 15:10:59 GMT 37.972286 -12.039881 36,000 26 472 0
2022-11-29 15:10:52 GMT 37.958496 -12.048671 36,025 26 472 0
2022-11-29 15:10:48 GMT 37.950829 -12.053554 36,025 26 472 0
2022-11-29 15:10:45 GMT 37.944637 -12.057495 36,025 26 472 0
2022-11-29 15:10:42 GMT 37.938862 -12.061137 36,025 26 472 -64
2022-11-29 15:10:32 GMT 37.917297 -12.074851 36,025 26 472 0
2022-11-29 15:10:24 GMT 37.904663 -12.082857 36,025 26 472 0
2022-11-29 15:10:18 GMT 37.892357 -12.090633 36,025 26 472 0
2022-11-29 15:10:13 GMT 37.882999 -12.096604 36,025 26 472 64
2022-11-29 15:10:10 GMT 37.876904 -12.100425 36,000 26 472 64
2022-11-29 15:10:02 GMT 37.860657 -12.110695 36,000 26 473 0
2022-11-29 15:09:54 GMT 37.845154 -12.120491 36,025 26 473 0
2022-11-29 15:09:50 GMT 37.837234 -12.125458 36,025 26 473 0
2022-11-29 15:09:43 GMT 37.825275 -12.133026 36,000 26 472 0
2022-11-29 15:09:39 GMT 37.816898 -12.138340 36,000 26 472 0
2022-11-29 15:09:32 GMT 37.799252 -12.149506 36,000 26 472 0
2022-11-29 15:09:20 GMT 37.777885 -12.162940 36,000 26 472 0
2022-11-29 15:09:13 GMT 37.766342 -12.170224 36,000 26 472 0
2022-11-29 15:09:09 GMT 37.756378 -12.176553 36,000 26 472 0
2022-11-29 15:09:01 GMT 37.741062 -12.186226 36,000 26 471 0
2022-11-29 15:08:52 GMT 37.725189 -12.196257 36,000 26 471 0
2022-11-29 15:08:49 GMT 37.717552 -12.201094 36,000 26 471 0
2022-11-29 15:08:41 GMT 37.699631 -12.212356 36,000 26 470 0
2022-11-29 15:08:30 GMT 37.682549 -12.223126 36,000 26 470 0
2022-11-29 15:08:21 GMT 37.663605 -12.235030 36,000 26 470 0
2022-11-29 15:08:12 GMT 37.646980 -12.245517 36,000 26 470 0
2022-11-29 15:08:07 GMT 37.637283 -12.251567 36,000 26 470 0
2022-11-29 15:08:02 GMT 37.626358 -12.258473 36,000 26 470 0
2022-11-29 15:07:57 GMT 37.616863 -12.264384 36,000 26 470 0
2022-11-29 15:07:51 GMT 37.606575 -12.270893 36,000 26 470 0
2022-11-29 15:07:48 GMT 37.599869 -12.275072 36,000 26 470 0
2022-11-29 15:07:40 GMT 37.582489 -12.285987 36,000 26 470 0
2022-11-29 15:07:29 GMT 37.561417 -12.299194 36,000 26 470 0
2022-11-29 15:07:21 GMT 37.547451 -12.307912 36,000 26 470 0
2022-11-29 15:07:16 GMT 37.538143 -12.313763 36,000 26 469 0
2022-11-29 15:07:09 GMT 37.522934 -12.323271 36,000 26 469 0
2022-11-29 15:06:59 GMT 37.503506 -12.335437 36,000 26 469 0
2022-11-29 15:06:50 GMT 37.487541 -12.345468 36,000 26 469 0
2022-11-29 15:06:47 GMT 37.479858 -12.350245 36,000 26 469 0
2022-11-29 15:06:40 GMT 37.467987 -12.357708 36,000 26 469 0
2022-11-29 15:06:34 GMT 37.456192 -12.365054 36,000 26 469 0
2022-11-29 15:06:30 GMT 37.448204 -12.370068 36,000 26 469 64
2022-11-29 15:06:23 GMT 37.434891 -12.378368 35,975 26 469 0
2022-11-29 15:06:19 GMT 37.427345 -12.383085 36,000 26 469 0
2022-11-29 15:06:09 GMT 37.408028 -12.395146 36,000 26 469 -64
2022-11-29 15:05:48 GMT 37.363712 -12.422791 36,000 26 468 -64
2022-11-29 15:05:36 GMT 37.342346 -12.436056 36,000 26 468 -64
2022-11-29 15:05:25 GMT 37.321533 -12.449062 36,025 26 468 64
2022-11-29 15:05:14 GMT 37.300003 -12.462470 36,000 26 467 0
2022-11-29 15:05:04 GMT 37.281361 -12.474020 36,000 26 468 -64
2022-11-29 15:04:54 GMT 37.261482 -12.486380 36,025 26 468 0
2022-11-29 15:04:47 GMT 37.247452 -12.495137 36,025 26 468 64
2022-11-29 15:04:38 GMT 37.230652 -12.505539 36,025 26 468 0
2022-11-29 15:04:28 GMT 37.211426 -12.517518 36,025 26 468 0
2022-11-29 15:04:17 GMT 37.190628 -12.530385 36,000 26 468 0
2022-11-29 15:04:11 GMT 37.177322 -12.538673 36,000 26 468 0
2022-11-29 15:04:04 GMT 37.163677 -12.547103 36,000 26 468 0
2022-11-29 15:03:54 GMT 37.144402 -12.559045 36,000 26 468 0
2022-11-29 15:03:43 GMT 37.123920 -12.571703 36,000 26 468 0
2022-11-29 15:03:34 GMT 37.106277 -12.582570 36,000 26 468 0
2022-11-29 15:03:26 GMT 37.091614 -12.591705 36,000 26 466 0
2022-11-29 15:02:49 GMT 37.016739 -12.637959 36,000 26 466 0
2022-11-29 15:02:37 GMT 36.995949 -12.650757 36,000 26 466 0
2022-11-29 15:02:34 GMT 36.989960 -12.654497 36,000 26 466 0
2022-11-29 15:02:21 GMT 36.962292 -12.671535 36,000 26 466 0
2022-11-29 15:01:40 GMT 36.885635 -12.718720 36,000 26 466 -64
2022-11-29 15:01:15 GMT 36.836380 -12.748947 36,025 26 466 0
2022-11-29 15:01:11 GMT 36.829514 -12.753181 36,025 26 466 0
2022-11-29 15:01:08 GMT 36.823517 -12.756822 36,000 26 466 0
2022-11-29 15:00:38 GMT 36.765236 -12.792527 36,000 26 467 0
2022-11-29 15:00:31 GMT 36.751595 -12.800884 36,000 26 466 0
2022-11-29 15:00:18 GMT 36.726040 -12.816487 36,000 26 466 0
2022-11-29 15:00:08 GMT 36.706924 -12.828140 36,000 26 466 0
2022-11-29 14:59:46 GMT 36.663006 -12.854939 36,000 26 467 0
2022-11-29 14:59:42 GMT 36.657372 -12.858387 36,000 26 466 0
2022-11-29 14:59:38 GMT 36.647923 -12.864172 36,000 26 466 0
2022-11-29 14:59:30 GMT 36.632629 -12.873516 36,000 26 466 0
2022-11-29 14:59:27 GMT 36.628372 -12.876093 36,000 26 466 0
2022-11-29 14:59:18 GMT 36.609695 -12.887478 36,000 26 466 0
2022-11-29 14:59:10 GMT 36.594223 -12.896919 36,000 26 466 0
2022-11-29 14:58:45 GMT 36.546341 -12.926102 36,000 26 466 0
2022-11-29 14:58:20 GMT 36.497726 -12.955742 36,000 26 465 0
2022-11-29 14:58:19 GMT 36.495804 -12.956886 36,000 26 465 0
2022-11-29 14:57:52 GMT 36.441833 -12.989616 36,000 26 464 0
2022-11-29 14:57:49 GMT 36.437805 -12.992077 36,000 26 464 0
2022-11-29 14:57:17 GMT 36.376694 -13.029156 36,000 26 464 0
2022-11-29 14:57:07 GMT 36.357063 -13.041005 36,000 26 463 0
2022-11-29 14:56:44 GMT 36.312790 -13.067780 36,000 26 462 0
2022-11-29 14:56:24 GMT 36.273514 -13.091412 36,000 25 463 -64
2022-11-29 14:56:16 GMT 36.257492 -13.101025 36,025 27 444 64
We lost coverage of the aircraft here for a total of 29 minutes
2022-11-29 14:27:35 GMT 33.002609 -14.980298 36,000 25 444 0
2022-11-29 14:27:16 GMT 32.966946 -14.999981 36,000 25 444 0
2022-11-29 14:27:14 GMT 32.961266 -15.003120 36,000 25 444 0
2022-11-29 14:27:04 GMT 32.946579 -15.011224 36,000 25 444 0
2022-11-29 14:26:31 GMT 32.883663 -15.046001 36,000 24 444 0
2022-11-29 14:26:22 GMT 32.864761 -15.056370 36,025 24 444 0
2022-11-29 14:26:13 GMT 32.848114 -15.065552 36,000 24 444 0
2022-11-29 14:25:57 GMT 32.820072 -15.080977 36,000 24 444 0
2022-11-29 14:25:54 GMT 32.814671 -15.083948 36,000 24 443 0
2022-11-29 14:25:40 GMT 32.788975 -15.098074 36,000 24 443 0
2022-11-29 14:23:51 GMT 32.585823 -15.209618 36,000 24 441 0
2022-11-29 14:23:47 GMT 32.576653 -15.214663 36,000 24 442 0
2022-11-29 14:23:36 GMT 32.558212 -15.224744 36,000 24 440 0
2022-11-29 14:23:26 GMT 32.540176 -15.234576 36,000 24 440 0
2022-11-29 14:23:16 GMT 32.520649 -15.245268 36,000 24 440 0
2022-11-29 14:23:05 GMT 32.501266 -15.255835 36,000 24 440 -64
2022-11-29 14:22:59 GMT 32.488525 -15.262812 36,000 24 440 0
2022-11-29 14:22:54 GMT 32.480473 -15.267185 36,000 24 439 0
2022-11-29 14:22:44 GMT 32.462357 -15.277094 36,000 24 439 0
2022-11-29 14:22:34 GMT 32.444046 -15.287091 36,000 24 439 0
2022-11-29 14:22:27 GMT 32.428894 -15.295331 36,000 24 439 0
2022-11-29 14:22:24 GMT 32.426289 -15.296780 36,000 24 439 0
2022-11-29 14:22:14 GMT 32.407379 -15.307086 36,000 24 438 0
2022-11-29 14:22:05 GMT 32.387417 -15.317968 36,000 24 438 0
2022-11-29 14:21:54 GMT 32.370163 -15.327356 36,000 24 438 0
2022-11-29 14:21:51 GMT 32.365723 -15.329795 36,000 24 438 0
2022-11-29 14:21:44 GMT 32.350128 -15.338259 36,000 24 438 -64
2022-11-29 14:21:33 GMT 32.331940 -15.348175 36,000 24 438 0
2022-11-29 14:21:24 GMT 32.312897 -15.358557 36,000 24 438 0
2022-11-29 14:21:13 GMT 32.294174 -15.368774 36,000 24 438 0
2022-11-29 14:21:01 GMT 32.272385 -15.380579 36,000 24 438 0
2022-11-29 14:20:51 GMT 32.254044 -15.390556 36,000 24 438 0
2022-11-29 14:20:42 GMT 32.237053 -15.399805 36,000 24 438 0
2022-11-29 14:20:33 GMT 32.218597 -15.409808 36,000 24 438 0
2022-11-29 14:20:21 GMT 32.198738 -15.420545 36,000 24 438 0
2022-11-29 14:20:10 GMT 32.178497 -15.431451 36,000 24 438 0
2022-11-29 14:19:59 GMT 32.158333 -15.442349 36,000 24 438 0
2022-11-29 14:19:51 GMT 32.144302 -15.449908 36,000 24 438 0
2022-11-29 14:19:44 GMT 32.128120 -15.458717 36,000 24 438 0
2022-11-29 14:19:41 GMT 32.124630 -15.460622 36,000 24 438 0
2022-11-29 14:19:36 GMT 32.115273 -15.465667 36,000 24 438 0
2022-11-29 14:19:31 GMT 32.106079 -15.470673 36,000 24 438 0
2022-11-29 14:19:26 GMT 32.097107 -15.475507 36,000 24 438 0
2022-11-29 14:19:20 GMT 32.086967 -15.480969 36,000 24 438 0
2022-11-29 14:19:14 GMT 32.072662 -15.488690 36,000 24 438 0
2022-11-29 14:19:10 GMT 32.067627 -15.491382 36,000 24 438 0
2022-11-29 14:19:01 GMT 32.049587 -15.501148 36,000 24 438 0
2022-11-29 14:18:50 GMT 32.030411 -15.511542 36,000 24 438 0
2022-11-29 14:18:44 GMT 32.018909 -15.517740 36,000 24 438 0
2022-11-29 14:18:40 GMT 32.012283 -15.521320 36,000 24 438 0
2022-11-29 14:18:30 GMT 31.993423 -15.531482 36,000 24 438 0
2022-11-29 14:18:26 GMT 31.985413 -15.535822 36,000 24 438 0
2022-11-29 14:18:17 GMT 31.968864 -15.544757 36,000 24 438 0
2022-11-29 14:18:10 GMT 31.954853 -15.552325 36,000 24 438 0
2022-11-29 14:18:06 GMT 31.947870 -15.556024 36,000 24 438 -64
2022-11-29 14:17:59 GMT 31.935860 -15.562526 36,000 24 438 -64
2022-11-29 14:17:55 GMT 31.928696 -15.566364 36,025 24 438 -64
2022-11-29 14:17:48 GMT 31.916353 -15.573008 36,025 24 438 -64
2022-11-29 14:17:45 GMT 31.910339 -15.576251 36,025 24 438 0
2022-11-29 14:17:36 GMT 31.893356 -15.585370 36,025 24 438 0
2022-11-29 14:17:26 GMT 31.875275 -15.595093 36,025 24 438 0
2022-11-29 14:17:19 GMT 31.861004 -15.602772 36,025 24 438 64
2022-11-29 14:17:13 GMT 31.848587 -15.609485 36,025 24 438 0
2022-11-29 14:17:07 GMT 31.840805 -15.613660 36,025 24 438 64
2022-11-29 14:17:04 GMT 31.833445 -15.617626 36,000 24 438 64
2022-11-29 14:16:57 GMT 31.822878 -15.623287 36,000 24 438 0
2022-11-29 14:16:53 GMT 31.814941 -15.627557 36,000 24 438 0
2022-11-29 14:16:47 GMT 31.804070 -15.633433 36,000 24 438 0
2022-11-29 14:16:37 GMT 31.786102 -15.643103 36,000 24 438 0
2022-11-29 14:16:27 GMT 31.767387 -15.653156 36,000 24 438 0
2022-11-29 14:16:17 GMT 31.747137 -15.663977 36,000 24 437 0
2022-11-29 14:16:05 GMT 31.725586 -15.675498 36,000 24 437 0
2022-11-29 14:15:56 GMT 31.709755 -15.683972 36,000 24 437 0
2022-11-29 14:15:47 GMT 31.691757 -15.693593 36,000 24 437 -64
2022-11-29 14:15:36 GMT 31.672375 -15.704022 36,025 24 436 -64
2022-11-29 14:15:26 GMT 31.653397 -15.714165 36,025 24 436 -64
2022-11-29 14:15:23 GMT 31.648399 -15.716821 36,025 24 436 0
2022-11-29 14:15:14 GMT 31.629219 -15.727148 36,025 24 436 0
2022-11-29 14:15:05 GMT 31.614807 -15.734845 36,025 24 436 0
2022-11-29 14:14:56 GMT 31.597284 -15.744177 36,025 24 436 0
2022-11-29 14:14:45 GMT 31.579239 -15.753802 36,025 24 436 0
2022-11-29 14:14:43 GMT 31.575871 -15.755603 36,025 24 436 0
2022-11-29 14:14:34 GMT 31.558319 -15.764950 36,025 24 436 0
2022-11-29 14:14:30 GMT 31.551617 -15.768512 36,025 24 436 0
2022-11-29 14:14:25 GMT 31.541237 -15.774060 36,025 24 435 0
2022-11-29 14:14:22 GMT 31.536674 -15.776477 36,025 24 435 0
2022-11-29 14:14:12 GMT 31.519403 -15.785706 36,025 24 435 0
2022-11-29 14:14:02 GMT 31.482674 -15.805261 35,975 24 433 64
2022-11-29 14:13:52 GMT 31.465868 -15.814215 35,975 24 433 64
2022-11-29 14:13:44 GMT 31.447449 -15.823975 35,975 24 434 64
2022-11-29 14:13:33 GMT 31.447449 -15.823975 35,975 24 434 64
2022-11-29 14:13:26 GMT 31.434357 -15.830976 35,975 24 433 64
2022-11-29 14:13:24 GMT 31.428360 -15.834153 35,975 24 433 64
2022-11-29 14:13:13 GMT 31.397141 -15.850794 35,950 24 429 0
2022-11-29 14:13:06 GMT 31.397141 -15.850794 35,975 24 432 0
2022-11-29 14:13:03 GMT 31.391830 -15.853595 35,950 24 432 0
2022-11-29 14:12:56 GMT 31.381119 -15.859303 35,950 24 431 0
2022-11-29 14:12:51 GMT 31.371040 -15.864697 35,950 24 430 0
2022-11-29 14:12:46 GMT 31.362894 -15.868982 35,950 24 430 0
2022-11-29 14:12:42 GMT 31.353584 -15.873926 35,950 24 430 0
2022-11-29 14:12:33 GMT 31.336166 -15.883161 35,950 24 430 0
2022-11-29 14:12:22 GMT 31.317123 -15.893232 35,950 24 429 0
2022-11-29 14:12:12 GMT 31.299164 -15.902765 35,950 24 428 0
2022-11-29 14:12:07 GMT 31.290985 -15.907072 35,950 24 428 0
2022-11-29 14:12:01 GMT 31.279240 -15.913312 35,950 24 428 0
2022-11-29 14:11:52 GMT 31.262650 -15.922098 35,950 24 427 0
2022-11-29 14:11:46 GMT 31.252985 -15.927209 35,950 24 427 0
2022-11-29 14:11:36 GMT 31.235092 -15.936746 35,950 24 427 -64
2022-11-29 14:11:30 GMT 31.223749 -15.942700 35,975 24 427 -64
2022-11-29 14:11:27 GMT 31.218430 -15.945524 35,975 24 427 -64
2022-11-29 14:11:17 GMT 31.199589 -15.955499 35,975 24 428 -64
2022-11-29 14:11:10 GMT 31.189068 -15.961047 35,975 24 428 -64
2022-11-29 14:11:07 GMT 31.181992 -15.964783 35,975 24 427 -64
2022-11-29 14:10:59 GMT 31.167189 -15.972528 36,000 24 427 -64
2022-11-29 14:10:56 GMT 31.162582 -15.974983 36,000 24 427 -64
2022-11-29 14:10:49 GMT 31.150681 -15.981230 36,000 24 428 -64
2022-11-29 14:10:44 GMT 31.141251 -15.986185 36,000 24 428 -128
2022-11-29 14:10:40 GMT 31.133881 -15.990008 36,025 24 429 -128
2022-11-29 14:10:31 GMT 31.117950 -15.998409 36,025 24 429 -64
2022-11-29 14:10:27 GMT 31.109848 -16.002665 36,025 24 430 -64
2022-11-29 14:10:23 GMT 31.101736 -16.006914 36,050 24 430 -64
2022-11-29 14:10:19 GMT 31.095154 -16.010365 36,050 24 430 -64
2022-11-29 14:10:14 GMT 31.086794 -16.014715 36,050 24 431 -64
2022-11-29 14:10:10 GMT 31.077209 -16.019735 36,050 24 431 -64
2022-11-29 14:10:05 GMT 31.072222 -16.022350 36,050 24 431 0
2022-11-29 14:09:55 GMT 31.052996 -16.032457 36,050 24 432 64
2022-11-29 14:09:46 GMT 31.036098 -16.040918 36,050 20 434 0
2022-11-29 14:09:36 GMT 31.016876 -16.048710 36,025 16 436 64
2022-11-29 14:09:28 GMT 31.000671 -16.053827 36,025 10 440 64
2022-11-29 14:09:25 GMT 30.995363 -16.055201 36,025 11 439 64
2022-11-29 14:09:18 GMT 30.980143 -16.058386 36,025 8 441 0
2022-11-29 14:09:15 GMT 30.976273 -16.059050 36,025 7 442 0
2022-11-29 14:09:06 GMT 30.956314 -16.061365 36,025 3 443 0
2022-11-29 14:08:56 GMT 30.935452 -16.062725 36,025 2 444 0
2022-11-29 14:08:46 GMT 30.915253 -16.063950 36,025 2 445 0
2022-11-29 14:08:36 GMT 30.893967 -16.065243 36,025 2 445 0
2022-11-29 14:08:26 GMT 30.873138 -16.066483 36,025 2 445 0
2022-11-29 14:08:16 GMT 30.852543 -16.067724 36,025 2 445 0
2022-11-29 14:08:06 GMT 30.831757 -16.069014 36,025 2 445 64
2022-11-29 14:07:55 GMT 30.810104 -16.070305 36,025 3 446 0
2022-11-29 14:07:44 GMT 30.786942 -16.071758 36,025 2 446 0
2022-11-29 14:07:35 GMT 30.769867 -16.072783 36,025 2 446 0
2022-11-29 14:07:25 GMT 30.748032 -16.074076 36,025 2 445 0
2022-11-29 14:07:15 GMT 30.727753 -16.075314 36,025 2 445 0
2022-11-29 14:07:05 GMT 30.707439 -16.076513 36,025 3 445 0
2022-11-29 14:06:55 GMT 30.685932 -16.077831 36,025 2 445 64
2022-11-29 14:06:44 GMT 30.665085 -16.079138 36,025 2 445 0
2022-11-29 14:06:35 GMT 30.644640 -16.080359 36,000 2 444 64
2022-11-29 14:06:25 GMT 30.623831 -16.081568 36,000 2 444 64
2022-11-29 14:06:15 GMT 30.603441 -16.082830 35,975 2 443 64
2022-11-29 14:06:05 GMT 30.582047 -16.084146 35,975 3 443 64
2022-11-29 14:05:54 GMT 30.545609 -16.086353 35,950 2 440 -64
2022-11-29 14:05:44 GMT 30.541388 -16.086620 35,950 3 442 0
2022-11-29 14:05:34 GMT 30.499741 -16.089209 35,975 2 440 -64
2022-11-29 14:05:24 GMT 30.499741 -16.089209 35,975 3 440 0
2022-11-29 14:05:17 GMT 30.483057 -16.090246 35,975 2 440 -64
2022-11-29 14:05:14 GMT 30.479004 -16.090446 35,975 2 440 -64
2022-11-29 14:05:10 GMT 30.470070 -16.091017 35,975 2 439 0
2022-11-29 14:05:03 GMT 30.456102 -16.091841 35,975 2 439 -64
2022-11-29 14:04:54 GMT 30.438126 -16.092924 35,975 2 439 0
2022-11-29 14:04:52 GMT 30.433731 -16.093193 35,975 2 439 0
2022-11-29 14:04:42 GMT 30.415100 -16.094324 36,000 3 438 -64
2022-11-29 14:04:34 GMT 30.397202 -16.095402 36,000 3 438 0
2022-11-29 14:04:30 GMT 30.390465 -16.095795 36,000 3 438 0
2022-11-29 14:04:24 GMT 30.377569 -16.096619 36,000 3 438 0
2022-11-29 14:04:22 GMT 30.372541 -16.096893 36,000 3 438 0
2022-11-29 14:04:14 GMT 30.356277 -16.097879 36,000 3 438 0
2022-11-29 14:04:04 GMT 30.335766 -16.099091 36,000 3 438 0
2022-11-29 14:03:54 GMT 30.315235 -16.100353 36,000 2 439 0
2022-11-29 14:03:44 GMT 30.295078 -16.101562 36,000 2 439 0
2022-11-29 14:03:40 GMT 30.286880 -16.102026 36,000 2 439 -64
2022-11-29 14:03:33 GMT 30.274689 -16.102772 36,000 2 439 0
2022-11-29 14:03:25 GMT 30.257172 -16.103804 36,000 2 439 0
2022-11-29 14:03:22 GMT 30.253464 -16.104017 36,000 2 439 64
2022-11-29 14:03:18 GMT 30.243732 -16.104639 36,000 2 440 64
2022-11-29 14:03:13 GMT 30.234192 -16.105204 36,000 2 440 64
2022-11-29 14:03:10 GMT 30.227142 -16.105635 36,000 2 440 0
2022-11-29 14:03:02 GMT 30.212170 -16.106506 36,000 2 440 0
2022-11-29 14:02:56 GMT 30.196016 -16.107494 36,000 2 440 0
2022-11-29 14:02:53 GMT 30.191965 -16.107716 36,000 2 440 0
2022-11-29 14:02:47 GMT 30.179955 -16.108429 36,000 2 439 0
2022-11-29 14:02:42 GMT 30.171204 -16.108973 36,000 3 438 0
2022-11-29 14:02:39 GMT 30.163849 -16.109419 36,000 3 438 0
2022-11-29 14:02:31 GMT 30.148439 -16.110352 36,000 3 437 0
2022-11-29 14:02:23 GMT 30.130829 -16.111450 36,000 3 436 -64
2022-11-29 14:02:17 GMT 30.120136 -16.112108 36,025 3 435 0
2022-11-29 14:02:13 GMT 30.111151 -16.112659 36,000 3 434 0
2022-11-29 14:02:03 GMT 30.090900 -16.113867 36,000 3 434 64
2022-11-29 14:01:53 GMT 30.070770 -16.115112 36,000 3 434 -64
2022-11-29 14:01:42 GMT 30.050308 -16.116405 36,000 3 432 192
2022-11-29 14:01:31 GMT 30.028988 -16.117657 35,925 2 431 832
2022-11-29 14:01:22 GMT 30.009575 -16.118811 35,725 2 433 1536
2022-11-29 14:01:16 GMT 29.995749 -16.119635 35,550 3 437 1536
2022-11-29 14:01:12 GMT 29.988905 -16.120020 35,450 3 436 1536
2022-11-29 14:01:06 GMT 29.976746 -16.120768 35,300 3 438 1408
2022-11-29 14:01:02 GMT 29.968872 -16.121199 35,225 2 439 1344
2022-11-29 14:00:52 GMT 29.948685 -16.122437 35,025 3 441 1088
2022-11-29 14:00:47 GMT 29.937881 -16.123083 34,925 3 441 1152
2022-11-29 14:00:41 GMT 29.926945 -16.123755 34,825 2 442 1152
2022-11-29 14:00:31 GMT 29.906158 -16.125025 34,625 2 444 1216
2022-11-29 14:00:22 GMT 29.885651 -16.126240 34,425 2 445 1088
2022-11-29 14:00:11 GMT 29.865261 -16.127445 34,275 2 446 960
2022-11-29 14:00:00 GMT 29.843170 -16.128828 34,125 3 446 832
2022-11-29 13:59:51 GMT 29.823807 -16.129990 33,975 2 446 896
2022-11-29 13:59:41 GMT 29.803207 -16.131214 33,825 2 445 896
2022-11-29 13:59:30 GMT 29.780411 -16.132578 33,650 2 445 896
2022-11-29 13:59:21 GMT 29.761497 -16.133692 33,550 3 445 704
2022-11-29 13:59:11 GMT 29.740768 -16.134954 33,425 3 444 704
2022-11-29 13:59:06 GMT 29.727562 -16.135792 33,350 2 443 704
2022-11-29 13:59:00 GMT 29.718018 -16.136332 33,300 2 442 704
2022-11-29 13:58:55 GMT 29.707581 -16.136963 33,225 2 441 896
2022-11-29 13:58:51 GMT 29.698883 -16.137489 33,150 2 442 896
2022-11-29 13:58:41 GMT 29.678635 -16.138700 33,025 2 441 896
2022-11-29 13:58:31 GMT 29.657780 -16.139994 32,875 2 440 832
2022-11-29 13:58:20 GMT 29.636856 -16.141239 32,750 2 439 832
2022-11-29 13:58:11 GMT 29.616348 -16.142454 32,575 2 439 1088
2022-11-29 13:58:01 GMT 29.596237 -16.143656 32,375 2 439 1344
2022-11-29 13:57:50 GMT 29.576294 -16.144884 32,150 2 441 1472
2022-11-29 13:57:40 GMT 29.555191 -16.146099 31,900 2 442 1408
2022-11-29 13:57:29 GMT 29.533859 -16.147367 31,625 2 444 1536
2022-11-29 13:57:24 GMT 29.518799 -16.148266 31,475 2 445 1152
2022-11-29 13:57:19 GMT 29.513489 -16.148582 31,425 2 445 1088
2022-11-29 13:57:10 GMT 29.493210 -16.149744 31,275 2 444 832
2022-11-29 13:57:00 GMT 29.472931 -16.150906 31,150 2 443 640
2022-11-29 13:56:50 GMT 29.451736 -16.152121 31,025 2 441 896
2022-11-29 13:56:39 GMT 29.430084 -16.153440 30,850 2 440 960
2022-11-29 13:56:29 GMT 29.409668 -16.154655 30,700 3 438 768
2022-11-29 13:56:19 GMT 29.389174 -16.155933 30,600 3 436 512
2022-11-29 13:56:09 GMT 29.369156 -16.157139 30,525 3 433 768
2022-11-29 13:55:59 GMT 29.349197 -16.158300 30,375 3 432 1024
2022-11-29 13:55:49 GMT 29.328749 -16.159542 30,200 2 431 960
2022-11-29 13:55:39 GMT 29.308729 -16.160727 30,050 2 429 768
2022-11-29 13:55:29 GMT 29.289131 -16.161858 29,925 2 427 832
2022-11-29 13:55:19 GMT 29.268997 -16.163054 29,775 2 425 832
2022-11-29 13:55:08 GMT 29.247208 -16.164322 29,625 2 423 896
2022-11-29 13:54:59 GMT 29.229637 -16.165359 29,475 2 422 896
2022-11-29 13:54:49 GMT 29.209715 -16.166597 29,350 2 420 768
2022-11-29 13:54:39 GMT 29.190395 -16.167728 29,200 3 417 960
2022-11-29 13:54:28 GMT 29.169865 -16.168966 29,050 3 416 960
2022-11-29 13:54:17 GMT 29.150406 -16.170097 28,875 3 414 960
2022-11-29 13:54:08 GMT 29.132298 -16.171175 28,725 3 412 896
2022-11-29 13:54:01 GMT 29.117981 -16.172033 28,600 2 411 896
2022-11-29 13:53:58 GMT 29.112534 -16.172350 28,550 2 410 896
2022-11-29 13:53:51 GMT 29.098801 -16.173195 28,450 2 408 896
2022-11-29 13:53:48 GMT 29.093380 -16.173491 28,400 2 408 960
2022-11-29 13:53:38 GMT 29.074804 -16.174568 28,250 2 406 1088
2022-11-29 13:53:28 GMT 29.055725 -16.175732 28,025 2 405 1344
2022-11-29 13:53:20 GMT 29.041288 -16.176559 27,850 2 405 1600
2022-11-29 13:53:17 GMT 29.035608 -16.176884 27,750 2 405 1664
2022-11-29 13:53:08 GMT 29.017778 -16.177908 27,500 2 406 1536
2022-11-29 13:52:58 GMT 28.998878 -16.179037 27,225 3 407 1792
2022-11-29 13:52:48 GMT 28.980606 -16.180168 26,975 2 407 1472
2022-11-29 13:52:38 GMT 28.961151 -16.181276 26,725 2 407 1216
2022-11-29 13:52:28 GMT 28.942291 -16.182440 26,550 2 405 1088
2022-11-29 13:52:17 GMT 28.922653 -16.183601 26,375 2 403 1088
2022-11-29 13:52:07 GMT 28.904297 -16.184656 26,150 2 401 1472
2022-11-29 13:52:00 GMT 28.890457 -16.185499 25,950 2 401 1472
2022-11-29 13:51:57 GMT 28.885710 -16.185768 25,900 2 401 1472
2022-11-29 13:51:50 GMT 28.872940 -16.186506 25,750 3 400 1344
2022-11-29 13:51:46 GMT 28.865553 -16.186954 25,650 3 400 1344
2022-11-29 13:51:36 GMT 28.846279 -16.188086 25,450 3 398 1280
2022-11-29 13:51:30 GMT 28.835220 -16.188725 25,300 3 397 1216
2022-11-29 13:51:26 GMT 28.827530 -16.189199 25,225 3 397 1280
2022-11-29 13:51:20 GMT 28.816347 -16.189861 25,075 3 395 1216
2022-11-29 13:51:17 GMT 28.810389 -16.190239 25,025 3 395 1152
2022-11-29 13:51:15 GMT 28.808479 -16.190348 25,000 3 395 1152
2022-11-29 13:51:07 GMT 28.791721 -16.191317 24,825 3 392 1152
2022-11-29 13:51:05 GMT 28.789860 -16.191423 24,800 3 392 1152
2022-11-29 13:50:59 GMT 28.778458 -16.192104 24,675 3 391 1344
2022-11-29 13:50:55 GMT 28.771423 -16.192554 24,575 2 390 1408
2022-11-29 13:50:47 GMT 28.757599 -16.193363 24,350 2 389 1600
2022-11-29 13:50:44 GMT 28.752411 -16.193636 24,300 2 389 1600
2022-11-29 13:50:38 GMT 28.740509 -16.194323 24,125 2 389 1664
2022-11-29 13:50:35 GMT 28.734741 -16.194693 24,050 2 389 1600
2022-11-29 13:50:25 GMT 28.716352 -16.195732 23,800 2 388 1344
2022-11-29 13:50:17 GMT 28.702341 -16.196541 23,600 2 386 1216
2022-11-29 13:50:14 GMT 28.697937 -16.196806 23,575 2 385 1152
2022-11-29 13:50:06 GMT 28.682789 -16.197672 23,425 2 383 1152
2022-11-29 13:50:04 GMT 28.679352 -16.197914 23,375 2 382 1152
2022-11-29 13:49:56 GMT 28.664959 -16.198748 23,225 3 379 1088
2022-11-29 13:49:53 GMT 28.659979 -16.199018 23,175 3 379 1088
2022-11-29 13:49:46 GMT 28.647177 -16.199825 23,050 3 376 1216
2022-11-29 13:49:43 GMT 28.643778 -16.200041 23,000 3 375 1216
2022-11-29 13:49:36 GMT 28.629906 -16.200850 22,850 3 373 1216
2022-11-29 13:49:33 GMT 28.625290 -16.201138 22,775 3 372 1216
2022-11-29 13:49:26 GMT 28.612217 -16.201925 22,600 2 370 1600
2022-11-29 13:49:23 GMT 28.607700 -16.202141 22,550 2 370 1664
2022-11-29 13:49:15 GMT 28.594894 -16.202932 22,300 2 370 1920
2022-11-29 13:49:13 GMT 28.590755 -16.203163 22,225 2 370 1856
2022-11-29 13:49:05 GMT 28.577408 -16.203936 22,000 2 370 1920
2022-11-29 13:49:02 GMT 28.572876 -16.204201 21,900 2 370 2112
2022-11-29 13:48:55 GMT 28.560425 -16.204887 21,600 2 371 2624
2022-11-29 13:48:52 GMT 28.555189 -16.205156 21,475 2 372 2624
2022-11-29 13:48:45 GMT 28.542984 -16.205837 21,200 2 374 2112
2022-11-29 13:48:42 GMT 28.537399 -16.206154 21,100 2 374 1792
2022-11-29 13:48:35 GMT 28.525536 -16.206827 20,900 2 373 1472
2022-11-29 13:48:32 GMT 28.520004 -16.207106 20,825 2 372 1536
2022-11-29 13:48:24 GMT 28.506727 -16.207850 20,625 2 371 1792
2022-11-29 13:48:21 GMT 28.502380 -16.208109 20,525 2 370 2048
2022-11-29 13:48:14 GMT 28.489365 -16.208818 20,250 2 370 2240
2022-11-29 13:48:11 GMT 28.484524 -16.209087 20,150 2 370 2112
2022-11-29 13:48:04 GMT 28.471893 -16.209745 19,950 2 370 1728
2022-11-29 13:48:01 GMT 28.467392 -16.209949 19,850 2 369 1664
2022-11-29 13:47:54 GMT 28.455002 -16.210432 19,625 1 368 1920
2022-11-29 13:47:50 GMT 28.448822 -16.210539 19,500 0 369 2048
2022-11-29 13:47:43 GMT 28.437086 -16.209896 19,300 355 370 2112
2022-11-29 13:47:40 GMT 28.432297 -16.209059 19,175 350 373 2240
2022-11-29 13:47:33 GMT 28.419800 -16.205521 18,950 343 375 1984
2022-11-29 13:47:30 GMT 28.415039 -16.203619 18,825 338 377 1920
2022-11-29 13:47:24 GMT 28.405701 -16.198917 18,625 335 378 1856
2022-11-29 13:47:20 GMT 28.398560 -16.195114 18,500 335 377 1728
2022-11-29 13:47:13 GMT 28.387573 -16.189253 18,300 335 374 1728
2022-11-29 13:47:09 GMT 28.382355 -16.186453 18,200 335 373 1856
2022-11-29 13:47:04 GMT 28.373749 -16.181858 18,025 335 372 1920
2022-11-29 13:47:02 GMT 28.371122 -16.180492 17,975 335 372 1920
2022-11-29 13:46:59 GMT 28.365908 -16.177691 17,875 335 371 1920
2022-11-29 13:46:54 GMT 28.358093 -16.173565 17,700 335 370 1856
2022-11-29 13:46:49 GMT 28.350082 -16.169287 17,550 335 369 1600
2022-11-29 13:46:44 GMT 28.339514 -16.163635 17,400 335 365 1152
2022-11-29 13:46:39 GMT 28.334335 -16.160889 17,350 335 363 960
2022-11-29 13:46:34 GMT 28.326664 -16.156851 17,275 335 358 832
2022-11-29 13:46:32 GMT 28.324539 -16.155712 17,250 335 357 768
2022-11-29 13:46:28 GMT 28.318563 -16.152540 17,200 335 354 768
2022-11-29 13:46:24 GMT 28.311674 -16.148933 17,150 335 350 768
2022-11-29 13:46:21 GMT 28.308655 -16.147314 17,125 335 348 768
2022-11-29 13:46:17 GMT 28.302691 -16.144140 17,075 335 345 768
2022-11-29 13:46:14 GMT 28.294556 -16.139868 17,000 335 339 768
2022-11-29 13:46:12 GMT 28.294556 -16.139868 17,000 335 339 768
2022-11-29 13:46:08 GMT 28.289330 -16.137085 16,950 335 335 768
2022-11-29 13:46:04 GMT 28.283340 -16.133844 16,875 335 331 896
2022-11-29 13:46:01 GMT 28.280111 -16.132130 16,850 335 329 960
2022-11-29 13:45:57 GMT 28.274666 -16.129223 16,775 335 326 1280
2022-11-29 13:45:54 GMT 28.269379 -16.126398 16,675 335 324 1856
2022-11-29 13:45:51 GMT 28.265350 -16.124231 16,575 335 323 2112
2022-11-29 13:45:47 GMT 28.260681 -16.121803 16,450 336 323 2560
2022-11-29 13:45:44 GMT 28.255486 -16.119150 16,275 337 321 2496
2022-11-29 13:45:41 GMT 28.252274 -16.117537 16,175 339 321 2368
2022-11-29 13:45:37 GMT 28.247223 -16.115412 16,050 345 319 2048
2022-11-29 13:45:33 GMT 28.240997 -16.113564 15,900 350 317 1920
2022-11-29 13:45:31 GMT 28.237793 -16.113035 15,850 355 314 1792
2022-11-29 13:45:26 GMT 28.231384 -16.112665 15,700 1 311 1728
2022-11-29 13:45:23 GMT 28.226297 -16.113066 15,600 8 307 1856
2022-11-29 13:45:21 GMT 28.223099 -16.113617 15,525 11 305 1984
2022-11-29 13:45:17 GMT 28.217880 -16.115042 15,400 18 303 2112
2022-11-29 13:45:13 GMT 28.212610 -16.117266 15,250 24 301 2176
2022-11-29 13:45:10 GMT 28.209633 -16.118828 15,175 29 299 2176
2022-11-29 13:45:06 GMT 28.204884 -16.122061 15,025 34 299 2240
2022-11-29 13:45:03 GMT 28.201019 -16.125292 14,900 41 298 2176
2022-11-29 13:45:00 GMT 28.198105 -16.128246 14,800 45 297 2112
2022-11-29 13:44:56 GMT 28.194641 -16.132507 14,675 50 296 2048
2022-11-29 13:44:53 GMT 28.191338 -16.137354 14,525 57 294 2048
2022-11-29 13:44:50 GMT 28.189453 -16.140606 14,450 60 294 2048
2022-11-29 13:44:46 GMT 28.186890 -16.145941 14,300 65 293 2240
2022-11-29 13:44:43 GMT 28.184967 -16.150852 14,150 67 293 2496
2022-11-29 13:44:40 GMT 28.183516 -16.154802 14,050 68 293 2624
2022-11-29 13:44:36 GMT 28.181442 -16.160572 13,850 68 293 2816
2022-11-29 13:44:33 GMT 28.179840 -16.165113 13,700 68 293 2944
2022-11-29 13:44:30 GMT 28.178421 -16.169128 13,550 68 293 3008
2022-11-29 13:44:26 GMT 28.176348 -16.174999 13,350 68 294 3008
2022-11-29 13:44:23 GMT 28.174759 -16.179535 13,200 68 295 2944
2022-11-29 13:44:19 GMT 28.173182 -16.184046 13,050 68 295 2944
2022-11-29 13:44:13 GMT 28.169769 -16.194006 12,725 68 296 2752
2022-11-29 13:44:09 GMT 28.167938 -16.199236 12,550 68 296 2624
2022-11-29 13:44:05 GMT 28.166199 -16.204306 12,400 68 295 2432
2022-11-29 13:44:02 GMT 28.164734 -16.208584 12,300 68 294 2368
2022-11-29 13:43:59 GMT 28.162987 -16.213720 12,150 69 293 2368
2022-11-29 13:43:55 GMT 28.161219 -16.218998 12,000 68 292 2432
2022-11-29 13:43:52 GMT 28.159836 -16.223108 11,875 69 292 2496
2022-11-29 13:43:49 GMT 28.158096 -16.228180 11,725 69 292 2624
2022-11-29 13:43:45 GMT 28.156282 -16.233591 11,550 69 290 2688
2022-11-29 13:43:42 GMT 28.155075 -16.237265 11,450 69 290 2752
2022-11-29 13:43:38 GMT 28.153152 -16.243023 11,250 69 290 2816
2022-11-29 13:43:35 GMT 28.151487 -16.248186 11,075 69 290 2944
2022-11-29 13:43:32 GMT 28.150372 -16.251635 10,975 70 290 2944
2022-11-29 13:43:28 GMT 28.148649 -16.257019 10,775 70 290 2880
2022-11-29 13:43:22 GMT 28.145761 -16.265959 10,475 70 290 2752
2022-11-29 13:43:18 GMT 28.143993 -16.271614 10,300 70 290 2816
2022-11-29 13:43:12 GMT 28.141062 -16.280716 10,000 70 288 2688
2022-11-29 13:43:08 GMT 28.139145 -16.286757 9,825 69 288 2688
2022-11-29 13:43:02 GMT 28.136627 -16.294519 9,575 69 286 2816
2022-11-29 13:42:58 GMT 28.134590 -16.300695 9,350 69 286 2880
2022-11-29 13:42:52 GMT 28.131912 -16.308783 9,075 69 285 2944
2022-11-29 13:42:47 GMT 28.129898 -16.314909 8,850 69 284 2944
2022-11-29 13:42:43 GMT 28.127792 -16.321215 8,650 69 283 2752
2022-11-29 13:42:39 GMT 28.126007 -16.326633 8,475 69 283 2624
2022-11-29 13:42:37 GMT 28.125000 -16.329723 8,375 69 281 2496
2022-11-29 13:42:33 GMT 28.123184 -16.335270 7,925 69 279 2432
2022-11-29 13:42:26 GMT 28.120298 -16.344103 7,925 69 277 2816
2022-11-29 13:42:22 GMT 28.118546 -16.349400 7,750 69 276 3008
2022-11-29 13:42:17 GMT 28.115923 -16.357512 7,450 69 276 3136
2022-11-29 13:42:13 GMT 28.114197 -16.362762 7,225 69 276 3328
2022-11-29 13:42:07 GMT 28.111500 -16.371082 6,900 69 276 3136
2022-11-29 13:42:02 GMT 28.109528 -16.377024 6,675 69 275 2944
2022-11-29 13:41:56 GMT 28.106964 -16.384893 6,400 69 273 2752
2022-11-29 13:41:52 GMT 28.105169 -16.390308 6,200 69 271 2688
2022-11-29 13:41:46 GMT 28.102562 -16.398279 5,925 69 269 2880
2022-11-29 13:41:42 GMT 28.100555 -16.404436 5,700 69 267 3072
2022-11-29 13:41:36 GMT 28.098038 -16.412148 5,400 69 266 3136
2022-11-29 13:41:31 GMT 28.096161 -16.417852 5,150 69 266 3200
2022-11-29 13:41:26 GMT 28.093826 -16.425142 4,850 69 265 3200
2022-11-29 13:41:21 GMT 28.091721 -16.431480 4,600 69 264 3328
2022-11-29 13:41:15 GMT 28.089386 -16.438610 4,275 69 264 3584
2022-11-29 13:41:10 GMT 28.087143 -16.445530 3,950 69 264 3520
2022-11-29 13:41:05 GMT 28.085106 -16.451864 3,700 70 263 3264
2022-11-29 13:41:01 GMT 28.083242 -16.457626 3,450 70 262 3264
2022-11-29 13:40:55 GMT 28.080963 -16.464809 3,150 70 260 3072
2022-11-29 13:40:50 GMT 28.079054 -16.470875 2,950 70 258 2560
2022-11-29 13:40:40 GMT 28.074863 -16.484179 2,575 70 247 1600
2022-11-29 13:40:30 GMT 28.071138 -16.495865 2,350 69 231 1408
2022-11-29 13:40:20 GMT 28.067274 -16.507067 2,175 67 213 320
2022-11-29 13:40:10 GMT 28.063660 -16.517046 2,075 67 196 960
2022-11-29 13:39:59 GMT 28.060152 -16.526884 1,925 67 181 832
2022-11-29 13:39:49 GMT 28.057079 -16.535393 1,775 68 168 960
2022-11-29 13:39:38 GMT 28.054287 -16.543848 1,550 70 159 1472
2022-11-29 13:39:29 GMT 28.051804 -16.551327 1,250 69 149 2624
2022-11-29 13:39:17 GMT 28.048981 -16.559790 725 68 152 2880
2022-11-29 13:39:08 GMT 28.046585 -16.566696 300 68 156 2624
2022-11-29 13:38:57 GMT 28.043884 -16.574673 50 68 145 128
2022-11-29 13:38:48 GMT 28.041687 -16.580957 100 68 109 0
2022-11-29 13:38:37 GMT 28.040073 -16.585552 0 67 69
2022-11-29 13:38:26 GMT 28.039251 -16.587900 0 70 18
2022-11-29 13:38:07 GMT 28.039181 -16.588118 0 70 3
2022-11-29 13:37:56 GMT 28.039076 -16.588629 0 98 16
2022-11-29 13:37:46 GMT 28.039330 -16.589369 0 118 14
2022-11-29 13:37:36 GMT 28.039671 -16.589933 0 137 12
2022-11-29 13:37:21 GMT 28.040205 -16.590178 0 210 7
2022-11-29 13:37:15 GMT 28.040337 -16.590096 0 230 4
2022-11-29 13:37:05 GMT 28.040403 -16.590029 0 239 0
2022-11-29 13:36:55 GMT 28.040405 -16.590029 0 239 0
2022-11-29 13:36:45 GMT 28.040405 -16.590015 0 239 2
2022-11-29 13:36:33 GMT 28.040497 -16.589840 0 250 6
2022-11-29 13:36:24 GMT 28.040623 -16.589487 0 247 10
2022-11-29 13:36:13 GMT 28.040817 -16.588934 0 247 9
2022-11-29 13:36:04 GMT 28.040920 -16.588655 0 250 4
2022-11-29 13:35:40 GMT 28.040951 -16.588560 0 250 0
2022-11-29 13:34:31 GMT 28.040951 -16.588560 0 250 0
2022-11-29 13:34:15 GMT 28.040955 -16.588564 0 250 0
2022-11-29 13:33:35 GMT 28.040951 -16.588560 0 250 0
2022-11-29 13:33:25 GMT 28.040955 -16.588564 0 250 0
2022-11-29 13:33:20 GMT 28.040951 -16.588560 0 250 0
2022-11-29 13:33:10 GMT 28.040955 -16.588564 0 250 0
2022-11-29 13:32:59 GMT 28.040955 -16.588537 0 250 0
2022-11-29 13:32:49 GMT 28.041000 -16.588406 0 250 7
2022-11-29 13:32:38 GMT 28.041206 -16.587833 0 250 17
2022-11-29 13:32:28 GMT 28.041527 -16.586899 0 250 22
2022-11-29 13:32:18 GMT 28.041904 -16.585831 0 255 20
2022-11-29 13:32:08 GMT 28.042156 -16.584866 0 247 18
2022-11-29 13:31:58 GMT 28.042442 -16.584034 0 250 17
2022-11-29 13:31:47 GMT 28.042728 -16.583227 0 250 16
2022-11-29 13:31:37 GMT 28.042974 -16.582516 0 244 14
2022-11-29 13:31:26 GMT 28.043461 -16.582052 0 163 12
2022-11-29 13:31:13 GMT 28.044104 -16.582327 0 182 12
2022-11-29 13:30:59 GMT 28.044603 -16.581909 0 250 10
2022-11-29 13:30:56 GMT 28.044662 -16.581751 0 250 9
2022-11-29 13:30:42 GMT 28.044838 -16.581264 0 250 6
2022-11-29 13:30:34 GMT 28.044891 -16.581089 0 253 4
2022-11-29 13:28:00 GMT 28.044937 -16.580891 0 250 0
2022-11-29 13:27:52 GMT 28.044937 -16.580904 0 250 2
2022-11-29 13:27:34 GMT 28.044971 -16.581062 0 281 3
2022-11-29 13:27:32 GMT 28.044994 -16.581076 0 286 3
2022-11-29 13:27:21 GMT 28.045097 -16.581142 0 312 3

Making use of Plane Finder data

You are free to use the raw flight data, aircraft information and images provided in this report for your own purposes provided the data is correctly attributed to Plane Finder. We ask that you please credit Plane Finder and link to planefinder.net in close proximity to the content.

Optionally one of the following logos (no smaller then 150x24px) can be used and must link to planefinder.net

Embedding the Plane Finder map

You are welcome to embed the Plane Finder playback map on your website to offer visitors a more interactive experience. We suggest using the following HTML code:

<iframe src="//planefinder.net/data/report/BA2701-G-EUYV-7700-squawk-2022-11-29/map" width="800" height="600" seamless="seamless"></iframe>

Where our data comes from

Plane Finder has a global network of data feeds and antenna radars that receive data broadcast directly from aircraft. The primary technologies used are ADS-B and MLAT. We also show feeds from the FAA and a FLARM glider feed.

Click here to find out more about the Plane Finder network.

How we collect our data